Darstellungsparameter: Aktuell verwendete Einstellungen:
Skalierung der Graphiken ... ?
xyx+y,   Skalierungsfaktor:      Skalierung: Modus: x, Faktor: 1
Darstellungszeitraum ... ?
Vom - - bis: - -   Zeitraum: 23.06.2019 - 29.06.2019
Min/Max/Avg-Anzeige ... ?
Zeige MMA aktuell
Zeige MMA Monat
Zeige MMA alles
Zeige --A aktuell
Zeige --A Monat
Zeige --A alles
Keine MMA-Anzeige
MMA:
Average (ber die Originaldaten)
MMA-Basis: 23.02.2003 - 30.09.2020
Quicknavigation für Darstellung... ?
Tage:      1T, 2T, 3T, 5T -1T -2T -3T -5T +1T +2T +3T +5T
Wochen: 1W, 2W, 3W -1W -2W -3W +1W +2W +3W
Monate: 1M, 3M, 6M -1M -3M -6M +1M +3M +6M
Jahre:    1J, 3J, 5J, 10J -1J -3J -5J -10J +1J +3J +5J +10J
Nutze für die Darstellung ... ?
Originaldaten oder Mittelwerte auf ...
Stundenbasis Tagesbasis Wochenbasis
Monatsbasis Jahresbasis      Datenbasis: Original-Daten
Darstellen als:
Statistik (Auto) Statistik J:M      Darstellung:
Zur Graphik,    zurück zur Übersicht aller Sensoren.
 
Tabellarische Datenbersicht: ?
 
Sensor: Nr:Datum:Temp:Abs-Feuchte:Windchill:Wind:
Aussen-T/F 1 23-06-2019 00:00:00 18.1 C 12.67 g/m*3 18.1 C 0 km/h
2 23-06-2019 00:05:00 17.9 C 12.52 g/m*3 17.9 C 0 km/h
3 23-06-2019 00:10:00 17.8 C 12.45 g/m*3 17.8 C 0 km/h
4 23-06-2019 00:15:00 17.7 C 12.37 g/m*3 17.7 C 0 km/h
5 23-06-2019 00:20:00 17.6 C 12.45 g/m*3 17.6 C 0 km/h
6 23-06-2019 00:25:00 17.4 C 12.3 g/m*3 17.4 C 0 km/h
7 23-06-2019 00:30:00 17.3 C 12.37 g/m*3 17.3 C 0 km/h
8 23-06-2019 00:35:00 17.2 C 12.3 g/m*3 17.2 C 0 km/h
9 23-06-2019 00:40:00 17.1 C 12.23 g/m*3 17.1 C 0 km/h
10 23-06-2019 00:45:00 17 C 12.3 g/m*3 17 C 0 km/h
11 23-06-2019 00:50:00 16.9 C 12.23 g/m*3 16.9 C 0 km/h
12 23-06-2019 00:55:00 16.8 C 12.3 g/m*3 16.8 C 0 km/h
13 23-06-2019 01:00:00 16.7 C 12.22 g/m*3 16.7 C 0 km/h
14 23-06-2019 01:05:00 16.7 C 12.22 g/m*3 16.7 C 0 km/h
15 23-06-2019 01:10:00 16.6 C 12.15 g/m*3 16.6 C 0 km/h
16 23-06-2019 01:15:00 16.5 C 12.08 g/m*3 16.5 C 0 km/h
17 23-06-2019 01:20:00 16.4 C 12.14 g/m*3 16.4 C 0 km/h
18 23-06-2019 01:25:00 16.4 C 12.14 g/m*3 16.4 C 0 km/h
19 23-06-2019 01:30:00 16.3 C 12.07 g/m*3 16.3 C 0 km/h
20 23-06-2019 01:35:00 16.2 C 12 g/m*3 16.2 C 0 km/h
21 23-06-2019 01:40:00 16.2 C 12 g/m*3 16.2 C 0 km/h
22 23-06-2019 01:45:00 16.1 C 12.06 g/m*3 16.1 C 0 km/h
23 23-06-2019 01:50:00 16 C 11.99 g/m*3 16 C 0 km/h
24 23-06-2019 01:55:00 15.9 C 11.92 g/m*3 15.9 C 0 km/h
25 23-06-2019 02:00:00 15.9 C 12.05 g/m*3 15.9 C 0 km/h
Sensor: Nr:Datum:Temp:Abs-Feuchte:Windchill:Wind:
Aussen-T/F 26 23-06-2019 02:05:00 15.8 C 11.98 g/m*3 15.8 C 0 km/h
27 23-06-2019 02:10:00 15.8 C 11.98 g/m*3 15.8 C 0 km/h
28 23-06-2019 02:15:00 15.8 C 11.98 g/m*3 15.8 C 0 km/h
29 23-06-2019 02:20:00 15.7 C 11.91 g/m*3 15.7 C 0 km/h
30 23-06-2019 02:25:00 15.7 C 11.91 g/m*3 15.7 C 0 km/h
31 23-06-2019 02:30:00 15.7 C 11.91 g/m*3 15.7 C 0 km/h
32 23-06-2019 02:35:00 15.6 C 11.84 g/m*3 15.6 C 0 km/h
33 23-06-2019 02:40:00 15.5 C 11.76 g/m*3 15.5 C 0 km/h
34 23-06-2019 02:45:00 15.4 C 11.82 g/m*3 15.4 C 0 km/h
35 23-06-2019 02:50:00 15.4 C 11.82 g/m*3 15.4 C 0 km/h
36 23-06-2019 02:55:00 15.4 C 11.82 g/m*3 15.4 C 0 km/h
37 23-06-2019 03:00:00 15.3 C 11.75 g/m*3 15.3 C 0 km/h
38 23-06-2019 03:05:00 15.2 C 11.68 g/m*3 15.2 C 0 km/h
39 23-06-2019 03:10:00 15.2 C 11.68 g/m*3 15.2 C 0 km/h
40 23-06-2019 03:15:00 15.1 C 11.74 g/m*3 15.1 C 0 km/h
41 23-06-2019 03:20:00 15.1 C 11.74 g/m*3 15.1 C 0 km/h
42 23-06-2019 03:25:00 15 C 11.67 g/m*3 15 C 0 km/h
43 23-06-2019 03:30:00 14.9 C 11.6 g/m*3 14.9 C 0 km/h
44 23-06-2019 03:35:00 14.8 C 11.53 g/m*3 14.8 C 0 km/h
45 23-06-2019 03:40:00 14.8 C 11.53 g/m*3 14.8 C 0 km/h
46 23-06-2019 03:45:00 14.8 C 11.65 g/m*3 14.8 C 0 km/h
47 23-06-2019 03:50:00 14.8 C 11.65 g/m*3 14.8 C 0 km/h
48 23-06-2019 03:55:00 14.8 C 11.65 g/m*3 14.8 C 0 km/h
49 23-06-2019 04:00:00 14.7 C 11.58 g/m*3 14.7 C 0 km/h
50 23-06-2019 04:05:00 14.7 C 11.58 g/m*3 14.7 C 0 km/h
Sensor: Nr:Datum:Temp:Abs-Feuchte:Windchill:Wind:
Aussen-T/F 51 23-06-2019 04:10:00 14.7 C 11.58 g/m*3 14.7 C 0 km/h
52 23-06-2019 04:15:00 14.7 C 11.58 g/m*3 14.7 C 0 km/h
53 23-06-2019 04:20:00 14.7 C 11.58 g/m*3 14.7 C 0 km/h
54 23-06-2019 04:25:00 14.6 C 11.51 g/m*3 14.6 C 0 km/h
55 23-06-2019 04:30:00 14.6 C 11.51 g/m*3 14.6 C 0 km/h
56 23-06-2019 04:35:00 14.4 C 11.37 g/m*3 14.4 C 0 km/h
57 23-06-2019 04:40:00 14.4 C 11.37 g/m*3 14.4 C 0 km/h
58 23-06-2019 04:45:00 14.3 C 11.43 g/m*3 14.3 C 0 km/h
59 23-06-2019 04:50:00 14.3 C 11.43 g/m*3 14.3 C 0 km/h
60 23-06-2019 04:55:00 14.3 C 11.43 g/m*3 14.3 C 0 km/h
61 23-06-2019 05:00:00 14.3 C 11.43 g/m*3 14.3 C 0 km/h
62 23-06-2019 05:05:00 14.2 C 11.36 g/m*3 14.2 C 0 km/h
63 23-06-2019 05:10:00 14.1 C 11.29 g/m*3 14.1 C 0 km/h
64 23-06-2019 05:15:00 14.1 C 11.29 g/m*3 14.1 C 0 km/h
65 23-06-2019 05:20:00 14.1 C 11.29 g/m*3 14.1 C 0 km/h
66 23-06-2019 05:25:00 14.1 C 11.29 g/m*3 14.1 C 0 km/h
67 23-06-2019 05:30:00 14 C 11.22 g/m*3 14 C 0 km/h
68 23-06-2019 05:35:00 14 C 11.34 g/m*3 14 C 0 km/h
69 23-06-2019 05:40:00 14 C 11.22 g/m*3 14 C 0 km/h
70 23-06-2019 05:45:00 14 C 11.34 g/m*3 14 C 0 km/h
71 23-06-2019 05:50:00 14 C 11.34 g/m*3 14 C 0 km/h
72 23-06-2019 05:55:00 14 C 11.34 g/m*3 14 C 0 km/h
73 23-06-2019 06:00:00 14.1 C 11.41 g/m*3 14.1 C 0 km/h
74 23-06-2019 06:05:00 14.1 C 11.41 g/m*3 14.1 C 0 km/h
75 23-06-2019 06:10:00 14.1 C 11.41 g/m*3 14.1 C 0 km/h
Sensor: Nr:Datum:Temp:Abs-Feuchte:Windchill:Wind:
Aussen-T/F 76 23-06-2019 06:15:00 14.1 C 11.41 g/m*3 14.1 C 0 km/h
77 23-06-2019 06:20:00 14.2 C 11.48 g/m*3 14.2 C 0 km/h
78 23-06-2019 06:25:00 14.2 C 11.48 g/m*3 14.2 C 0 km/h
79 23-06-2019 06:30:00 14.3 C 11.67 g/m*3 14.3 C 0 km/h
80 23-06-2019 06:35:00 14.2 C 11.48 g/m*3 14.2 C 0 km/h
81 23-06-2019 06:40:00 14.3 C 11.55 g/m*3 14.3 C 0 km/h
82 23-06-2019 06:45:00 14.3 C 11.55 g/m*3 14.3 C 0 km/h
83 23-06-2019 06:50:00 14.3 C 11.67 g/m*3 14.3 C 0 km/h
84 23-06-2019 06:55:00 14.3 C 11.55 g/m*3 14.3 C 0 km/h
85 23-06-2019 07:00:00 14.4 C 11.62 g/m*3 14.4 C 0 km/h
86 23-06-2019 07:05:00 14.4 C 11.74 g/m*3 14.4 C 0 km/h
87 23-06-2019 07:10:00 14.5 C 11.82 g/m*3 14.5 C 0 km/h
88 23-06-2019 07:15:00 14.6 C 11.89 g/m*3 14.6 C 0 km/h
89 23-06-2019 07:20:00 14.6 C 11.89 g/m*3 14.6 C 0 km/h
90 23-06-2019 07:25:00 14.7 C 11.96 g/m*3 14.7 C 0 km/h
91 23-06-2019 07:30:00 14.7 C 11.96 g/m*3 14.7 C 0 km/h
92 23-06-2019 07:35:00 14.8 C 12.03 g/m*3 14.8 C 0 km/h
93 23-06-2019 07:40:00 14.9 C 12.11 g/m*3 14.9 C 0 km/h
94 23-06-2019 07:45:00 15 C 12.18 g/m*3 15 C 0 km/h
95 23-06-2019 07:50:00 15.1 C 12.26 g/m*3 15.1 C 0 km/h
96 23-06-2019 07:55:00 15.2 C 12.33 g/m*3 15.2 C 0 km/h
97 23-06-2019 08:00:00 15.3 C 12.41 g/m*3 15.3 C 0 km/h
98 23-06-2019 08:05:00 15.4 C 12.48 g/m*3 15.4 C 0 km/h
99 23-06-2019 08:10:00 15.6 C 12.63 g/m*3 15.6 C 0 km/h
100 23-06-2019 08:15:00 15.8 C 12.79 g/m*3 15.8 C 0 km/h
Sensor: Nr:Datum:Temp:Abs-Feuchte:Windchill:Wind:
Aussen-T/F 101 23-06-2019 08:20:00 15.9 C 12.87 g/m*3 15.9 C 0 km/h
102 23-06-2019 08:25:00 16 C 12.94 g/m*3 16 C 0 km/h
103 23-06-2019 08:30:00 16.2 C 13.1 g/m*3 16.2 C 0 km/h
104 23-06-2019 08:35:00 16.3 C 13.04 g/m*3 16.3 C 0 km/h
105 23-06-2019 08:40:00 16.4 C 13.12 g/m*3 16.4 C 0 km/h
106 23-06-2019 08:45:00 16.6 C 13.28 g/m*3 16.6 C 0 km/h
107 23-06-2019 08:50:00 16.7 C 13.36 g/m*3 16.7 C 0 km/h
108 23-06-2019 08:55:00 16.9 C 13.52 g/m*3 16.9 C 3.2 km/h
109 23-06-2019 09:00:00 17.2 C 13.62 g/m*3 17.2 C 0 km/h
110 23-06-2019 09:05:00 17.4 C 13.78 g/m*3 17.4 C 0 km/h
111 23-06-2019 09:10:00 17.6 C 13.8 g/m*3 17.6 C 0 km/h
112 23-06-2019 09:15:00 17.8 C 13.81 g/m*3 17.8 C 1.6 km/h
113 23-06-2019 09:20:00 18.1 C 13.91 g/m*3 18.1 C 1.6 km/h
114 23-06-2019 09:25:00 18.3 C 13.6 g/m*3 18.3 C 8.1 km/h
115 23-06-2019 09:30:00 18.8 C 14.01 g/m*3 18.8 C 8.1 km/h
116 23-06-2019 09:35:00 19.1 C 14.1 g/m*3 19.1 C 8.1 km/h
117 23-06-2019 09:40:00 19.4 C 13.68 g/m*3 19.4 C 4.8 km/h
118 23-06-2019 09:45:00 19.8 C 14.18 g/m*3 19.8 C 0 km/h
119 23-06-2019 09:50:00 20 C 13.48 g/m*3 20 C 6.4 km/h
120 23-06-2019 09:55:00 20.4 C 13.44 g/m*3 20.4 C 6.4 km/h
121 23-06-2019 10:00:00 20.8 C 13.4 g/m*3 20.8 C 6.4 km/h
122 23-06-2019 10:05:00 21.1 C 13.63 g/m*3 21.1 C 11.3 km/h
123 23-06-2019 10:10:00 21.5 C 13.58 g/m*3 21.5 C 11.3 km/h
124 23-06-2019 10:15:00 21.9 C 13.51 g/m*3 21.9 C 12.9 km/h
125 23-06-2019 10:20:00 22.3 C 13.82 g/m*3 22.3 C 9.7 km/h
Sensor: Nr:Datum:Temp:Abs-Feuchte:Windchill:Wind:
Aussen-T/F 126 23-06-2019 10:25:00 22.7 C 13.74 g/m*3 22.7 C 9.7 km/h
127 23-06-2019 10:30:00 23 C 13.98 g/m*3 23 C 12.9 km/h
128 23-06-2019 10:35:00 23.2 C 13.93 g/m*3 23.2 C 12.9 km/h
129 23-06-2019 10:40:00 23.3 C 14.01 g/m*3 23.3 C 9.7 km/h
130 23-06-2019 10:45:00 23.4 C 13.88 g/m*3 23.4 C 12.9 km/h
131 23-06-2019 10:50:00 23.5 C 13.96 g/m*3 23.5 C 11.3 km/h
132 23-06-2019 10:55:00 23.6 C 14.04 g/m*3 23.6 C 8.1 km/h
133 23-06-2019 11:00:00 23.7 C 14.12 g/m*3 23.7 C 12.9 km/h
134 23-06-2019 11:05:00 23.7 C 14.12 g/m*3 23.7 C 6.4 km/h
135 23-06-2019 11:10:00 23.8 C 13.98 g/m*3 23.8 C 14.5 km/h
136 23-06-2019 11:15:00 23.9 C 14.06 g/m*3 23.9 C 14.5 km/h
137 23-06-2019 11:20:00 24 C 14.14 g/m*3 24 C 12.9 km/h
138 23-06-2019 11:25:00 24.1 C 14 g/m*3 24.1 C 14.5 km/h
139 23-06-2019 11:30:00 24.1 C 14 g/m*3 24.1 C 12.9 km/h
140 23-06-2019 11:35:00 24.3 C 14.16 g/m*3 24.3 C 9.7 km/h
141 23-06-2019 11:40:00 24.4 C 14.02 g/m*3 24.4 C 9.7 km/h
142 23-06-2019 11:45:00 24.5 C 14.32 g/m*3 24.5 C 8.1 km/h
143 23-06-2019 11:50:00 24.6 C 14.18 g/m*3 24.6 C 8.1 km/h
144 23-06-2019 11:55:00 24.6 C 14.18 g/m*3 24.6 C 11.3 km/h
145 23-06-2019 12:00:00 24.7 C 14.49 g/m*3 24.7 C 8.1 km/h
146 23-06-2019 12:05:00 24.7 C 14.26 g/m*3 24.7 C 8.1 km/h
147 23-06-2019 12:10:00 24.8 C 14.11 g/m*3 24.8 C 11.3 km/h
148 23-06-2019 12:15:00 24.8 C 14.34 g/m*3 24.8 C 11.3 km/h
149 23-06-2019 12:20:00 24.9 C 14.19 g/m*3 24.9 C 8.1 km/h
150 23-06-2019 12:25:00 25.1 C 14.35 g/m*3 25.1 C 6.4 km/h
Sensor: Nr:Datum:Temp:Abs-Feuchte:Windchill:Wind:
Aussen-T/F 151 23-06-2019 12:30:00 25.2 C 14.43 g/m*3 25.2 C 11.3 km/h
152 23-06-2019 12:35:00 25.3 C 14.51 g/m*3 25.3 C 12.9 km/h
153 23-06-2019 12:40:00 25.4 C 14.13 g/m*3 25.4 C 11.3 km/h
154 23-06-2019 12:45:00 25.7 C 14.36 g/m*3 25.7 C 11.3 km/h
155 23-06-2019 12:50:00 25.9 C 14.53 g/m*3 25.9 C 16.1 km/h
156 23-06-2019 12:55:00 26.1 C 14.2 g/m*3 26.1 C 12.9 km/h
157 23-06-2019 13:00:00 26.1 C 14.44 g/m*3 26.1 C 8.1 km/h
158 23-06-2019 13:05:00 26.2 C 14.28 g/m*3 26.2 C 6.4 km/h
159 23-06-2019 13:10:00 26.2 C 14.52 g/m*3 26.2 C 4.8 km/h
160 23-06-2019 13:15:00 26.2 C 14.03 g/m*3 26.2 C 12.9 km/h
161 23-06-2019 13:20:00 26.2 C 14.03 g/m*3 26.2 C 9.7 km/h
162 23-06-2019 13:25:00 26.3 C 13.86 g/m*3 26.3 C 11.3 km/h
163 23-06-2019 13:30:00 26.6 C 13.84 g/m*3 26.6 C 12.9 km/h
164 23-06-2019 13:35:00 26.8 C 14.25 g/m*3 26.8 C 9.7 km/h
165 23-06-2019 13:40:00 26.9 C 14.08 g/m*3 26.9 C 14.5 km/h
166 23-06-2019 13:45:00 27.1 C 13.97 g/m*3 27.1 C 8.1 km/h
167 23-06-2019 13:50:00 27.2 C 13.79 g/m*3 27.2 C 14.5 km/h
168 23-06-2019 13:55:00 27.2 C 13.79 g/m*3 27.2 C 12.9 km/h
169 23-06-2019 14:00:00 27.2 C 13.79 g/m*3 27.2 C 25.7 km/h
170 23-06-2019 14:05:00 27.2 C 13.53 g/m*3 27.2 C 16.1 km/h
171 23-06-2019 14:10:00 27.3 C 13.87 g/m*3 27.3 C 19.3 km/h
172 23-06-2019 14:15:00 27.6 C 13.83 g/m*3 27.6 C 12.9 km/h
173 23-06-2019 14:20:00 27.7 C 14.18 g/m*3 27.7 C 9.7 km/h
174 23-06-2019 14:25:00 28.1 C 13.95 g/m*3 28.1 C 14.5 km/h
175 23-06-2019 14:30:00 28.2 C 14.02 g/m*3 28.2 C 11.3 km/h
Sensor: Nr:Datum:Temp:Abs-Feuchte:Windchill:Wind:
Aussen-T/F 176 23-06-2019 14:35:00 28.2 C 13.75 g/m*3 28.2 C 4.8 km/h
177 23-06-2019 14:40:00 28.3 C 13.55 g/m*3 28.3 C 19.3 km/h
178 23-06-2019 14:45:00 28.3 C 13.82 g/m*3 28.3 C 9.7 km/h
179 23-06-2019 14:50:00 28.1 C 13.4 g/m*3 28.1 C 12.9 km/h
180 23-06-2019 14:55:00 27.9 C 13.52 g/m*3 27.9 C 12.9 km/h
181 23-06-2019 15:00:00 27.7 C 13.37 g/m*3 27.7 C 8.1 km/h
182 23-06-2019 15:05:00 27.7 C 13.37 g/m*3 27.7 C 8.1 km/h
183 23-06-2019 15:10:00 27.9 C 13.52 g/m*3 27.9 C 9.7 km/h
184 23-06-2019 15:15:00 28.1 C 13.4 g/m*3 28.1 C 8.1 km/h
185 23-06-2019 15:20:00 28.1 C 13.67 g/m*3 28.1 C 8.1 km/h
186 23-06-2019 15:25:00 28.2 C 13.2 g/m*3 28.2 C 9.7 km/h
187 23-06-2019 15:30:00 28.3 C 13.27 g/m*3 28.3 C 8.1 km/h
188 23-06-2019 15:35:00 28.3 C 13.82 g/m*3 28.3 C 4.8 km/h
189 23-06-2019 15:40:00 29 C 13.79 g/m*3 29 C 9.7 km/h
190 23-06-2019 15:45:00 29.4 C 13.5 g/m*3 29.4 C 9.7 km/h
191 23-06-2019 15:50:00 29.9 C 13.87 g/m*3 29.9 C 8.1 km/h
192 23-06-2019 15:55:00 30.3 C 13.56 g/m*3 30.3 C 8.1 km/h
193 23-06-2019 16:00:00 30.4 C 13.01 g/m*3 30.4 C 9.7 km/h
194 23-06-2019 16:05:00 30.7 C 13.54 g/m*3 30.7 C 4.8 km/h
195 23-06-2019 16:10:00 30.7 C 13.23 g/m*3 30.7 C 14.5 km/h
196 23-06-2019 16:15:00 30.4 C 13.01 g/m*3 30.4 C 14.5 km/h
197 23-06-2019 16:20:00 30.1 C 13.11 g/m*3 30.1 C 16.1 km/h
198 23-06-2019 16:25:00 30.1 C 13.11 g/m*3 30.1 C 11.3 km/h
199 23-06-2019 16:30:00 30 C 13.34 g/m*3 30 C 11.3 km/h
200 23-06-2019 16:35:00 29.9 C 13.27 g/m*3 29.9 C 9.7 km/h
Sensor: Nr:Datum:Temp:Abs-Feuchte:Windchill:Wind:
Aussen-T/F 201 23-06-2019 16:40:00 29.9 C 13.27 g/m*3 29.9 C 8.1 km/h
202 23-06-2019 16:45:00 30.1 C 13.72 g/m*3 30.1 C 6.4 km/h
203 23-06-2019 16:50:00 30.2 C 13.18 g/m*3 30.2 C 9.7 km/h
204 23-06-2019 16:55:00 30.4 C 13.32 g/m*3 30.4 C 6.4 km/h
205 23-06-2019 17:00:00 30.7 C 13.54 g/m*3 30.7 C 12.9 km/h
206 23-06-2019 17:05:00 30.3 C 13.25 g/m*3 30.3 C 16.1 km/h
207 23-06-2019 17:10:00 29.9 C 13.57 g/m*3 29.9 C 9.7 km/h
208 23-06-2019 17:15:00 29.7 C 13.43 g/m*3 29.7 C 8.1 km/h
209 23-06-2019 17:20:00 29.9 C 13.27 g/m*3 29.9 C 6.4 km/h
210 23-06-2019 17:25:00 30.3 C 13.56 g/m*3 30.3 C 6.4 km/h
211 23-06-2019 17:30:00 30.7 C 13.54 g/m*3 30.7 C 6.4 km/h
212 23-06-2019 17:35:00 31.1 C 13.84 g/m*3 31.1 C 8.1 km/h
213 23-06-2019 17:40:00 31.2 C 13.59 g/m*3 31.2 C 14.5 km/h
214 23-06-2019 17:45:00 31.2 C 13.91 g/m*3 31.2 C 8.1 km/h
215 23-06-2019 17:50:00 31.2 C 13.59 g/m*3 31.2 C 8.1 km/h
216 23-06-2019 17:55:00 31 C 13.12 g/m*3 31 C 14.5 km/h
217 23-06-2019 18:00:00 30.5 C 14.02 g/m*3 30.5 C 11.3 km/h
218 23-06-2019 18:05:00 30.3 C 13.56 g/m*3 30.3 C 6.4 km/h
219 23-06-2019 18:10:00 30.3 C 13.25 g/m*3 30.3 C 9.7 km/h
220 23-06-2019 18:15:00 30.4 C 13.01 g/m*3 30.4 C 4.8 km/h
221 23-06-2019 18:20:00 30.7 C 13.54 g/m*3 30.7 C 4.8 km/h
222 23-06-2019 18:25:00 30.7 C 13.54 g/m*3 30.7 C 6.4 km/h
223 23-06-2019 18:30:00 30.7 C 15.12 g/m*3 30.7 C 4.8 km/h
224 23-06-2019 18:35:00 30.6 C 13.78 g/m*3 30.6 C 3.2 km/h
225 23-06-2019 18:40:00 30.3 C 13.25 g/m*3 30.3 C 6.4 km/h
Sensor: Nr:Datum:Temp:Abs-Feuchte:Windchill:Wind:
Aussen-T/F 226 23-06-2019 18:45:00 29.9 C 13.27 g/m*3 29.9 C 9.7 km/h
227 23-06-2019 18:50:00 29.6 C 13.35 g/m*3 29.6 C 9.7 km/h
228 23-06-2019 18:55:00 29.6 C 13.65 g/m*3 29.6 C 11.3 km/h
229 23-06-2019 19:00:00 29.6 C 13.95 g/m*3 29.6 C 9.7 km/h
230 23-06-2019 19:05:00 29.5 C 13.87 g/m*3 29.5 C 3.2 km/h
231 23-06-2019 19:10:00 29.3 C 13.43 g/m*3 29.3 C 4.8 km/h
232 23-06-2019 19:15:00 29.1 C 13.28 g/m*3 29.1 C 4.8 km/h
233 23-06-2019 19:20:00 28.9 C 13.43 g/m*3 28.9 C 6.4 km/h
234 23-06-2019 19:25:00 29 C 13.5 g/m*3 29 C 6.4 km/h
235 23-06-2019 19:30:00 29.1 C 13.86 g/m*3 29.1 C 4.8 km/h
236 23-06-2019 19:35:00 29.1 C 15.31 g/m*3 29.1 C 6.4 km/h
237 23-06-2019 19:40:00 29.1 C 15.6 g/m*3 29.1 C 1.6 km/h
238 23-06-2019 19:45:00 28.9 C 15.71 g/m*3 28.9 C 0 km/h
239 23-06-2019 19:50:00 28.6 C 16.02 g/m*3 28.6 C 0 km/h
240 23-06-2019 19:55:00 28.1 C 15.59 g/m*3 28.1 C 0 km/h
241 23-06-2019 20:00:00 27.6 C 15.16 g/m*3 27.6 C 0 km/h
242 23-06-2019 20:05:00 27.1 C 15.27 g/m*3 27.1 C 0 km/h
243 23-06-2019 20:10:00 26.7 C 15.19 g/m*3 26.7 C 0 km/h
244 23-06-2019 20:15:00 26.4 C 15.19 g/m*3 26.4 C 0 km/h
245 23-06-2019 20:20:00 26.2 C 15.26 g/m*3 26.2 C 0 km/h
246 23-06-2019 20:25:00 25.9 C 15.01 g/m*3 25.9 C 0 km/h
247 23-06-2019 20:30:00 25.7 C 14.84 g/m*3 25.7 C 0 km/h
248 23-06-2019 20:35:00 25.4 C 14.83 g/m*3 25.4 C 0 km/h
249 23-06-2019 20:40:00 25.2 C 14.9 g/m*3 25.2 C 0 km/h
250 23-06-2019 20:45:00 24.9 C 14.65 g/m*3 24.9 C 0 km/h
Sensor: Nr:Datum:Temp:Abs-Feuchte:Windchill:Wind:
Aussen-T/F 251 23-06-2019 20:50:00 24.7 C 14.71 g/m*3 24.7 C 0 km/h
252 23-06-2019 20:55:00 24.5 C 14.55 g/m*3 24.5 C 0 km/h
253 23-06-2019 21:00:00 24.3 C 14.38 g/m*3 24.3 C 0 km/h
254 23-06-2019 21:05:00 24.2 C 14.52 g/m*3 24.2 C 0 km/h
255 23-06-2019 21:10:00 24 C 14.58 g/m*3 24 C 0 km/h
256 23-06-2019 21:15:00 23.8 C 14.41 g/m*3 23.8 C 0 km/h
257 23-06-2019 21:20:00 23.6 C 14.25 g/m*3 23.6 C 0 km/h
258 23-06-2019 21:25:00 23.5 C 14.17 g/m*3 23.5 C 0 km/h
259 23-06-2019 21:30:00 23.3 C 14.22 g/m*3 23.3 C 0 km/h
260 23-06-2019 21:35:00 23.2 C 14.14 g/m*3 23.2 C 0 km/h
261 23-06-2019 21:40:00 23 C 14.18 g/m*3 23 C 0 km/h
262 23-06-2019 21:45:00 22.8 C 14.02 g/m*3 22.8 C 0 km/h
263 23-06-2019 21:50:00 22.6 C 13.86 g/m*3 22.6 C 0 km/h
264 23-06-2019 21:55:00 22.4 C 13.9 g/m*3 22.4 C 0 km/h
265 23-06-2019 22:00:00 22.3 C 13.82 g/m*3 22.3 C 0 km/h
266 23-06-2019 22:05:00 22.2 C 13.74 g/m*3 22.2 C 0 km/h
267 23-06-2019 22:10:00 22.1 C 13.86 g/m*3 22.1 C 0 km/h
268 23-06-2019 22:15:00 22 C 13.78 g/m*3 22 C 0 km/h
269 23-06-2019 22:20:00 21.9 C 13.89 g/m*3 21.9 C 0 km/h
270 23-06-2019 22:25:00 21.8 C 13.81 g/m*3 21.8 C 0 km/h
271 23-06-2019 22:30:00 21.7 C 13.73 g/m*3 21.7 C 0 km/h
272 23-06-2019 22:35:00 21.6 C 13.85 g/m*3 21.6 C 0 km/h
273 23-06-2019 22:40:00 21.4 C 13.69 g/m*3 21.4 C 0 km/h
274 23-06-2019 22:45:00 21.3 C 13.79 g/m*3 21.3 C 0 km/h
275 23-06-2019 22:50:00 21.2 C 13.9 g/m*3 21.2 C 0 km/h
Sensor: Nr:Datum:Temp:Abs-Feuchte:Windchill:Wind:
Aussen-T/F 276 23-06-2019 22:55:00 21 C 13.74 g/m*3 21 C 0 km/h
277 23-06-2019 23:00:00 20.9 C 13.66 g/m*3 20.9 C 0 km/h
278 23-06-2019 23:05:00 20.8 C 13.76 g/m*3 20.8 C 0 km/h
279 23-06-2019 23:10:00 20.7 C 13.68 g/m*3 20.7 C 0 km/h
280 23-06-2019 23:15:00 20.6 C 13.78 g/m*3 20.6 C 0 km/h
281 23-06-2019 23:20:00 20.4 C 13.62 g/m*3 20.4 C 0 km/h
282 23-06-2019 23:25:00 20.3 C 13.72 g/m*3 20.3 C 0 km/h
283 23-06-2019 23:30:00 20.2 C 13.64 g/m*3 20.2 C 0 km/h
284 23-06-2019 23:35:00 20.1 C 13.56 g/m*3 20.1 C 0 km/h
285 23-06-2019 23:40:00 19.9 C 13.57 g/m*3 19.9 C 0 km/h
286 23-06-2019 23:45:00 19.8 C 13.66 g/m*3 19.8 C 0 km/h
287 23-06-2019 23:50:00 19.7 C 13.58 g/m*3 19.7 C 0 km/h
288 23-06-2019 23:55:00 19.6 C 13.51 g/m*3 19.6 C 0 km/h
289 24-06-2019 00:00:00 19.5 C 13.59 g/m*3 19.5 C 0 km/h
290 24-06-2019 00:05:00 19.4 C 13.51 g/m*3 19.4 C 0 km/h
291 24-06-2019 00:10:00 19.3 C 13.44 g/m*3 19.3 C 0 km/h
292 24-06-2019 00:15:00 19.3 C 13.6 g/m*3 19.3 C 0 km/h
293 24-06-2019 00:20:00 19.2 C 13.52 g/m*3 19.2 C 0 km/h
294 24-06-2019 00:25:00 19.2 C 13.52 g/m*3 19.2 C 0 km/h
295 24-06-2019 00:30:00 19.1 C 13.44 g/m*3 19.1 C 0 km/h
296 24-06-2019 00:35:00 19 C 13.53 g/m*3 19 C 0 km/h
297 24-06-2019 00:40:00 18.9 C 13.45 g/m*3 18.9 C 0 km/h
298 24-06-2019 00:45:00 18.9 C 13.45 g/m*3 18.9 C 0 km/h
299 24-06-2019 00:50:00 18.8 C 13.37 g/m*3 18.8 C 0 km/h
300 24-06-2019 00:55:00 18.8 C 13.37 g/m*3 18.8 C 0 km/h
Sensor: Nr:Datum:Temp:Abs-Feuchte:Windchill:Wind:
Aussen-T/F 301 24-06-2019 01:00:00 18.7 C 13.45 g/m*3 18.7 C 0 km/h
302 24-06-2019 01:05:00 18.7 C 13.45 g/m*3 18.7 C 0 km/h
303 24-06-2019 01:10:00 18.7 C 13.45 g/m*3 18.7 C 0 km/h
304 24-06-2019 01:15:00 18.7 C 13.45 g/m*3 18.7 C 0 km/h
305 24-06-2019 01:20:00 18.6 C 13.37 g/m*3 18.6 C 0 km/h
306 24-06-2019 01:25:00 18.5 C 13.29 g/m*3 18.5 C 0 km/h
307 24-06-2019 01:30:00 18.4 C 13.21 g/m*3 18.4 C 0 km/h
308 24-06-2019 01:35:00 18.3 C 13.13 g/m*3 18.3 C 0 km/h
309 24-06-2019 01:40:00 18.3 C 13.29 g/m*3 18.3 C 0 km/h
310 24-06-2019 01:45:00 18.2 C 13.21 g/m*3 18.2 C 0 km/h
311 24-06-2019 01:50:00 18.1 C 13.13 g/m*3 18.1 C 0 km/h
312 24-06-2019 01:55:00 18 C 13.06 g/m*3 18 C 0 km/h
313 24-06-2019 02:00:00 17.9 C 13.13 g/m*3 17.9 C 0 km/h
314 24-06-2019 02:05:00 17.9 C 13.13 g/m*3 17.9 C 0 km/h
315 24-06-2019 02:10:00 17.8 C 13.05 g/m*3 17.8 C 0 km/h
316 24-06-2019 02:15:00 17.7 C 12.98 g/m*3 17.7 C 0 km/h
317 24-06-2019 02:20:00 17.7 C 13.13 g/m*3 17.7 C 0 km/h
318 24-06-2019 02:25:00 17.6 C 13.05 g/m*3 17.6 C 0 km/h
319 24-06-2019 02:30:00 17.5 C 12.97 g/m*3 17.5 C 0 km/h
320 24-06-2019 02:35:00 17.4 C 12.89 g/m*3 17.4 C 0 km/h
321 24-06-2019 02:40:00 17.3 C 12.96 g/m*3 17.3 C 0 km/h
322 24-06-2019 02:45:00 17.3 C 12.96 g/m*3 17.3 C 0 km/h
323 24-06-2019 02:50:00 17.2 C 12.89 g/m*3 17.2 C 0 km/h
324 24-06-2019 02:55:00 17.2 C 13.03 g/m*3 17.2 C 0 km/h
325 24-06-2019 03:00:00 17.2 C 12.89 g/m*3 17.2 C 0 km/h
Sensor: Nr:Datum:Temp:Abs-Feuchte:Windchill:Wind:
Aussen-T/F 326 24-06-2019 03:05:00 17.1 C 12.81 g/m*3 17.1 C 0 km/h
327 24-06-2019 03:10:00 17.1 C 12.96 g/m*3 17.1 C 0 km/h
328 24-06-2019 03:15:00 17.1 C 12.96 g/m*3 17.1 C 0 km/h
329 24-06-2019 03:20:00 17 C 12.88 g/m*3 17 C 0 km/h
330 24-06-2019 03:25:00 17 C 12.88 g/m*3 17 C 0 km/h
331 24-06-2019 03:30:00 16.9 C 12.8 g/m*3 16.9 C 0 km/h
332 24-06-2019 03:35:00 16.9 C 12.8 g/m*3 16.9 C 0 km/h
333 24-06-2019 03:40:00 16.9 C 12.8 g/m*3 16.9 C 0 km/h
334 24-06-2019 03:45:00 16.8 C 12.87 g/m*3 16.8 C 0 km/h
335 24-06-2019 03:50:00 16.8 C 12.87 g/m*3 16.8 C 0 km/h
336 24-06-2019 03:55:00 16.7 C 12.79 g/m*3 16.7 C 0 km/h
337 24-06-2019 04:00:00 16.7 C 12.79 g/m*3 16.7 C 0 km/h
338 24-06-2019 04:05:00 16.7 C 12.79 g/m*3 16.7 C 0 km/h
339 24-06-2019 04:10:00 16.7 C 12.79 g/m*3 16.7 C 0 km/h
340 24-06-2019 04:15:00 16.6 C 12.71 g/m*3 16.6 C 0 km/h
341 24-06-2019 04:20:00 16.6 C 12.86 g/m*3 16.6 C 0 km/h
342 24-06-2019 04:25:00 16.6 C 12.86 g/m*3 16.6 C 0 km/h
343 24-06-2019 04:30:00 16.6 C 12.86 g/m*3 16.6 C 0 km/h
344 24-06-2019 04:35:00 16.5 C 12.78 g/m*3 16.5 C 0 km/h
345 24-06-2019 04:40:00 16.4 C 12.7 g/m*3 16.4 C 0 km/h
346 24-06-2019 04:45:00 16.4 C 12.7 g/m*3 16.4 C 0 km/h
347 24-06-2019 04:50:00 16.4 C 12.7 g/m*3 16.4 C 0 km/h
348 24-06-2019 04:55:00 16.4 C 12.7 g/m*3 16.4 C 0 km/h
349 24-06-2019 05:00:00 16.4 C 12.84 g/m*3 16.4 C 0 km/h
350 24-06-2019 05:05:00 16.3 C 12.76 g/m*3 16.3 C 0 km/h
Sensor: Nr:Datum:Temp:Abs-Feuchte:Windchill:Wind:
Aussen-T/F 351 24-06-2019 05:10:00 16.3 C 12.76 g/m*3 16.3 C 0 km/h
352 24-06-2019 05:15:00 16.3 C 12.76 g/m*3 16.3 C 0 km/h
353 24-06-2019 05:20:00 16.4 C 12.84 g/m*3 16.4 C 0 km/h
354 24-06-2019 05:25:00 16.4 C 12.84 g/m*3 16.4 C 0 km/h
355 24-06-2019 05:30:00 16.5 C 13.06 g/m*3 16.5 C 0 km/h
356 24-06-2019 05:35:00 16.5 C 12.92 g/m*3 16.5 C 0 km/h
357 24-06-2019 05:40:00 16.5 C 12.92 g/m*3 16.5 C 0 km/h
358 24-06-2019 05:45:00 16.4 C 12.84 g/m*3 16.4 C 0 km/h
359 24-06-2019 05:50:00 16.4 C 12.84 g/m*3 16.4 C 0 km/h
360 24-06-2019 05:55:00 16.5 C 12.92 g/m*3 16.5 C 0 km/h
361 24-06-2019 06:00:00 16.5 C 12.92 g/m*3 16.5 C 0 km/h
362 24-06-2019 06:05:00 16.5 C 13.06 g/m*3 16.5 C 0 km/h
363 24-06-2019 06:10:00 16.6 C 13.14 g/m*3 16.6 C 0 km/h
364 24-06-2019 06:15:00 16.6 C 13.14 g/m*3 16.6 C 0 km/h
365 24-06-2019 06:20:00 16.7 C 13.22 g/m*3 16.7 C 0 km/h
366 24-06-2019 06:25:00 16.7 C 13.22 g/m*3 16.7 C 0 km/h
367 24-06-2019 06:30:00 16.7 C 13.22 g/m*3 16.7 C 0 km/h
368 24-06-2019 06:35:00 16.8 C 13.3 g/m*3 16.8 C 0 km/h
369 24-06-2019 06:40:00 16.8 C 13.3 g/m*3 16.8 C 0 km/h
370 24-06-2019 06:45:00 16.8 C 13.3 g/m*3 16.8 C 0 km/h
371 24-06-2019 06:50:00 16.9 C 13.38 g/m*3 16.9 C 0 km/h
372 24-06-2019 06:55:00 16.9 C 13.38 g/m*3 16.9 C 0 km/h
373 24-06-2019 07:00:00 17.1 C 13.54 g/m*3 17.1 C 0 km/h
374 24-06-2019 07:05:00 17.1 C 13.54 g/m*3 17.1 C 0 km/h
375 24-06-2019 07:10:00 17.2 C 13.62 g/m*3 17.2 C 0 km/h
Sensor: Nr:Datum:Temp:Abs-Feuchte:Windchill:Wind:
Aussen-T/F 376 24-06-2019 07:15:00 17.3 C 13.7 g/m*3 17.3 C 0 km/h
377 24-06-2019 07:20:00 17.3 C 13.7 g/m*3 17.3 C 0 km/h
378 24-06-2019 07:25:00 17.4 C 13.78 g/m*3 17.4 C 0 km/h
379 24-06-2019 07:30:00 17.5 C 13.87 g/m*3 17.5 C 0 km/h
380 24-06-2019 07:35:00 17.6 C 13.95 g/m*3 17.6 C 0 km/h
381 24-06-2019 07:40:00 17.6 C 13.95 g/m*3 17.6 C 0 km/h
382 24-06-2019 07:45:00 17.7 C 14.03 g/m*3 17.7 C 0 km/h
383 24-06-2019 07:50:00 17.8 C 14.12 g/m*3 17.8 C 0 km/h
384 24-06-2019 07:55:00 17.8 C 13.96 g/m*3 17.8 C 0 km/h
385 24-06-2019 08:00:00 17.9 C 14.05 g/m*3 17.9 C 0 km/h
386 24-06-2019 08:05:00 18 C 14.13 g/m*3 18 C 0 km/h
387 24-06-2019 08:10:00 18.1 C 14.21 g/m*3 18.1 C 0 km/h
388 24-06-2019 08:15:00 18.2 C 14.3 g/m*3 18.2 C 0 km/h
389 24-06-2019 08:20:00 18.3 C 14.38 g/m*3 18.3 C 0 km/h
390 24-06-2019 08:25:00 18.5 C 14.56 g/m*3 18.5 C 0 km/h
391 24-06-2019 08:30:00 18.6 C 14.64 g/m*3 18.6 C 0 km/h
392 24-06-2019 08:35:00 18.7 C 14.73 g/m*3 18.7 C 0 km/h
393 24-06-2019 08:40:00 18.8 C 14.82 g/m*3 18.8 C 0 km/h
394 24-06-2019 08:45:00 19 C 14.83 g/m*3 19 C 0 km/h
395 24-06-2019 08:50:00 19.2 C 15.01 g/m*3 19.2 C 0 km/h
396 24-06-2019 08:55:00 19.3 C 15.09 g/m*3 19.3 C 0 km/h
397 24-06-2019 09:00:00 19.6 C 15.36 g/m*3 19.6 C 0 km/h
398 24-06-2019 09:05:00 19.7 C 15.28 g/m*3 19.7 C 1.6 km/h
399 24-06-2019 09:10:00 19.9 C 15.46 g/m*3 19.9 C 0 km/h
400 24-06-2019 09:15:00 20.2 C 15.56 g/m*3 20.2 C 1.6 km/h
Sensor: Nr:Datum:Temp:Abs-Feuchte:Windchill:Wind:
Aussen-T/F 401 24-06-2019 09:20:00 20.4 C 15.57 g/m*3 20.4 C 4.8 km/h
402 24-06-2019 09:25:00 20.8 C 15.75 g/m*3 20.8 C 4.8 km/h
403 24-06-2019 09:30:00 21.3 C 15.66 g/m*3 21.3 C 4.8 km/h
404 24-06-2019 09:35:00 21.9 C 16.02 g/m*3 21.9 C 4.8 km/h
405 24-06-2019 09:40:00 22.3 C 15.99 g/m*3 22.3 C 4.8 km/h
406 24-06-2019 09:45:00 22.7 C 15.96 g/m*3 22.7 C 3.2 km/h
407 24-06-2019 09:50:00 23 C 15.83 g/m*3 23 C 8.1 km/h
408 24-06-2019 09:55:00 23.3 C 16.1 g/m*3 23.3 C 6.4 km/h
409 24-06-2019 10:00:00 23.5 C 16.28 g/m*3 23.5 C 8.1 km/h
410 24-06-2019 10:05:00 23.9 C 15.79 g/m*3 23.9 C 9.7 km/h
411 24-06-2019 10:10:00 24.3 C 16.15 g/m*3 24.3 C 3.2 km/h
412 24-06-2019 10:15:00 24.8 C 15.93 g/m*3 24.8 C 12.9 km/h
413 24-06-2019 10:20:00 25.3 C 15.69 g/m*3 25.3 C 9.7 km/h
414 24-06-2019 10:25:00 25.6 C 15.95 g/m*3 25.6 C 9.7 km/h
415 24-06-2019 10:30:00 25.9 C 15.49 g/m*3 25.9 C 6.4 km/h
416 24-06-2019 10:35:00 26.2 C 15.76 g/m*3 26.2 C 8.1 km/h
417 24-06-2019 10:40:00 26.3 C 15.35 g/m*3 26.3 C 6.4 km/h
418 24-06-2019 10:45:00 26.6 C 16.11 g/m*3 26.6 C 8.1 km/h
419 24-06-2019 10:50:00 26.6 C 15.61 g/m*3 26.6 C 6.4 km/h
420 24-06-2019 10:55:00 26.7 C 15.69 g/m*3 26.7 C 11.3 km/h
421 24-06-2019 11:00:00 26.7 C 15.44 g/m*3 26.7 C 6.4 km/h
422 24-06-2019 11:05:00 26.7 C 15.44 g/m*3 26.7 C 12.9 km/h
423 24-06-2019 11:10:00 26.7 C 15.19 g/m*3 26.7 C 4.8 km/h
424 24-06-2019 11:15:00 26.8 C 15.53 g/m*3 26.8 C 6.4 km/h
425 24-06-2019 11:20:00 26.7 C 15.19 g/m*3 26.7 C 6.4 km/h
Sensor: Nr:Datum:Temp:Abs-Feuchte:Windchill:Wind:
Aussen-T/F 426 24-06-2019 11:25:00 26.9 C 15.1 g/m*3 26.9 C 11.3 km/h
427 24-06-2019 11:30:00 27 C 15.18 g/m*3 27 C 6.4 km/h
428 24-06-2019 11:35:00 27.1 C 15.27 g/m*3 27.1 C 8.1 km/h
429 24-06-2019 11:40:00 27.2 C 15.35 g/m*3 27.2 C 8.1 km/h
430 24-06-2019 11:45:00 27.2 C 15.61 g/m*3 27.2 C 8.1 km/h
431 24-06-2019 11:50:00 27.2 C 15.09 g/m*3 27.2 C 11.3 km/h
432 24-06-2019 11:55:00 27.3 C 15.44 g/m*3 27.3 C 9.7 km/h
433 24-06-2019 12:00:00 27.5 C 15.34 g/m*3 27.5 C 9.7 km/h
434 24-06-2019 12:05:00 27.6 C 15.16 g/m*3 27.6 C 9.7 km/h
435 24-06-2019 12:10:00 27.6 C 15.16 g/m*3 27.6 C 11.3 km/h
436 24-06-2019 12:15:00 27.6 C 14.63 g/m*3 27.6 C 11.3 km/h
437 24-06-2019 12:20:00 27.7 C 14.98 g/m*3 27.7 C 11.3 km/h
438 24-06-2019 12:25:00 27.8 C 15.06 g/m*3 27.8 C 14.5 km/h
439 24-06-2019 12:30:00 27.9 C 14.87 g/m*3 27.9 C 14.5 km/h
440 24-06-2019 12:35:00 27.9 C 15.15 g/m*3 27.9 C 11.3 km/h
441 24-06-2019 12:40:00 28 C 14.96 g/m*3 28 C 11.3 km/h
442 24-06-2019 12:45:00 28.2 C 14.85 g/m*3 28.2 C 16.1 km/h
443 24-06-2019 12:50:00 28.3 C 14.93 g/m*3 28.3 C 16.1 km/h
444 24-06-2019 12:55:00 28.5 C 14.81 g/m*3 28.5 C 14.5 km/h
445 24-06-2019 13:00:00 28.6 C 14.89 g/m*3 28.6 C 11.3 km/h
446 24-06-2019 13:05:00 28.7 C 14.98 g/m*3 28.7 C 24.1 km/h
447 24-06-2019 13:10:00 28.8 C 14.77 g/m*3 28.8 C 24.1 km/h
448 24-06-2019 13:15:00 28.9 C 15.14 g/m*3 28.9 C 9.7 km/h
449 24-06-2019 13:20:00 28.9 C 15.14 g/m*3 28.9 C 14.5 km/h
450 24-06-2019 13:25:00 29.1 C 14.73 g/m*3 29.1 C 9.7 km/h
Sensor: Nr:Datum:Temp:Abs-Feuchte:Windchill:Wind:
Aussen-T/F 451 24-06-2019 13:30:00 29.1 C 14.73 g/m*3 29.1 C 17.7 km/h
452 24-06-2019 13:35:00 29.2 C 14.81 g/m*3 29.2 C 16.1 km/h
453 24-06-2019 13:40:00 29.3 C 15.47 g/m*3 29.3 C 11.3 km/h
454 24-06-2019 13:45:00 29.4 C 14.97 g/m*3 29.4 C 16.1 km/h
455 24-06-2019 13:50:00 29.3 C 15.18 g/m*3 29.3 C 14.5 km/h
456 24-06-2019 13:55:00 29.4 C 14.97 g/m*3 29.4 C 11.3 km/h
457 24-06-2019 14:00:00 29.6 C 15.13 g/m*3 29.6 C 9.7 km/h
458 24-06-2019 14:05:00 29.7 C 14.62 g/m*3 29.7 C 16.1 km/h
459 24-06-2019 14:10:00 29.7 C 14.92 g/m*3 29.7 C 11.3 km/h
460 24-06-2019 14:15:00 29.7 C 15.51 g/m*3 29.7 C 11.3 km/h
461 24-06-2019 14:20:00 29.8 C 15 g/m*3 29.8 C 8.1 km/h
462 24-06-2019 14:25:00 30 C 14.86 g/m*3 30 C 9.7 km/h
463 24-06-2019 14:30:00 30.2 C 15.02 g/m*3 30.2 C 9.7 km/h
464 24-06-2019 14:35:00 30.3 C 15.72 g/m*3 30.3 C 12.9 km/h
465 24-06-2019 14:40:00 30.4 C 15.18 g/m*3 30.4 C 11.3 km/h
466 24-06-2019 14:45:00 30.5 C 14.95 g/m*3 30.5 C 11.3 km/h
467 24-06-2019 14:50:00 30.6 C 15.66 g/m*3 30.6 C 9.7 km/h
468 24-06-2019 14:55:00 30.7 C 15.75 g/m*3 30.7 C 9.7 km/h
469 24-06-2019 15:00:00 30.9 C 15.28 g/m*3 30.9 C 11.3 km/h
470 24-06-2019 15:05:00 30.7 C 15.12 g/m*3 30.7 C 16.1 km/h
471 24-06-2019 15:10:00 30.7 C 15.43 g/m*3 30.7 C 14.5 km/h
472 24-06-2019 15:15:00 30.8 C 15.2 g/m*3 30.8 C 9.7 km/h
473 24-06-2019 15:20:00 31 C 15.68 g/m*3 31 C 12.9 km/h
474 24-06-2019 15:25:00 31.2 C 15.2 g/m*3 31.2 C 11.3 km/h
475 24-06-2019 15:30:00 31.3 C 14.96 g/m*3 31.3 C 12.9 km/h
Sensor: Nr:Datum:Temp:Abs-Feuchte:Windchill:Wind:
Aussen-T/F 476 24-06-2019 15:35:00 31.6 C 15.86 g/m*3 31.6 C 9.7 km/h
477 24-06-2019 15:40:00 31.9 C 15.11 g/m*3 31.9 C 11.3 km/h
478 24-06-2019 15:45:00 32.2 C 15.35 g/m*3 32.2 C 11.3 km/h
479 24-06-2019 15:50:00 32.1 C 14.93 g/m*3 32.1 C 12.9 km/h
480 24-06-2019 15:55:00 32.2 C 15.35 g/m*3 32.2 C 11.3 km/h
481 24-06-2019 16:00:00 32.5 C 15.6 g/m*3 32.5 C 3.2 km/h
482 24-06-2019 16:05:00 33.1 C 15.75 g/m*3 33.1 C 6.4 km/h
483 24-06-2019 16:10:00 33.4 C 15.63 g/m*3 33.4 C 8.1 km/h
484 24-06-2019 16:15:00 33.4 C 15.63 g/m*3 33.4 C 8.1 km/h
485 24-06-2019 16:20:00 33.4 C 15.63 g/m*3 33.4 C 9.7 km/h
486 24-06-2019 16:25:00 32.9 C 15.23 g/m*3 32.9 C 20.9 km/h
487 24-06-2019 16:30:00 32.7 C 15.07 g/m*3 32.7 C 8.1 km/h
488 24-06-2019 16:35:00 32.5 C 15.25 g/m*3 32.5 C 11.3 km/h
489 24-06-2019 16:40:00 32.1 C 15.27 g/m*3 32.1 C 9.7 km/h
490 24-06-2019 16:45:00 32 C 15.19 g/m*3 32 C 12.9 km/h
491 24-06-2019 16:50:00 32.2 C 15.7 g/m*3 32.2 C 8.1 km/h
492 24-06-2019 16:55:00 32.6 C 15.33 g/m*3 32.6 C 9.7 km/h
493 24-06-2019 17:00:00 32.8 C 15.85 g/m*3 32.8 C 11.3 km/h
494 24-06-2019 17:05:00 32.7 C 16.12 g/m*3 32.7 C 12.9 km/h
495 24-06-2019 17:10:00 32.8 C 15.5 g/m*3 32.8 C 11.3 km/h
496 24-06-2019 17:15:00 32.8 C 16.2 g/m*3 32.8 C 16.1 km/h
497 24-06-2019 17:20:00 33 C 16.02 g/m*3 33 C 8.1 km/h
498 24-06-2019 17:25:00 33.1 C 15.75 g/m*3 33.1 C 8.1 km/h
499 24-06-2019 17:30:00 33.3 C 16.27 g/m*3 33.3 C 8.1 km/h
500 24-06-2019 17:35:00 33.3 C 15.55 g/m*3 33.3 C 9.7 km/h
Sensor: Nr:Datum:Temp:Abs-Feuchte:Windchill:Wind:
Aussen-T/F 501 24-06-2019 17:40:00 33.2 C 15.47 g/m*3 33.2 C 4.8 km/h
502 24-06-2019 17:45:00 32.9 C 15.93 g/m*3 32.9 C 8.1 km/h
503 24-06-2019 17:50:00 32.8 C 15.85 g/m*3 32.8 C 9.7 km/h
504 24-06-2019 17:55:00 32.9 C 15.58 g/m*3 32.9 C 6.4 km/h
505 24-06-2019 18:00:00 33.2 C 15.83 g/m*3 33.2 C 6.4 km/h
506 24-06-2019 18:05:00 33.3 C 15.19 g/m*3 33.3 C 11.3 km/h
507 24-06-2019 18:10:00 33.2 C 15.47 g/m*3 33.2 C 9.7 km/h
508 24-06-2019 18:15:00 33.1 C 16.1 g/m*3 33.1 C 6.4 km/h
509 24-06-2019 18:20:00 33 C 16.02 g/m*3 33 C 11.3 km/h
510 24-06-2019 18:25:00 33 C 16.37 g/m*3 33 C 9.7 km/h
511 24-06-2019 18:30:00 33.2 C 15.83 g/m*3 33.2 C 9.7 km/h
512 24-06-2019 18:35:00 33.2 C 15.47 g/m*3 33.2 C 12.9 km/h
513 24-06-2019 18:40:00 33 C 15.66 g/m*3 33 C 11.3 km/h
514 24-06-2019 18:45:00 32.9 C 15.58 g/m*3 32.9 C 8.1 km/h
515 24-06-2019 18:50:00 33.1 C 15.75 g/m*3 33.1 C 6.4 km/h
516 24-06-2019 18:55:00 33 C 15.66 g/m*3 33 C 9.7 km/h
517 24-06-2019 19:00:00 33.1 C 15.75 g/m*3 33.1 C 8.1 km/h
518 24-06-2019 19:05:00 33.1 C 16.1 g/m*3 33.1 C 6.4 km/h
519 24-06-2019 19:10:00 33.1 C 15.75 g/m*3 33.1 C 8.1 km/h
520 24-06-2019 19:15:00 33.1 C 15.75 g/m*3 33.1 C 9.7 km/h
521 24-06-2019 19:20:00 33.1 C 15.75 g/m*3 33.1 C 9.7 km/h
522 24-06-2019 19:25:00 32.8 C 15.5 g/m*3 32.8 C 6.4 km/h
523 24-06-2019 19:30:00 32.3 C 15.09 g/m*3 32.3 C 9.7 km/h
524 24-06-2019 19:35:00 31.9 C 15.78 g/m*3 31.9 C 6.4 km/h
525 24-06-2019 19:40:00 31.7 C 15.62 g/m*3 31.7 C 9.7 km/h
Sensor: Nr:Datum:Temp:Abs-Feuchte:Windchill:Wind:
Aussen-T/F 526 24-06-2019 19:45:00 31.6 C 15.53 g/m*3 31.6 C 8.1 km/h
527 24-06-2019 19:50:00 31.4 C 15.69 g/m*3 31.4 C 8.1 km/h
528 24-06-2019 19:55:00 31.3 C 15.61 g/m*3 31.3 C 6.4 km/h
529 24-06-2019 20:00:00 31.2 C 15.85 g/m*3 31.2 C 6.4 km/h
530 24-06-2019 20:05:00 31.1 C 15.77 g/m*3 31.1 C 8.1 km/h
531 24-06-2019 20:10:00 31.1 C 15.77 g/m*3 31.1 C 8.1 km/h
532 24-06-2019 20:15:00 31 C 15.68 g/m*3 31 C 9.7 km/h
533 24-06-2019 20:20:00 31 C 15.68 g/m*3 31 C 4.8 km/h
534 24-06-2019 20:25:00 30.9 C 15.6 g/m*3 30.9 C 6.4 km/h
535 24-06-2019 20:30:00 30.8 C 15.51 g/m*3 30.8 C 6.4 km/h
536 24-06-2019 20:35:00 30.6 C 15.66 g/m*3 30.6 C 4.8 km/h
537 24-06-2019 20:40:00 30.4 C 15.8 g/m*3 30.4 C 4.8 km/h
538 24-06-2019 20:45:00 30.3 C 16.03 g/m*3 30.3 C 6.4 km/h
539 24-06-2019 20:50:00 29.9 C 16.29 g/m*3 29.9 C 4.8 km/h
540 24-06-2019 20:55:00 29.4 C 16.44 g/m*3 29.4 C 6.4 km/h
541 24-06-2019 21:00:00 29.2 C 17.13 g/m*3 29.2 C 1.6 km/h
542 24-06-2019 21:05:00 28.8 C 16.76 g/m*3 28.8 C 0 km/h
543 24-06-2019 21:10:00 28.3 C 16.59 g/m*3 28.3 C 0 km/h
544 24-06-2019 21:15:00 27.8 C 16.68 g/m*3 27.8 C 0 km/h
545 24-06-2019 21:20:00 27.3 C 16.22 g/m*3 27.3 C 0 km/h
546 24-06-2019 21:25:00 26.8 C 16.29 g/m*3 26.8 C 0 km/h
547 24-06-2019 21:30:00 26.4 C 15.93 g/m*3 26.4 C 0 km/h
548 24-06-2019 21:35:00 26 C 16.07 g/m*3 26 C 0 km/h
549 24-06-2019 21:40:00 25.7 C 15.8 g/m*3 25.7 C 0 km/h
550 24-06-2019 21:45:00 25.4 C 15.77 g/m*3 25.4 C 0 km/h
Sensor: Nr:Datum:Temp:Abs-Feuchte:Windchill:Wind:
Aussen-T/F 551 24-06-2019 21:50:00 25.2 C 15.83 g/m*3 25.2 C 0 km/h
552 24-06-2019 21:55:00 24.9 C 15.57 g/m*3 24.9 C 0 km/h
553 24-06-2019 22:00:00 24.7 C 15.62 g/m*3 24.7 C 0 km/h
554 24-06-2019 22:05:00 24.6 C 15.53 g/m*3 24.6 C 0 km/h
555 24-06-2019 22:10:00 24.4 C 15.58 g/m*3 24.4 C 0 km/h
556 24-06-2019 22:15:00 24.3 C 15.49 g/m*3 24.3 C 0 km/h
557 24-06-2019 22:20:00 24.1 C 15.53 g/m*3 24.1 C 0 km/h
558 24-06-2019 22:25:00 24 C 15.45 g/m*3 24 C 0 km/h
559 24-06-2019 22:30:00 23.9 C 15.36 g/m*3 23.9 C 0 km/h
560 24-06-2019 22:35:00 23.8 C 15.27 g/m*3 23.8 C 0 km/h
561 24-06-2019 22:40:00 23.7 C 15.19 g/m*3 23.7 C 0 km/h
562 24-06-2019 22:45:00 23.6 C 15.53 g/m*3 23.6 C 0 km/h
563 24-06-2019 22:50:00 23.5 C 15.44 g/m*3 23.5 C 0 km/h
564 24-06-2019 22:55:00 23.3 C 15.26 g/m*3 23.3 C 0 km/h
565 24-06-2019 23:00:00 23.2 C 15.18 g/m*3 23.2 C 0 km/h
566 24-06-2019 23:05:00 23.1 C 15.09 g/m*3 23.1 C 0 km/h
567 24-06-2019 23:10:00 22.9 C 14.92 g/m*3 22.9 C 0 km/h
568 24-06-2019 23:15:00 22.9 C 14.92 g/m*3 22.9 C 0 km/h
569 24-06-2019 23:20:00 22.8 C 15.04 g/m*3 22.8 C 0 km/h
570 24-06-2019 23:25:00 22.7 C 14.95 g/m*3 22.7 C 0 km/h
571 24-06-2019 23:30:00 22.7 C 14.95 g/m*3 22.7 C 0 km/h
572 24-06-2019 23:35:00 22.6 C 15.07 g/m*3 22.6 C 0 km/h
573 24-06-2019 23:40:00 22.4 C 14.7 g/m*3 22.4 C 0 km/h
574 24-06-2019 23:45:00 22.4 C 14.89 g/m*3 22.4 C 0 km/h
575 24-06-2019 23:50:00 22.3 C 14.81 g/m*3 22.3 C 0 km/h
Sensor: Nr:Datum:Temp:Abs-Feuchte:Windchill:Wind:
Aussen-T/F 576 24-06-2019 23:55:00 22.2 C 14.72 g/m*3 22.2 C 0 km/h
577 25-06-2019 00:00:00 22.1 C 14.84 g/m*3 22.1 C 0 km/h
578 25-06-2019 00:05:00 21.9 C 14.67 g/m*3 21.9 C 0 km/h
579 25-06-2019 00:10:00 21.8 C 14.58 g/m*3 21.8 C 0 km/h
580 25-06-2019 00:15:00 21.6 C 14.6 g/m*3 21.6 C 0 km/h
581 25-06-2019 00:20:00 21.4 C 14.44 g/m*3 21.4 C 0 km/h
582 25-06-2019 00:25:00 21.3 C 14.35 g/m*3 21.3 C 0 km/h
583 25-06-2019 00:30:00 21.3 C 14.54 g/m*3 21.3 C 0 km/h
584 25-06-2019 00:35:00 21.2 C 14.46 g/m*3 21.2 C 0 km/h
585 25-06-2019 00:40:00 21.2 C 14.46 g/m*3 21.2 C 0 km/h
586 25-06-2019 00:45:00 21.1 C 14.56 g/m*3 21.1 C 0 km/h
587 25-06-2019 00:50:00 21 C 14.47 g/m*3 21 C 0 km/h
588 25-06-2019 00:55:00 20.9 C 14.39 g/m*3 20.9 C 0 km/h
589 25-06-2019 01:00:00 20.8 C 14.49 g/m*3 20.8 C 0 km/h
590 25-06-2019 01:05:00 20.7 C 14.4 g/m*3 20.7 C 0 km/h
591 25-06-2019 01:10:00 20.7 C 14.4 g/m*3 20.7 C 0 km/h
592 25-06-2019 01:15:00 20.6 C 14.32 g/m*3 20.6 C 0 km/h
593 25-06-2019 01:20:00 20.6 C 14.5 g/m*3 20.6 C 0 km/h
594 25-06-2019 01:25:00 20.5 C 14.41 g/m*3 20.5 C 0 km/h
595 25-06-2019 01:30:00 20.4 C 14.33 g/m*3 20.4 C 0 km/h
596 25-06-2019 01:35:00 20.3 C 14.25 g/m*3 20.3 C 0 km/h
597 25-06-2019 01:40:00 20.3 C 14.25 g/m*3 20.3 C 0 km/h
598 25-06-2019 01:45:00 20.2 C 14.16 g/m*3 20.2 C 0 km/h
599 25-06-2019 01:50:00 20.1 C 14.25 g/m*3 20.1 C 0 km/h
600 25-06-2019 01:55:00 19.9 C 14.09 g/m*3 19.9 C 0 km/h
Sensor: Nr:Datum:Temp:Abs-Feuchte:Windchill:Wind:
Aussen-T/F 601 25-06-2019 02:00:00 19.8 C 14.01 g/m*3 19.8 C 0 km/h
602 25-06-2019 02:05:00 19.8 C 14.18 g/m*3 19.8 C 0 km/h
603 25-06-2019 02:10:00 19.7 C 14.09 g/m*3 19.7 C 0 km/h
604 25-06-2019 02:15:00 19.6 C 14.01 g/m*3 19.6 C 0 km/h
605 25-06-2019 02:20:00 19.4 C 14.01 g/m*3 19.4 C 0 km/h
606 25-06-2019 02:25:00 19.3 C 13.93 g/m*3 19.3 C 0 km/h
607 25-06-2019 02:30:00 19.3 C 13.93 g/m*3 19.3 C 0 km/h
608 25-06-2019 02:35:00 19.2 C 13.85 g/m*3 19.2 C 0 km/h
609 25-06-2019 02:40:00 19.2 C 13.85 g/m*3 19.2 C 0 km/h
610 25-06-2019 02:45:00 19.1 C 13.77 g/m*3 19.1 C 0 km/h
611 25-06-2019 02:50:00 19 C 13.69 g/m*3 19 C 0 km/h
612 25-06-2019 02:55:00 18.9 C 13.61 g/m*3 18.9 C 0 km/h
613 25-06-2019 03:00:00 18.8 C 13.69 g/m*3 18.8 C 0 km/h
614 25-06-2019 03:05:00 18.7 C 13.61 g/m*3 18.7 C 0 km/h
615 25-06-2019 03:10:00 18.7 C 13.61 g/m*3 18.7 C 0 km/h
616 25-06-2019 03:15:00 18.6 C 13.53 g/m*3 18.6 C 0 km/h
617 25-06-2019 03:20:00 18.6 C 13.53 g/m*3 18.6 C 0 km/h
618 25-06-2019 03:25:00 18.6 C 13.69 g/m*3 18.6 C 0 km/h
619 25-06-2019 03:30:00 18.4 C 13.37 g/m*3 18.4 C 0 km/h
620 25-06-2019 03:35:00 18.4 C 13.53 g/m*3 18.4 C 0 km/h
621 25-06-2019 03:40:00 18.3 C 13.45 g/m*3 18.3 C 0 km/h
622 25-06-2019 03:45:00 18.2 C 13.37 g/m*3 18.2 C 0 km/h
623 25-06-2019 03:50:00 18.2 C 13.37 g/m*3 18.2 C 0 km/h
624 25-06-2019 03:55:00 18.1 C 13.44 g/m*3 18.1 C 0 km/h
625 25-06-2019 04:00:00 18 C 13.36 g/m*3 18 C 0 km/h
Sensor: Nr:Datum:Temp:Abs-Feuchte:Windchill:Wind:
Aussen-T/F 626 25-06-2019 04:05:00 17.9 C 13.28 g/m*3 17.9 C 0 km/h
627 25-06-2019 04:10:00 17.9 C 13.44 g/m*3 17.9 C 0 km/h
628 25-06-2019 04:15:00 17.9 C 13.44 g/m*3 17.9 C 0 km/h
629 25-06-2019 04:20:00 17.9 C 13.44 g/m*3 17.9 C 0 km/h
630 25-06-2019 04:25:00 17.9 C 13.44 g/m*3 17.9 C 0 km/h
631 25-06-2019 04:30:00 17.8 C 13.36 g/m*3 17.8 C 0 km/h
632 25-06-2019 04:35:00 17.8 C 13.36 g/m*3 17.8 C 0 km/h
633 25-06-2019 04:40:00 17.8 C 13.36 g/m*3 17.8 C 0 km/h
634 25-06-2019 04:45:00 17.7 C 13.43 g/m*3 17.7 C 0 km/h
635 25-06-2019 04:50:00 17.7 C 13.43 g/m*3 17.7 C 0 km/h
636 25-06-2019 04:55:00 17.6 C 13.35 g/m*3 17.6 C 0 km/h
637 25-06-2019 05:00:00 17.7 C 13.43 g/m*3 17.7 C 0 km/h
638 25-06-2019 05:05:00 17.7 C 13.43 g/m*3 17.7 C 0 km/h
639 25-06-2019 05:10:00 17.7 C 13.43 g/m*3 17.7 C 0 km/h
640 25-06-2019 05:15:00 17.6 C 13.35 g/m*3 17.6 C 0 km/h
641 25-06-2019 05:20:00 17.6 C 13.35 g/m*3 17.6 C 0 km/h
642 25-06-2019 05:25:00 17.5 C 13.27 g/m*3 17.5 C 0 km/h
643 25-06-2019 05:30:00 17.4 C 13.19 g/m*3 17.4 C 0 km/h
644 25-06-2019 05:35:00 17.4 C 13.19 g/m*3 17.4 C 0 km/h
645 25-06-2019 05:40:00 17.4 C 13.34 g/m*3 17.4 C 0 km/h
646 25-06-2019 05:45:00 17.4 C 13.34 g/m*3 17.4 C 0 km/h
647 25-06-2019 05:50:00 17.4 C 13.34 g/m*3 17.4 C 0 km/h
648 25-06-2019 05:55:00 17.4 C 13.49 g/m*3 17.4 C 0 km/h
649 25-06-2019 06:00:00 17.5 C 13.57 g/m*3 17.5 C 0 km/h
650 25-06-2019 06:05:00 17.6 C 13.65 g/m*3 17.6 C 0 km/h
Sensor: Nr:Datum:Temp:Abs-Feuchte:Windchill:Wind:
Aussen-T/F 651 25-06-2019 06:10:00 17.6 C 13.65 g/m*3 17.6 C 0 km/h
652 25-06-2019 06:15:00 17.6 C 13.65 g/m*3 17.6 C 0 km/h
653 25-06-2019 06:20:00 17.7 C 13.73 g/m*3 17.7 C 0 km/h
654 25-06-2019 06:25:00 17.8 C 13.81 g/m*3 17.8 C 0 km/h
655 25-06-2019 06:30:00 17.8 C 13.81 g/m*3 17.8 C 0 km/h
656 25-06-2019 06:35:00 17.9 C 13.89 g/m*3 17.9 C 0 km/h
657 25-06-2019 06:40:00 17.9 C 13.89 g/m*3 17.9 C 0 km/h
658 25-06-2019 06:45:00 17.9 C 13.89 g/m*3 17.9 C 0 km/h
659 25-06-2019 06:50:00 17.9 C 13.74 g/m*3 17.9 C 0 km/h
660 25-06-2019 06:55:00 18 C 13.82 g/m*3 18 C 0 km/h
661 25-06-2019 07:00:00 18 C 13.82 g/m*3 18 C 0 km/h
662 25-06-2019 07:05:00 18.1 C 13.91 g/m*3 18.1 C 0 km/h
663 25-06-2019 07:10:00 18.1 C 14.06 g/m*3 18.1 C 0 km/h
664 25-06-2019 07:15:00 18.2 C 14.14 g/m*3 18.2 C 0 km/h
665 25-06-2019 07:20:00 18.3 C 14.23 g/m*3 18.3 C 0 km/h
666 25-06-2019 07:25:00 18.3 C 14.23 g/m*3 18.3 C 0 km/h
667 25-06-2019 07:30:00 18.4 C 14.31 g/m*3 18.4 C 0 km/h
668 25-06-2019 07:35:00 18.5 C 14.4 g/m*3 18.5 C 0 km/h
669 25-06-2019 07:40:00 18.7 C 14.57 g/m*3 18.7 C 0 km/h
670 25-06-2019 07:45:00 18.8 C 14.66 g/m*3 18.8 C 0 km/h
671 25-06-2019 07:50:00 18.9 C 14.58 g/m*3 18.9 C 0 km/h
672 25-06-2019 07:55:00 19 C 14.67 g/m*3 19 C 0 km/h
673 25-06-2019 08:00:00 19.2 C 14.84 g/m*3 19.2 C 0 km/h
674 25-06-2019 08:05:00 19.3 C 14.93 g/m*3 19.3 C 0 km/h
675 25-06-2019 08:10:00 19.4 C 15.02 g/m*3 19.4 C 0 km/h
Sensor: Nr:Datum:Temp:Abs-Feuchte:Windchill:Wind:
Aussen-T/F 676 25-06-2019 08:15:00 19.6 C 15.02 g/m*3 19.6 C 0 km/h
677 25-06-2019 08:20:00 19.8 C 15.2 g/m*3 19.8 C 0 km/h
678 25-06-2019 08:25:00 20 C 15.38 g/m*3 20 C 0 km/h
679 25-06-2019 08:30:00 20.2 C 15.39 g/m*3 20.2 C 0 km/h
680 25-06-2019 08:35:00 20.4 C 15.57 g/m*3 20.4 C 0 km/h
681 25-06-2019 08:40:00 20.6 C 15.75 g/m*3 20.6 C 0 km/h
682 25-06-2019 08:45:00 20.7 C 15.66 g/m*3 20.7 C 0 km/h
683 25-06-2019 08:50:00 20.9 C 15.84 g/m*3 20.9 C 0 km/h
684 25-06-2019 08:55:00 21.1 C 16.03 g/m*3 21.1 C 0 km/h
685 25-06-2019 09:00:00 21.2 C 16.12 g/m*3 21.2 C 0 km/h
686 25-06-2019 09:05:00 21.4 C 16.31 g/m*3 21.4 C 0 km/h
687 25-06-2019 09:10:00 21.6 C 16.12 g/m*3 21.6 C 1.6 km/h
688 25-06-2019 09:15:00 21.7 C 16.21 g/m*3 21.7 C 0 km/h
689 25-06-2019 09:20:00 21.9 C 16.4 g/m*3 21.9 C 0 km/h
690 25-06-2019 09:25:00 22.1 C 16.01 g/m*3 22.1 C 1.6 km/h
691 25-06-2019 09:30:00 22.4 C 16.68 g/m*3 22.4 C 0 km/h
692 25-06-2019 09:35:00 22.7 C 16.77 g/m*3 22.7 C 1.6 km/h
693 25-06-2019 09:40:00 23.2 C 16.63 g/m*3 23.2 C 6.4 km/h
694 25-06-2019 09:45:00 23.7 C 16.26 g/m*3 23.7 C 4.8 km/h
695 25-06-2019 09:50:00 24.2 C 16.06 g/m*3 24.2 C 8.1 km/h
696 25-06-2019 09:55:00 24.7 C 16.75 g/m*3 24.7 C 4.8 km/h
697 25-06-2019 10:00:00 25.1 C 16.44 g/m*3 25.1 C 6.4 km/h
698 25-06-2019 10:05:00 25.4 C 16.24 g/m*3 25.4 C 6.4 km/h
699 25-06-2019 10:10:00 25.7 C 16.28 g/m*3 25.7 C 4.8 km/h
700 25-06-2019 10:15:00 25.9 C 16.46 g/m*3 25.9 C 1.6 km/h
Sensor: Nr:Datum:Temp:Abs-Feuchte:Windchill:Wind:
Aussen-T/F 701 25-06-2019 10:20:00 26.2 C 16.99 g/m*3 26.2 C 3.2 km/h
702 25-06-2019 10:25:00 26.4 C 16.43 g/m*3 26.4 C 4.8 km/h
703 25-06-2019 10:30:00 26.7 C 16.2 g/m*3 26.7 C 8.1 km/h
704 25-06-2019 10:35:00 26.9 C 15.87 g/m*3 26.9 C 4.8 km/h
705 25-06-2019 10:40:00 27.1 C 16.56 g/m*3 27.1 C 3.2 km/h
706 25-06-2019 10:45:00 27.3 C 16.22 g/m*3 27.3 C 4.8 km/h
707 25-06-2019 10:50:00 27.5 C 16.93 g/m*3 27.5 C 12.9 km/h
708 25-06-2019 10:55:00 27.4 C 16.31 g/m*3 27.4 C 12.9 km/h
709 25-06-2019 11:00:00 27.3 C 16.22 g/m*3 27.3 C 8.1 km/h
710 25-06-2019 11:05:00 27.3 C 16.48 g/m*3 27.3 C 1.6 km/h
711 25-06-2019 11:10:00 27.4 C 16.05 g/m*3 27.4 C 4.8 km/h
712 25-06-2019 11:15:00 27.8 C 16.14 g/m*3 27.8 C 6.4 km/h
713 25-06-2019 11:20:00 28 C 16.04 g/m*3 28 C 6.4 km/h
714 25-06-2019 11:25:00 28.1 C 16.13 g/m*3 28.1 C 4.8 km/h
715 25-06-2019 11:30:00 28.2 C 15.95 g/m*3 28.2 C 4.8 km/h
716 25-06-2019 11:35:00 28.3 C 16.03 g/m*3 28.3 C 8.1 km/h
717 25-06-2019 11:40:00 28.6 C 16.3 g/m*3 28.6 C 8.1 km/h
718 25-06-2019 11:45:00 28.5 C 16.21 g/m*3 28.5 C 8.1 km/h
719 25-06-2019 11:50:00 28.5 C 16.21 g/m*3 28.5 C 3.2 km/h
720 25-06-2019 11:55:00 28.7 C 16.11 g/m*3 28.7 C 6.4 km/h
721 25-06-2019 12:00:00 28.8 C 16.19 g/m*3 28.8 C 8.1 km/h
722 25-06-2019 12:05:00 29.1 C 16.46 g/m*3 29.1 C 8.1 km/h
723 25-06-2019 12:10:00 29.1 C 16.46 g/m*3 29.1 C 4.8 km/h
724 25-06-2019 12:15:00 29.1 C 16.46 g/m*3 29.1 C 1.6 km/h
725 25-06-2019 12:20:00 29.2 C 16.26 g/m*3 29.2 C 4.8 km/h
Sensor: Nr:Datum:Temp:Abs-Feuchte:Windchill:Wind:
Aussen-T/F 726 25-06-2019 12:25:00 29.3 C 16.35 g/m*3 29.3 C 4.8 km/h
727 25-06-2019 12:30:00 29.6 C 16.32 g/m*3 29.6 C 8.1 km/h
728 25-06-2019 12:35:00 29.7 C 16.41 g/m*3 29.7 C 4.8 km/h
729 25-06-2019 12:40:00 29.9 C 16.59 g/m*3 29.9 C 8.1 km/h
730 25-06-2019 12:45:00 30.1 C 16.46 g/m*3 30.1 C 6.4 km/h
731 25-06-2019 12:50:00 30.2 C 16.86 g/m*3 30.2 C 6.4 km/h
732 25-06-2019 12:55:00 30.1 C 17.07 g/m*3 30.1 C 6.4 km/h
733 25-06-2019 13:00:00 30.2 C 16.86 g/m*3 30.2 C 6.4 km/h
734 25-06-2019 13:05:00 30.3 C 16.64 g/m*3 30.3 C 9.7 km/h
735 25-06-2019 13:10:00 30.6 C 16.6 g/m*3 30.6 C 6.4 km/h
736 25-06-2019 13:15:00 30.8 C 16.78 g/m*3 30.8 C 8.1 km/h
737 25-06-2019 13:20:00 31 C 16.64 g/m*3 31 C 6.4 km/h
738 25-06-2019 13:25:00 31.1 C 16.73 g/m*3 31.1 C 12.9 km/h
739 25-06-2019 13:30:00 31.2 C 17.14 g/m*3 31.2 C 3.2 km/h
740 25-06-2019 13:35:00 31.3 C 16.59 g/m*3 31.3 C 4.8 km/h
741 25-06-2019 13:40:00 31.4 C 17 g/m*3 31.4 C 6.4 km/h
742 25-06-2019 13:45:00 31.7 C 16.28 g/m*3 31.7 C 9.7 km/h
743 25-06-2019 13:50:00 31.8 C 16.7 g/m*3 31.8 C 6.4 km/h
744 25-06-2019 13:55:00 31.8 C 16.7 g/m*3 31.8 C 8.1 km/h
745 25-06-2019 14:00:00 31.9 C 16.45 g/m*3 31.9 C 12.9 km/h
746 25-06-2019 14:05:00 32.2 C 16.72 g/m*3 32.2 C 9.7 km/h
747 25-06-2019 14:10:00 32.3 C 16.12 g/m*3 32.3 C 6.4 km/h
748 25-06-2019 14:15:00 32.4 C 16.21 g/m*3 32.4 C 6.4 km/h
749 25-06-2019 14:20:00 32.5 C 16.99 g/m*3 32.5 C 6.4 km/h
750 25-06-2019 14:25:00 32.6 C 16.38 g/m*3 32.6 C 11.3 km/h
Sensor: Nr:Datum:Temp:Abs-Feuchte:Windchill:Wind:
Aussen-T/F 751 25-06-2019 14:30:00 32.8 C 16.2 g/m*3 32.8 C 12.9 km/h
752 25-06-2019 14:35:00 32.9 C 16.64 g/m*3 32.9 C 6.4 km/h
753 25-06-2019 14:40:00 33.1 C 16.1 g/m*3 33.1 C 8.1 km/h
754 25-06-2019 14:45:00 33.3 C 16.27 g/m*3 33.3 C 6.4 km/h
755 25-06-2019 14:50:00 33.4 C 17.09 g/m*3 33.4 C 8.1 km/h
756 25-06-2019 14:55:00 33.7 C 16.62 g/m*3 33.7 C 9.7 km/h
757 25-06-2019 15:00:00 33.9 C 16.42 g/m*3 33.9 C 8.1 km/h
758 25-06-2019 15:05:00 34 C 17.26 g/m*3 34 C 8.1 km/h
759 25-06-2019 15:10:00 34.2 C 15.92 g/m*3 34.2 C 12.9 km/h
760 25-06-2019 15:15:00 34.4 C 16.09 g/m*3 34.4 C 12.9 km/h
761 25-06-2019 15:20:00 34.8 C 17.21 g/m*3 34.8 C 11.3 km/h
762 25-06-2019 15:25:00 34.8 C 16.04 g/m*3 34.8 C 8.1 km/h
763 25-06-2019 15:30:00 34.9 C 16.91 g/m*3 34.9 C 11.3 km/h
764 25-06-2019 15:35:00 35.2 C 16.38 g/m*3 35.2 C 8.1 km/h
765 25-06-2019 15:40:00 35.4 C 16.95 g/m*3 35.4 C 9.7 km/h
766 25-06-2019 15:45:00 35.7 C 16.4 g/m*3 35.7 C 9.7 km/h
767 25-06-2019 15:50:00 35.9 C 15.74 g/m*3 35.9 C 11.3 km/h
768 25-06-2019 15:55:00 35.8 C 15.66 g/m*3 35.8 C 11.3 km/h
769 25-06-2019 16:00:00 35.9 C 16.15 g/m*3 35.9 C 6.4 km/h
770 25-06-2019 16:05:00 36.4 C 16.15 g/m*3 36.4 C 8.1 km/h
771 25-06-2019 16:10:00 36.2 C 16.83 g/m*3 36.2 C 9.7 km/h
772 25-06-2019 16:15:00 36.1 C 16.32 g/m*3 36.1 C 11.3 km/h
773 25-06-2019 16:20:00 36.3 C 16.91 g/m*3 36.3 C 8.1 km/h
774 25-06-2019 16:25:00 36.6 C 15.89 g/m*3 36.6 C 8.1 km/h
775 25-06-2019 16:30:00 36.8 C 15.62 g/m*3 36.8 C 11.3 km/h
Sensor: Nr:Datum:Temp:Abs-Feuchte:Windchill:Wind:
Aussen-T/F 776 25-06-2019 16:35:00 36.7 C 16.4 g/m*3 36.7 C 9.7 km/h
777 25-06-2019 16:40:00 36.4 C 16.15 g/m*3 36.4 C 12.9 km/h
778 25-06-2019 16:45:00 36.4 C 17 g/m*3 36.4 C 4.8 km/h
779 25-06-2019 16:50:00 36.7 C 15.97 g/m*3 36.7 C 3.2 km/h
780 25-06-2019 16:55:00 37 C 15.34 g/m*3 37 C 3.2 km/h
781 25-06-2019 17:00:00 37.4 C 17 g/m*3 37.4 C 8.1 km/h
782 25-06-2019 17:05:00 37.7 C 14.99 g/m*3 37.7 C 11.3 km/h
783 25-06-2019 17:10:00 37.7 C 14.54 g/m*3 37.7 C 11.3 km/h
784 25-06-2019 17:15:00 37.7 C 14.54 g/m*3 37.7 C 8.1 km/h
785 25-06-2019 17:20:00 37.7 C 14.08 g/m*3 37.7 C 12.9 km/h
786 25-06-2019 17:25:00 37.6 C 14.01 g/m*3 37.6 C 9.7 km/h
787 25-06-2019 17:30:00 37.6 C 14.01 g/m*3 37.6 C 3.2 km/h
788 25-06-2019 17:35:00 37.6 C 14.92 g/m*3 37.6 C 8.1 km/h
789 25-06-2019 17:40:00 37.7 C 14.54 g/m*3 37.7 C 8.1 km/h
790 25-06-2019 17:45:00 37.9 C 15.15 g/m*3 37.9 C 3.2 km/h
791 25-06-2019 17:50:00 37.9 C 16.06 g/m*3 37.9 C 6.4 km/h
792 25-06-2019 17:55:00 37.8 C 15.52 g/m*3 37.8 C 6.4 km/h
793 25-06-2019 18:00:00 37.6 C 14.46 g/m*3 37.6 C 12.9 km/h
794 25-06-2019 18:05:00 37.3 C 14.69 g/m*3 37.3 C 8.1 km/h
795 25-06-2019 18:10:00 37.2 C 15.06 g/m*3 37.2 C 11.3 km/h
796 25-06-2019 18:15:00 37.1 C 14.54 g/m*3 37.1 C 11.3 km/h
797 25-06-2019 18:20:00 37.2 C 15.06 g/m*3 37.2 C 6.4 km/h
798 25-06-2019 18:25:00 37.3 C 14.69 g/m*3 37.3 C 8.1 km/h
799 25-06-2019 18:30:00 37.3 C 16.02 g/m*3 37.3 C 8.1 km/h
800 25-06-2019 18:35:00 36.8 C 15.62 g/m*3 36.8 C 14.5 km/h
Sensor: Nr:Datum:Temp:Abs-Feuchte:Windchill:Wind:
Aussen-T/F 801 25-06-2019 18:40:00 36.4 C 17 g/m*3 36.4 C 4.8 km/h
802 25-06-2019 18:45:00 36 C 17.49 g/m*3 36 C 0 km/h
803 25-06-2019 18:50:00 35.5 C 17.45 g/m*3 35.5 C 1.6 km/h
804 25-06-2019 18:55:00 34.9 C 17.7 g/m*3 34.9 C 0 km/h
805 25-06-2019 19:00:00 34.3 C 17.91 g/m*3 34.3 C 0 km/h
806 25-06-2019 19:05:00 34 C 18.76 g/m*3 34 C 0 km/h
807 25-06-2019 19:10:00 33.9 C 17.92 g/m*3 33.9 C 0 km/h
808 25-06-2019 19:15:00 33.9 C 18.66 g/m*3 33.9 C 0 km/h
809 25-06-2019 19:20:00 34 C 19.14 g/m*3 34 C 0 km/h
810 25-06-2019 19:25:00 34.2 C 18.2 g/m*3 34.2 C 1.6 km/h
811 25-06-2019 19:30:00 34.3 C 18.68 g/m*3 34.3 C 1.6 km/h
812 25-06-2019 19:35:00 34.4 C 18.01 g/m*3 34.4 C 1.6 km/h
813 25-06-2019 19:40:00 34.5 C 18.87 g/m*3 34.5 C 1.6 km/h
814 25-06-2019 19:45:00 34.5 C 18.1 g/m*3 34.5 C 4.8 km/h
815 25-06-2019 19:50:00 34.4 C 18.39 g/m*3 34.4 C 1.6 km/h
816 25-06-2019 19:55:00 34.3 C 18.3 g/m*3 34.3 C 3.2 km/h
817 25-06-2019 20:00:00 34 C 18.76 g/m*3 34 C 1.6 km/h
818 25-06-2019 20:05:00 33.7 C 18.1 g/m*3 33.7 C 0 km/h
819 25-06-2019 20:10:00 33.3 C 18.08 g/m*3 33.3 C 0 km/h
820 25-06-2019 20:15:00 32.9 C 17.7 g/m*3 32.9 C 0 km/h
821 25-06-2019 20:20:00 32.4 C 17.24 g/m*3 32.4 C 0 km/h
822 25-06-2019 20:25:00 31.9 C 17.46 g/m*3 31.9 C 1.6 km/h
823 25-06-2019 20:30:00 31.4 C 17 g/m*3 31.4 C 0 km/h
824 25-06-2019 20:35:00 31 C 16.96 g/m*3 31 C 0 km/h
825 25-06-2019 20:40:00 30.6 C 16.91 g/m*3 30.6 C 0 km/h
Sensor: Nr:Datum:Temp:Abs-Feuchte:Windchill:Wind:
Aussen-T/F 826 25-06-2019 20:45:00 30.3 C 16.64 g/m*3 30.3 C 0 km/h
827 25-06-2019 20:50:00 30.1 C 17.07 g/m*3 30.1 C 0 km/h
828 25-06-2019 20:55:00 29.8 C 16.8 g/m*3 29.8 C 0 km/h
829 25-06-2019 21:00:00 29.6 C 16.91 g/m*3 29.6 C 0 km/h
830 25-06-2019 21:05:00 29.3 C 16.64 g/m*3 29.3 C 0 km/h
831 25-06-2019 21:10:00 29 C 16.37 g/m*3 29 C 1.6 km/h
832 25-06-2019 21:15:00 28.7 C 16.39 g/m*3 28.7 C 0 km/h
833 25-06-2019 21:20:00 28.4 C 16.12 g/m*3 28.4 C 0 km/h
834 25-06-2019 21:25:00 28.1 C 16.13 g/m*3 28.1 C 0 km/h
835 25-06-2019 21:30:00 27.8 C 15.87 g/m*3 27.8 C 0 km/h
836 25-06-2019 21:35:00 27.6 C 15.7 g/m*3 27.6 C 1.6 km/h
837 25-06-2019 21:40:00 27.3 C 15.7 g/m*3 27.3 C 0 km/h
838 25-06-2019 21:45:00 27.1 C 15.79 g/m*3 27.1 C 0 km/h
839 25-06-2019 21:50:00 26.8 C 15.53 g/m*3 26.8 C 0 km/h
840 25-06-2019 21:55:00 26.6 C 15.35 g/m*3 26.6 C 0 km/h
841 25-06-2019 22:00:00 26.4 C 15.19 g/m*3 26.4 C 0 km/h
842 25-06-2019 22:05:00 26.2 C 15.26 g/m*3 26.2 C 1.6 km/h
843 25-06-2019 22:10:00 26.1 C 15.42 g/m*3 26.1 C 1.6 km/h
844 25-06-2019 22:15:00 25.9 C 15.25 g/m*3 25.9 C 0 km/h
845 25-06-2019 22:20:00 25.8 C 15.41 g/m*3 25.8 C 0 km/h
846 25-06-2019 22:25:00 25.7 C 15.32 g/m*3 25.7 C 0 km/h
847 25-06-2019 22:30:00 25.6 C 15.24 g/m*3 25.6 C 0 km/h
848 25-06-2019 22:35:00 25.4 C 15.3 g/m*3 25.4 C 1.6 km/h
849 25-06-2019 22:40:00 25.3 C 15.22 g/m*3 25.3 C 0 km/h
850 25-06-2019 22:45:00 25.2 C 15.13 g/m*3 25.2 C 0 km/h
Sensor: Nr:Datum:Temp:Abs-Feuchte:Windchill:Wind:
Aussen-T/F 851 25-06-2019 22:50:00 24.9 C 15.11 g/m*3 24.9 C 0 km/h
852 25-06-2019 22:55:00 24.8 C 15.02 g/m*3 24.8 C 0 km/h
853 25-06-2019 23:00:00 24.6 C 14.85 g/m*3 24.6 C 0 km/h
854 25-06-2019 23:05:00 24.4 C 14.91 g/m*3 24.4 C 0 km/h
855 25-06-2019 23:10:00 24.2 C 14.74 g/m*3 24.2 C 0 km/h
856 25-06-2019 23:15:00 24.1 C 14.66 g/m*3 24.1 C 0 km/h
857 25-06-2019 23:20:00 24.1 C 14.44 g/m*3 24.1 C 0 km/h
858 25-06-2019 23:25:00 24.1 C 14.44 g/m*3 24.1 C 0 km/h
859 25-06-2019 23:30:00 24 C 14.36 g/m*3 24 C 0 km/h
860 25-06-2019 23:35:00 24 C 14.14 g/m*3 24 C 0 km/h
861 25-06-2019 23:40:00 24.1 C 14.22 g/m*3 24.1 C 0 km/h
862 25-06-2019 23:45:00 24.1 C 14.22 g/m*3 24.1 C 0 km/h
863 25-06-2019 23:50:00 24.1 C 14.22 g/m*3 24.1 C 0 km/h
864 25-06-2019 23:55:00 24.1 C 14.44 g/m*3 24.1 C 0 km/h
865 26-06-2019 00:00:00 23.9 C 14.49 g/m*3 23.9 C 0 km/h
866 26-06-2019 00:05:00 23.8 C 14.2 g/m*3 23.8 C 0 km/h
867 26-06-2019 00:10:00 23.7 C 14.54 g/m*3 23.7 C 0 km/h
868 26-06-2019 00:15:00 23.6 C 14.68 g/m*3 23.6 C 0 km/h
869 26-06-2019 00:20:00 23.5 C 14.8 g/m*3 23.5 C 0 km/h
870 26-06-2019 00:25:00 23.4 C 14.72 g/m*3 23.4 C 0 km/h
871 26-06-2019 00:30:00 23.3 C 14.43 g/m*3 23.3 C 0 km/h
872 26-06-2019 00:35:00 23.3 C 14.64 g/m*3 23.3 C 0 km/h
873 26-06-2019 00:40:00 23.2 C 14.55 g/m*3 23.2 C 0 km/h
874 26-06-2019 00:45:00 23.1 C 14.68 g/m*3 23.1 C 0 km/h
875 26-06-2019 00:50:00 23.1 C 14.88 g/m*3 23.1 C 1.6 km/h
Sensor: Nr:Datum:Temp:Abs-Feuchte:Windchill:Wind:
Aussen-T/F 876 26-06-2019 00:55:00 23.1 C 14.88 g/m*3 23.1 C 0 km/h
877 26-06-2019 01:00:00 22.9 C 14.71 g/m*3 22.9 C 1.6 km/h
878 26-06-2019 01:05:00 22.9 C 14.92 g/m*3 22.9 C 3.2 km/h
879 26-06-2019 01:10:00 22.9 C 14.92 g/m*3 22.9 C 0 km/h
880 26-06-2019 01:15:00 22.8 C 14.63 g/m*3 22.8 C 0 km/h
881 26-06-2019 01:20:00 22.7 C 14.55 g/m*3 22.7 C 0 km/h
882 26-06-2019 01:25:00 22.5 C 14.58 g/m*3 22.5 C 0 km/h
883 26-06-2019 01:30:00 22.3 C 14.61 g/m*3 22.3 C 0 km/h
884 26-06-2019 01:35:00 22.1 C 14.64 g/m*3 22.1 C 0 km/h
885 26-06-2019 01:40:00 22 C 14.75 g/m*3 22 C 0 km/h
886 26-06-2019 01:45:00 21.9 C 14.67 g/m*3 21.9 C 1.6 km/h
887 26-06-2019 01:50:00 21.8 C 14.77 g/m*3 21.8 C 6.4 km/h
888 26-06-2019 01:55:00 21.8 C 14.77 g/m*3 21.8 C 0 km/h
889 26-06-2019 02:00:00 21.7 C 14.69 g/m*3 21.7 C 0 km/h
890 26-06-2019 02:05:00 21.6 C 14.6 g/m*3 21.6 C 0 km/h
891 26-06-2019 02:10:00 21.5 C 14.71 g/m*3 21.5 C 0 km/h
892 26-06-2019 02:15:00 21.3 C 14.54 g/m*3 21.3 C 0 km/h
893 26-06-2019 02:20:00 21.3 C 14.73 g/m*3 21.3 C 0 km/h
894 26-06-2019 02:25:00 21.2 C 14.64 g/m*3 21.2 C 0 km/h
895 26-06-2019 02:30:00 21.2 C 14.64 g/m*3 21.2 C 0 km/h
896 26-06-2019 02:35:00 21.1 C 14.56 g/m*3 21.1 C 0 km/h
897 26-06-2019 02:40:00 21 C 14.65 g/m*3 21 C 0 km/h
898 26-06-2019 02:45:00 20.9 C 14.57 g/m*3 20.9 C 0 km/h
899 26-06-2019 02:50:00 20.9 C 14.75 g/m*3 20.9 C 1.6 km/h
900 26-06-2019 02:55:00 20.8 C 14.67 g/m*3 20.8 C 3.2 km/h
Sensor: Nr:Datum:Temp:Abs-Feuchte:Windchill:Wind:
Aussen-T/F 901 26-06-2019 03:00:00 20.8 C 14.67 g/m*3 20.8 C 1.6 km/h
902 26-06-2019 03:05:00 20.7 C 14.58 g/m*3 20.7 C 0 km/h
903 26-06-2019 03:10:00 20.7 C 14.58 g/m*3 20.7 C 1.6 km/h
904 26-06-2019 03:15:00 20.7 C 14.76 g/m*3 20.7 C 0 km/h
905 26-06-2019 03:20:00 20.7 C 14.76 g/m*3 20.7 C 0 km/h
906 26-06-2019 03:25:00 20.7 C 14.76 g/m*3 20.7 C 0 km/h
907 26-06-2019 03:30:00 20.7 C 14.76 g/m*3 20.7 C 0 km/h
908 26-06-2019 03:35:00 20.6 C 14.68 g/m*3 20.6 C 0 km/h
909 26-06-2019 03:40:00 20.4 C 14.51 g/m*3 20.4 C 1.6 km/h
910 26-06-2019 03:45:00 20.3 C 14.42 g/m*3 20.3 C 0 km/h
911 26-06-2019 03:50:00 20.3 C 14.6 g/m*3 20.3 C 0 km/h
912 26-06-2019 03:55:00 20.3 C 14.6 g/m*3 20.3 C 0 km/h
913 26-06-2019 04:00:00 20.3 C 14.6 g/m*3 20.3 C 0 km/h
914 26-06-2019 04:05:00 20.2 C 14.51 g/m*3 20.2 C 0 km/h
915 26-06-2019 04:10:00 20.1 C 14.43 g/m*3 20.1 C 0 km/h
916 26-06-2019 04:15:00 19.9 C 14.26 g/m*3 19.9 C 0 km/h
917 26-06-2019 04:20:00 19.9 C 14.43 g/m*3 19.9 C 0 km/h
918 26-06-2019 04:25:00 19.8 C 14.52 g/m*3 19.8 C 0 km/h
919 26-06-2019 04:30:00 19.8 C 14.52 g/m*3 19.8 C 0 km/h
920 26-06-2019 04:35:00 19.7 C 14.43 g/m*3 19.7 C 0 km/h
921 26-06-2019 04:40:00 19.6 C 14.35 g/m*3 19.6 C 0 km/h
922 26-06-2019 04:45:00 19.6 C 14.35 g/m*3 19.6 C 0 km/h
923 26-06-2019 04:50:00 19.5 C 14.43 g/m*3 19.5 C 0 km/h
924 26-06-2019 04:55:00 19.5 C 14.43 g/m*3 19.5 C 0 km/h
925 26-06-2019 05:00:00 19.4 C 14.35 g/m*3 19.4 C 0 km/h
Sensor: Nr:Datum:Temp:Abs-Feuchte:Windchill:Wind:
Aussen-T/F 926 26-06-2019 05:05:00 19.4 C 14.35 g/m*3 19.4 C 0 km/h
927 26-06-2019 05:10:00 19.4 C 14.52 g/m*3 19.4 C 4.8 km/h
928 26-06-2019 05:15:00 19.5 C 14.43 g/m*3 19.5 C 0 km/h
929 26-06-2019 05:20:00 19.6 C 14.52 g/m*3 19.6 C 0 km/h
930 26-06-2019 05:25:00 19.6 C 14.52 g/m*3 19.6 C 0 km/h
931 26-06-2019 05:30:00 19.5 C 14.43 g/m*3 19.5 C 1.6 km/h
932 26-06-2019 05:35:00 19.5 C 14.6 g/m*3 19.5 C 0 km/h
933 26-06-2019 05:40:00 19.5 C 14.6 g/m*3 19.5 C 0 km/h
934 26-06-2019 05:45:00 19.5 C 14.6 g/m*3 19.5 C 0 km/h
935 26-06-2019 05:50:00 19.4 C 14.52 g/m*3 19.4 C 0 km/h
936 26-06-2019 05:55:00 19.4 C 14.52 g/m*3 19.4 C 1.6 km/h
937 26-06-2019 06:00:00 19.5 C 14.6 g/m*3 19.5 C 0 km/h
938 26-06-2019 06:05:00 19.4 C 14.52 g/m*3 19.4 C 0 km/h
939 26-06-2019 06:10:00 19.4 C 14.68 g/m*3 19.4 C 0 km/h
940 26-06-2019 06:15:00 19.4 C 14.68 g/m*3 19.4 C 0 km/h
941 26-06-2019 06:20:00 19.5 C 14.77 g/m*3 19.5 C 0 km/h
942 26-06-2019 06:25:00 19.5 C 14.77 g/m*3 19.5 C 1.6 km/h
943 26-06-2019 06:30:00 19.6 C 14.86 g/m*3 19.6 C 0 km/h
944 26-06-2019 06:35:00 19.6 C 14.86 g/m*3 19.6 C 0 km/h
945 26-06-2019 06:40:00 19.7 C 14.94 g/m*3 19.7 C 0 km/h
946 26-06-2019 06:45:00 19.7 C 14.94 g/m*3 19.7 C 0 km/h
947 26-06-2019 06:50:00 19.8 C 15.03 g/m*3 19.8 C 0 km/h
948 26-06-2019 06:55:00 19.8 C 15.03 g/m*3 19.8 C 1.6 km/h
949 26-06-2019 07:00:00 19.8 C 15.03 g/m*3 19.8 C 1.6 km/h
950 26-06-2019 07:05:00 19.9 C 15.12 g/m*3 19.9 C 0 km/h
Sensor: Nr:Datum:Temp:Abs-Feuchte:Windchill:Wind:
Aussen-T/F 951 26-06-2019 07:10:00 20 C 15.21 g/m*3 20 C 0 km/h
952 26-06-2019 07:15:00 20.1 C 15.3 g/m*3 20.1 C 0 km/h
953 26-06-2019 07:20:00 20.2 C 15.39 g/m*3 20.2 C 1.6 km/h
954 26-06-2019 07:25:00 20.2 C 15.39 g/m*3 20.2 C 0 km/h
955 26-06-2019 08:40:00 22.3 C 17.38 g/m*3 22.3 C 0 km/h
956 26-06-2019 08:45:00 22.6 C 17.48 g/m*3 22.6 C 0 km/h
957 26-06-2019 08:50:00 22.8 C 17.88 g/m*3 22.8 C 0 km/h
958 26-06-2019 08:55:00 23.1 C 17.98 g/m*3 23.1 C 0 km/h
959 26-06-2019 09:00:00 23.2 C 18.29 g/m*3 23.2 C 0 km/h
960 26-06-2019 09:05:00 23.4 C 18.5 g/m*3 23.4 C 0 km/h
961 26-06-2019 09:10:00 23.6 C 18.29 g/m*3 23.6 C 1.6 km/h
962 26-06-2019 09:15:00 23.9 C 18.6 g/m*3 23.9 C 4.8 km/h
963 26-06-2019 09:20:00 24.2 C 18.7 g/m*3 24.2 C 1.6 km/h
964 26-06-2019 09:25:00 24.4 C 18.69 g/m*3 24.4 C 0 km/h
965 26-06-2019 09:30:00 24.8 C 18.89 g/m*3 24.8 C 6.4 km/h
966 26-06-2019 09:35:00 25.1 C 18.75 g/m*3 25.1 C 9.7 km/h
967 26-06-2019 09:40:00 25.4 C 18.83 g/m*3 25.4 C 9.7 km/h
968 26-06-2019 09:45:00 25.7 C 18.91 g/m*3 25.7 C 4.8 km/h
969 26-06-2019 09:50:00 25.9 C 18.88 g/m*3 25.9 C 6.4 km/h
970 26-06-2019 09:55:00 26.1 C 19.1 g/m*3 26.1 C 4.8 km/h
971 26-06-2019 10:00:00 26.2 C 18.96 g/m*3 26.2 C 3.2 km/h
972 26-06-2019 10:05:00 26.3 C 18.81 g/m*3 26.3 C 8.1 km/h
973 26-06-2019 10:10:00 26.5 C 19.02 g/m*3 26.5 C 4.8 km/h
974 26-06-2019 10:15:00 26.7 C 18.98 g/m*3 26.7 C 3.2 km/h
975 26-06-2019 10:20:00 26.8 C 19.34 g/m*3 26.8 C 3.2 km/h
Sensor: Nr:Datum:Temp:Abs-Feuchte:Windchill:Wind:
Aussen-T/F 976 26-06-2019 10:25:00 27.1 C 19.15 g/m*3 27.1 C 4.8 km/h
977 26-06-2019 10:30:00 27.3 C 19.62 g/m*3 27.3 C 3.2 km/h
978 26-06-2019 10:35:00 27.6 C 19.69 g/m*3 27.6 C 1.6 km/h
979 26-06-2019 10:40:00 27.9 C 19.47 g/m*3 27.9 C 3.2 km/h
980 26-06-2019 10:45:00 28.1 C 19.69 g/m*3 28.1 C 4.8 km/h
981 26-06-2019 10:50:00 28.2 C 19.52 g/m*3 28.2 C 4.8 km/h
982 26-06-2019 10:55:00 28.3 C 19.63 g/m*3 28.3 C 6.4 km/h
983 26-06-2019 11:00:00 28.4 C 19.46 g/m*3 28.4 C 8.1 km/h
984 26-06-2019 11:05:00 28.5 C 19.56 g/m*3 28.5 C 4.8 km/h
985 26-06-2019 11:10:00 28.6 C 19.39 g/m*3 28.6 C 6.4 km/h
986 26-06-2019 11:15:00 28.7 C 19.5 g/m*3 28.7 C 6.4 km/h
987 26-06-2019 11:20:00 28.8 C 19.32 g/m*3 28.8 C 6.4 km/h
988 26-06-2019 11:25:00 28.9 C 19.71 g/m*3 28.9 C 3.2 km/h
989 26-06-2019 11:30:00 28.9 C 19.43 g/m*3 28.9 C 9.7 km/h
990 26-06-2019 11:35:00 29.1 C 19.35 g/m*3 29.1 C 6.4 km/h
991 26-06-2019 11:40:00 29.2 C 19.46 g/m*3 29.2 C 11.3 km/h
992 26-06-2019 11:45:00 29.3 C 19.56 g/m*3 29.3 C 11.3 km/h
993 26-06-2019 11:50:00 29.4 C 19.67 g/m*3 29.4 C 8.1 km/h
994 26-06-2019 11:55:00 29.6 C 19.88 g/m*3 29.6 C 4.8 km/h
995 26-06-2019 12:00:00 29.7 C 19.69 g/m*3 29.7 C 9.7 km/h
996 26-06-2019 12:05:00 29.7 C 19.39 g/m*3 29.7 C 4.8 km/h
997 26-06-2019 12:10:00 29.8 C 19.8 g/m*3 29.8 C 8.1 km/h
998 26-06-2019 12:15:00 30 C 19.71 g/m*3 30 C 4.8 km/h
999 26-06-2019 12:20:00 30.1 C 19.51 g/m*3 30.1 C 8.1 km/h
1000 26-06-2019 12:25:00 30.2 C 19.62 g/m*3 30.2 C 6.4 km/h
Sensor: Nr:Datum:Temp:Abs-Feuchte:Windchill:Wind:
Aussen-T/F 1001 26-06-2019 12:30:00 30.3 C 19.11 g/m*3 30.3 C 8.1 km/h
1002 26-06-2019 12:35:00 30.4 C 19.52 g/m*3 30.4 C 4.8 km/h
1003 26-06-2019 12:40:00 30.4 C 18.9 g/m*3 30.4 C 4.8 km/h
1004 26-06-2019 12:45:00 30.6 C 19.11 g/m*3 30.6 C 4.8 km/h
1005 26-06-2019 12:50:00 30.8 C 18.68 g/m*3 30.8 C 6.4 km/h
1006 26-06-2019 12:55:00 30.9 C 18.46 g/m*3 30.9 C 8.1 km/h
1007 26-06-2019 13:00:00 31.1 C 18.34 g/m*3 31.1 C 8.1 km/h
1008 26-06-2019 13:05:00 31.2 C 18.44 g/m*3 31.2 C 8.1 km/h
1009 26-06-2019 13:10:00 31.3 C 18.21 g/m*3 31.3 C 6.4 km/h
1010 26-06-2019 13:15:00 31.3 C 17.89 g/m*3 31.3 C 1.6 km/h
1011 26-06-2019 13:20:00 31.4 C 17.66 g/m*3 31.4 C 8.1 km/h
1012 26-06-2019 13:25:00 31.6 C 17.18 g/m*3 31.6 C 9.7 km/h
1013 26-06-2019 13:30:00 31.7 C 15.95 g/m*3 31.7 C 8.1 km/h
1014 26-06-2019 13:35:00 31.8 C 17.37 g/m*3 31.8 C 8.1 km/h
1015 26-06-2019 13:40:00 31.9 C 17.8 g/m*3 31.9 C 9.7 km/h
1016 26-06-2019 13:45:00 31.9 C 17.13 g/m*3 31.9 C 11.3 km/h
1017 26-06-2019 13:50:00 32.2 C 17.4 g/m*3 32.2 C 8.1 km/h
1018 26-06-2019 13:55:00 32.2 C 17.4 g/m*3 32.2 C 9.7 km/h
1019 26-06-2019 14:00:00 32.3 C 17.49 g/m*3 32.3 C 8.1 km/h
1020 26-06-2019 14:05:00 32.3 C 17.49 g/m*3 32.3 C 8.1 km/h
1021 26-06-2019 14:10:00 32.3 C 17.49 g/m*3 32.3 C 9.7 km/h
1022 26-06-2019 14:15:00 32.3 C 17.84 g/m*3 32.3 C 4.8 km/h
1023 26-06-2019 14:20:00 32.4 C 17.59 g/m*3 32.4 C 9.7 km/h
1024 26-06-2019 14:25:00 32.6 C 17.77 g/m*3 32.6 C 11.3 km/h
1025 26-06-2019 14:30:00 32.7 C 17.17 g/m*3 32.7 C 9.7 km/h
Sensor: Nr:Datum:Temp:Abs-Feuchte:Windchill:Wind:
Aussen-T/F 1026 26-06-2019 14:35:00 32.7 C 17.52 g/m*3 32.7 C 11.3 km/h
1027 26-06-2019 14:40:00 32.9 C 17.7 g/m*3 32.9 C 12.9 km/h
1028 26-06-2019 14:45:00 32.9 C 17.35 g/m*3 32.9 C 3.2 km/h
1029 26-06-2019 14:50:00 33.1 C 17.89 g/m*3 33.1 C 11.3 km/h
1030 26-06-2019 14:55:00 33.2 C 18.35 g/m*3 33.2 C 9.7 km/h
1031 26-06-2019 15:00:00 33.4 C 18.91 g/m*3 33.4 C 11.3 km/h
1032 26-06-2019 15:05:00 33.5 C 18.27 g/m*3 33.5 C 11.3 km/h
1033 26-06-2019 15:10:00 33.4 C 17.81 g/m*3 33.4 C 9.7 km/h
1034 26-06-2019 15:15:00 33.4 C 18.18 g/m*3 33.4 C 6.4 km/h
1035 26-06-2019 15:20:00 33.6 C 18 g/m*3 33.6 C 11.3 km/h
1036 26-06-2019 15:25:00 33.7 C 18.84 g/m*3 33.7 C 9.7 km/h
1037 26-06-2019 15:30:00 33.9 C 19.04 g/m*3 33.9 C 9.7 km/h
1038 26-06-2019 15:35:00 34.1 C 19.24 g/m*3 34.1 C 8.1 km/h
1039 26-06-2019 15:40:00 34.3 C 18.68 g/m*3 34.3 C 11.3 km/h
1040 26-06-2019 15:45:00 34.3 C 18.3 g/m*3 34.3 C 11.3 km/h
1041 26-06-2019 15:50:00 34.5 C 18.49 g/m*3 34.5 C 8.1 km/h
1042 26-06-2019 15:55:00 34.7 C 18.29 g/m*3 34.7 C 9.7 km/h
1043 26-06-2019 16:00:00 34.7 C 19.07 g/m*3 34.7 C 9.7 km/h
1044 26-06-2019 16:05:00 34.8 C 18.39 g/m*3 34.8 C 9.7 km/h
1045 26-06-2019 16:10:00 34.8 C 17.61 g/m*3 34.8 C 14.5 km/h
1046 26-06-2019 16:15:00 34.8 C 18.39 g/m*3 34.8 C 9.7 km/h
1047 26-06-2019 16:20:00 34.9 C 18.09 g/m*3 34.9 C 11.3 km/h
1048 26-06-2019 16:25:00 34.9 C 17.3 g/m*3 34.9 C 12.9 km/h
1049 26-06-2019 16:30:00 34.8 C 17.61 g/m*3 34.8 C 9.7 km/h
1050 26-06-2019 16:35:00 34.7 C 17.51 g/m*3 34.7 C 8.1 km/h
Sensor: Nr:Datum:Temp:Abs-Feuchte:Windchill:Wind:
Aussen-T/F 1051 26-06-2019 16:40:00 34.6 C 17.81 g/m*3 34.6 C 14.5 km/h
1052 26-06-2019 16:45:00 34.7 C 17.9 g/m*3 34.7 C 12.9 km/h
1053 26-06-2019 16:50:00 34.7 C 17.51 g/m*3 34.7 C 11.3 km/h
1054 26-06-2019 16:55:00 34.8 C 17.61 g/m*3 34.8 C 11.3 km/h
1055 26-06-2019 17:00:00 34.9 C 17.3 g/m*3 34.9 C 9.7 km/h
1056 26-06-2019 17:05:00 34.9 C 17.7 g/m*3 34.9 C 9.7 km/h
1057 26-06-2019 17:10:00 35 C 17.79 g/m*3 35 C 11.3 km/h
1058 26-06-2019 17:15:00 34.8 C 17.61 g/m*3 34.8 C 9.7 km/h
1059 26-06-2019 17:20:00 34.8 C 17.21 g/m*3 34.8 C 9.7 km/h
1060 26-06-2019 17:25:00 34.7 C 17.12 g/m*3 34.7 C 11.3 km/h
1061 26-06-2019 17:30:00 34.7 C 17.12 g/m*3 34.7 C 11.3 km/h
1062 26-06-2019 17:35:00 34.7 C 17.12 g/m*3 34.7 C 8.1 km/h
1063 26-06-2019 17:40:00 34.8 C 16.82 g/m*3 34.8 C 14.5 km/h
1064 26-06-2019 17:45:00 34.6 C 17.04 g/m*3 34.6 C 12.9 km/h
1065 26-06-2019 17:50:00 34.6 C 17.04 g/m*3 34.6 C 12.9 km/h
1066 26-06-2019 17:55:00 34.7 C 16.35 g/m*3 34.7 C 12.9 km/h
1067 26-06-2019 18:00:00 34.6 C 16.26 g/m*3 34.6 C 9.7 km/h
1068 26-06-2019 18:05:00 34.6 C 16.26 g/m*3 34.6 C 12.9 km/h
1069 26-06-2019 18:10:00 34.7 C 15.96 g/m*3 34.7 C 9.7 km/h
1070 26-06-2019 18:15:00 34.7 C 15.96 g/m*3 34.7 C 16.1 km/h
1071 26-06-2019 18:20:00 34.6 C 16.26 g/m*3 34.6 C 11.3 km/h
1072 26-06-2019 18:25:00 34.4 C 15.71 g/m*3 34.4 C 14.5 km/h
1073 26-06-2019 18:30:00 34.3 C 16.01 g/m*3 34.3 C 11.3 km/h
1074 26-06-2019 18:35:00 34.2 C 15.55 g/m*3 34.2 C 9.7 km/h
1075 26-06-2019 18:40:00 34.1 C 15.84 g/m*3 34.1 C 9.7 km/h
Sensor: Nr:Datum:Temp:Abs-Feuchte:Windchill:Wind:
Aussen-T/F 1076 26-06-2019 18:45:00 34.2 C 15.92 g/m*3 34.2 C 11.3 km/h
1077 26-06-2019 18:50:00 34 C 16.13 g/m*3 34 C 16.1 km/h
1078 26-06-2019 18:55:00 34 C 16.13 g/m*3 34 C 11.3 km/h
1079 26-06-2019 19:00:00 33.9 C 16.42 g/m*3 33.9 C 11.3 km/h
1080 26-06-2019 19:05:00 34.1 C 16.22 g/m*3 34.1 C 9.7 km/h
1081 26-06-2019 19:10:00 34 C 16.13 g/m*3 34 C 14.5 km/h
1082 26-06-2019 19:15:00 33.9 C 16.05 g/m*3 33.9 C 9.7 km/h
1083 26-06-2019 19:20:00 33.9 C 16.05 g/m*3 33.9 C 11.3 km/h
1084 26-06-2019 19:25:00 33.6 C 15.8 g/m*3 33.6 C 11.3 km/h
1085 26-06-2019 19:30:00 33.4 C 16 g/m*3 33.4 C 9.7 km/h
1086 26-06-2019 19:35:00 33.2 C 15.83 g/m*3 33.2 C 8.1 km/h
1087 26-06-2019 19:40:00 32.9 C 15.58 g/m*3 32.9 C 11.3 km/h
1088 26-06-2019 19:45:00 32.7 C 15.42 g/m*3 32.7 C 12.9 km/h
1089 26-06-2019 19:50:00 32.5 C 15.25 g/m*3 32.5 C 9.7 km/h
1090 26-06-2019 19:55:00 32.3 C 15.09 g/m*3 32.3 C 9.7 km/h
1091 26-06-2019 20:00:00 32.2 C 15.35 g/m*3 32.2 C 8.1 km/h
1092 26-06-2019 20:05:00 32.1 C 15.61 g/m*3 32.1 C 11.3 km/h
1093 26-06-2019 20:10:00 31.9 C 15.45 g/m*3 31.9 C 9.7 km/h
1094 26-06-2019 20:15:00 31.8 C 15.7 g/m*3 31.8 C 8.1 km/h
1095 26-06-2019 20:20:00 31.6 C 16.19 g/m*3 31.6 C 12.9 km/h
1096 26-06-2019 20:25:00 30.9 C 16.55 g/m*3 30.9 C 9.7 km/h
1097 26-06-2019 20:30:00 30.3 C 16.03 g/m*3 30.3 C 8.1 km/h
1098 26-06-2019 20:35:00 30.1 C 15.85 g/m*3 30.1 C 9.7 km/h
1099 26-06-2019 20:40:00 30.1 C 16.46 g/m*3 30.1 C 6.4 km/h
1100 26-06-2019 20:45:00 30.1 C 16.16 g/m*3 30.1 C 4.8 km/h
Sensor: Nr:Datum:Temp:Abs-Feuchte:Windchill:Wind:
Aussen-T/F 1101 26-06-2019 20:50:00 30.1 C 16.46 g/m*3 30.1 C 3.2 km/h
1102 26-06-2019 20:55:00 30.1 C 16.16 g/m*3 30.1 C 8.1 km/h
1103 26-06-2019 21:00:00 29.9 C 15.99 g/m*3 29.9 C 1.6 km/h
1104 26-06-2019 21:05:00 29.8 C 15.9 g/m*3 29.8 C 3.2 km/h
1105 26-06-2019 21:10:00 29.7 C 16.11 g/m*3 29.7 C 1.6 km/h
1106 26-06-2019 21:15:00 29.4 C 15.85 g/m*3 29.4 C 6.4 km/h
1107 26-06-2019 21:20:00 29.2 C 16.26 g/m*3 29.2 C 4.8 km/h
1108 26-06-2019 21:25:00 28.9 C 16.28 g/m*3 28.9 C 3.2 km/h
1109 26-06-2019 21:30:00 28.7 C 15.82 g/m*3 28.7 C 4.8 km/h
1110 26-06-2019 21:35:00 28.4 C 15.84 g/m*3 28.4 C 3.2 km/h
1111 26-06-2019 21:40:00 28.3 C 16.03 g/m*3 28.3 C 1.6 km/h
1112 26-06-2019 21:45:00 28 C 16.32 g/m*3 28 C 1.6 km/h
1113 26-06-2019 21:50:00 27.7 C 15.78 g/m*3 27.7 C 1.6 km/h
1114 26-06-2019 21:55:00 27.6 C 16.23 g/m*3 27.6 C 1.6 km/h
1115 26-06-2019 22:00:00 27.4 C 16.05 g/m*3 27.4 C 1.6 km/h
1116 26-06-2019 22:05:00 27.2 C 16.13 g/m*3 27.2 C 3.2 km/h
1117 26-06-2019 22:10:00 26.9 C 16.12 g/m*3 26.9 C 1.6 km/h
1118 26-06-2019 22:15:00 26.7 C 16.2 g/m*3 26.7 C 1.6 km/h
1119 26-06-2019 22:20:00 26.5 C 16.27 g/m*3 26.5 C 3.2 km/h
1120 26-06-2019 22:25:00 26.3 C 16.09 g/m*3 26.3 C 1.6 km/h
1121 26-06-2019 22:30:00 26.2 C 16.25 g/m*3 26.2 C 8.1 km/h
1122 26-06-2019 22:35:00 26.1 C 16.4 g/m*3 26.1 C 1.6 km/h
1123 26-06-2019 22:40:00 25.9 C 16.22 g/m*3 25.9 C 0 km/h
1124 26-06-2019 22:45:00 25.8 C 16.13 g/m*3 25.8 C 8.1 km/h
1125 26-06-2019 22:50:00 25.9 C 16.46 g/m*3 25.9 C 1.6 km/h
Sensor: Nr:Datum:Temp:Abs-Feuchte:Windchill:Wind:
Aussen-T/F 1126 26-06-2019 22:55:00 25.9 C 16.46 g/m*3 25.9 C 0 km/h
1127 26-06-2019 23:00:00 25.8 C 16.37 g/m*3 25.8 C 1.6 km/h
1128 26-06-2019 23:05:00 25.7 C 16.52 g/m*3 25.7 C 6.4 km/h
1129 26-06-2019 23:10:00 25.8 C 16.61 g/m*3 25.8 C 11.3 km/h
1130 26-06-2019 23:15:00 26 C 16.8 g/m*3 26 C 8.1 km/h
1131 26-06-2019 23:20:00 26.2 C 16.74 g/m*3 26.2 C 3.2 km/h
1132 26-06-2019 23:25:00 26.3 C 17.08 g/m*3 26.3 C 3.2 km/h
1133 26-06-2019 23:30:00 26.2 C 16.99 g/m*3 26.2 C 3.2 km/h
1134 26-06-2019 23:35:00 26.1 C 17.14 g/m*3 26.1 C 1.6 km/h
1135 26-06-2019 23:40:00 26 C 17.04 g/m*3 26 C 12.9 km/h
1136 26-06-2019 23:45:00 26.1 C 17.14 g/m*3 26.1 C 8.1 km/h
1137 26-06-2019 23:50:00 26.1 C 17.14 g/m*3 26.1 C 6.4 km/h
1138 26-06-2019 23:55:00 26.1 C 17.38 g/m*3 26.1 C 1.6 km/h
1139 27-06-2019 00:00:00 25.8 C 17.09 g/m*3 25.8 C 6.4 km/h
1140 27-06-2019 00:05:00 25.8 C 17.09 g/m*3 25.8 C 8.1 km/h
1141 27-06-2019 00:10:00 25.7 C 17.24 g/m*3 25.7 C 4.8 km/h
1142 27-06-2019 00:15:00 25.5 C 17.05 g/m*3 25.5 C 3.2 km/h
1143 27-06-2019 00:20:00 25.4 C 16.95 g/m*3 25.4 C 4.8 km/h
1144 27-06-2019 00:25:00 25.3 C 17.09 g/m*3 25.3 C 4.8 km/h
1145 27-06-2019 00:30:00 25.2 C 16.99 g/m*3 25.2 C 4.8 km/h
1146 27-06-2019 00:35:00 25.1 C 17.13 g/m*3 25.1 C 6.4 km/h
1147 27-06-2019 00:40:00 24.9 C 16.94 g/m*3 24.9 C 4.8 km/h
1148 27-06-2019 00:45:00 24.8 C 16.84 g/m*3 24.8 C 4.8 km/h
1149 27-06-2019 00:50:00 24.7 C 16.98 g/m*3 24.7 C 8.1 km/h
1150 27-06-2019 00:55:00 24.7 C 16.98 g/m*3 24.7 C 9.7 km/h
Sensor: Nr:Datum:Temp:Abs-Feuchte:Windchill:Wind:
Aussen-T/F 1151 27-06-2019 01:00:00 24.7 C 16.98 g/m*3 24.7 C 6.4 km/h
1152 27-06-2019 01:05:00 24.6 C 16.88 g/m*3 24.6 C 4.8 km/h
1153 27-06-2019 01:10:00 24.5 C 17.01 g/m*3 24.5 C 3.2 km/h
1154 27-06-2019 01:15:00 24.3 C 16.82 g/m*3 24.3 C 1.6 km/h
1155 27-06-2019 01:20:00 24.1 C 16.85 g/m*3 24.1 C 4.8 km/h
1156 27-06-2019 01:25:00 23.9 C 16.66 g/m*3 23.9 C 4.8 km/h
1157 27-06-2019 01:30:00 23.9 C 16.66 g/m*3 23.9 C 8.1 km/h
1158 27-06-2019 01:35:00 23.9 C 16.66 g/m*3 23.9 C 6.4 km/h
1159 27-06-2019 01:40:00 23.9 C 16.66 g/m*3 23.9 C 6.4 km/h
1160 27-06-2019 01:45:00 23.9 C 16.66 g/m*3 23.9 C 4.8 km/h
1161 27-06-2019 01:50:00 23.9 C 16.66 g/m*3 23.9 C 1.6 km/h
1162 27-06-2019 01:55:00 23.8 C 16.56 g/m*3 23.8 C 3.2 km/h
1163 27-06-2019 02:00:00 23.7 C 16.47 g/m*3 23.7 C 4.8 km/h
1164 27-06-2019 02:05:00 23.6 C 16.59 g/m*3 23.6 C 0 km/h
1165 27-06-2019 02:10:00 23.6 C 16.59 g/m*3 23.6 C 3.2 km/h
1166 27-06-2019 02:15:00 23.4 C 16.61 g/m*3 23.4 C 0 km/h
1167 27-06-2019 02:20:00 23.3 C 16.52 g/m*3 23.3 C 0 km/h
1168 27-06-2019 02:25:00 23.2 C 16.42 g/m*3 23.2 C 3.2 km/h
1169 27-06-2019 02:30:00 23.1 C 16.33 g/m*3 23.1 C 0 km/h
1170 27-06-2019 02:35:00 23 C 16.24 g/m*3 23 C 4.8 km/h
1171 27-06-2019 02:40:00 23.1 C 16.33 g/m*3 23.1 C 1.6 km/h
1172 27-06-2019 02:45:00 23.1 C 16.33 g/m*3 23.1 C 4.8 km/h
1173 27-06-2019 02:50:00 23 C 16.03 g/m*3 23 C 6.4 km/h
1174 27-06-2019 02:55:00 23 C 16.03 g/m*3 23 C 3.2 km/h
1175 27-06-2019 03:00:00 22.9 C 15.94 g/m*3 22.9 C 3.2 km/h
Sensor: Nr:Datum:Temp:Abs-Feuchte:Windchill:Wind:
Aussen-T/F 1176 27-06-2019 03:05:00 22.9 C 15.94 g/m*3 22.9 C 3.2 km/h
1177 27-06-2019 03:10:00 22.8 C 15.85 g/m*3 22.8 C 1.6 km/h
1178 27-06-2019 03:15:00 22.6 C 15.67 g/m*3 22.6 C 3.2 km/h
1179 27-06-2019 03:20:00 22.5 C 15.78 g/m*3 22.5 C 3.2 km/h
1180 27-06-2019 03:25:00 22.3 C 15.4 g/m*3 22.3 C 4.8 km/h
1181 27-06-2019 03:30:00 22.3 C 15.6 g/m*3 22.3 C 4.8 km/h
1182 27-06-2019 03:35:00 22.2 C 15.31 g/m*3 22.2 C 3.2 km/h
1183 27-06-2019 03:40:00 22.2 C 15.31 g/m*3 22.2 C 11.3 km/h
1184 27-06-2019 03:45:00 22.2 C 15.31 g/m*3 22.2 C 4.8 km/h
1185 27-06-2019 03:50:00 22.1 C 15.03 g/m*3 22.1 C 3.2 km/h
1186 27-06-2019 03:55:00 22 C 14.94 g/m*3 22 C 6.4 km/h
1187 27-06-2019 04:00:00 21.9 C 14.86 g/m*3 21.9 C 6.4 km/h
1188 27-06-2019 04:05:00 21.9 C 14.86 g/m*3 21.9 C 6.4 km/h
1189 27-06-2019 04:10:00 21.9 C 14.86 g/m*3 21.9 C 9.7 km/h
1190 27-06-2019 04:15:00 21.8 C 14.58 g/m*3 21.8 C 6.4 km/h
1191 27-06-2019 04:20:00 21.8 C 14.77 g/m*3 21.8 C 4.8 km/h
1192 27-06-2019 04:25:00 21.7 C 14.69 g/m*3 21.7 C 6.4 km/h
1193 27-06-2019 04:30:00 21.7 C 14.69 g/m*3 21.7 C 8.1 km/h
1194 27-06-2019 04:35:00 21.6 C 14.6 g/m*3 21.6 C 3.2 km/h
1195 27-06-2019 04:40:00 21.6 C 14.6 g/m*3 21.6 C 4.8 km/h
1196 27-06-2019 04:45:00 21.4 C 14.44 g/m*3 21.4 C 11.3 km/h
1197 27-06-2019 04:50:00 21.4 C 14.44 g/m*3 21.4 C 4.8 km/h
1198 27-06-2019 04:55:00 21.3 C 14.54 g/m*3 21.3 C 0 km/h
1199 27-06-2019 05:00:00 21.2 C 14.46 g/m*3 21.2 C 0 km/h
1200 27-06-2019 05:05:00 20.9 C 14.39 g/m*3 20.9 C 1.6 km/h
Sensor: Nr:Datum:Temp:Abs-Feuchte:Windchill:Wind:
Aussen-T/F 1201 27-06-2019 05:10:00 20.7 C 14.4 g/m*3 20.7 C 0 km/h
1202 27-06-2019 05:15:00 20.6 C 14.32 g/m*3 20.6 C 0 km/h
1203 27-06-2019 05:20:00 20.3 C 14.25 g/m*3 20.3 C 3.2 km/h
1204 27-06-2019 05:25:00 20.2 C 13.99 g/m*3 20.2 C 6.4 km/h
1205 27-06-2019 05:30:00 20.3 C 14.07 g/m*3 20.3 C 9.7 km/h
1206 27-06-2019 05:35:00 20.4 C 13.98 g/m*3 20.4 C 6.4 km/h
1207 27-06-2019 05:40:00 20.5 C 14.06 g/m*3 20.5 C 4.8 km/h
1208 27-06-2019 05:45:00 20.5 C 14.06 g/m*3 20.5 C 4.8 km/h
1209 27-06-2019 05:50:00 20.5 C 14.06 g/m*3 20.5 C 1.6 km/h
1210 27-06-2019 05:55:00 20.4 C 13.98 g/m*3 20.4 C 0 km/h
1211 27-06-2019 06:00:00 20.3 C 13.89 g/m*3 20.3 C 1.6 km/h
1212 27-06-2019 06:05:00 20.3 C 13.89 g/m*3 20.3 C 4.8 km/h
1213 27-06-2019 06:10:00 20.2 C 13.81 g/m*3 20.2 C 4.8 km/h
1214 27-06-2019 06:15:00 20.2 C 13.99 g/m*3 20.2 C 1.6 km/h
1215 27-06-2019 06:20:00 20.2 C 13.99 g/m*3 20.2 C 4.8 km/h
1216 27-06-2019 06:25:00 20.1 C 14.08 g/m*3 20.1 C 0 km/h
1217 27-06-2019 06:30:00 20 C 14 g/m*3 20 C 1.6 km/h
1218 27-06-2019 06:35:00 19.9 C 13.92 g/m*3 19.9 C 1.6 km/h
1219 27-06-2019 06:40:00 19.8 C 14.01 g/m*3 19.8 C 0 km/h
1220 27-06-2019 06:45:00 19.8 C 14.01 g/m*3 19.8 C 0 km/h
1221 27-06-2019 06:50:00 19.7 C 13.92 g/m*3 19.7 C 1.6 km/h
1222 27-06-2019 06:55:00 19.7 C 14.09 g/m*3 19.7 C 0 km/h
1223 27-06-2019 07:00:00 19.7 C 13.75 g/m*3 19.7 C 4.8 km/h
1224 27-06-2019 07:05:00 19.7 C 13.75 g/m*3 19.7 C 4.8 km/h
1225 27-06-2019 07:10:00 19.8 C 13.66 g/m*3 19.8 C 6.4 km/h
Sensor: Nr:Datum:Temp:Abs-Feuchte:Windchill:Wind:
Aussen-T/F 1226 27-06-2019 07:15:00 19.9 C 13.74 g/m*3 19.9 C 4.8 km/h
1227 27-06-2019 07:20:00 19.9 C 13.74 g/m*3 19.9 C 4.8 km/h
1228 27-06-2019 07:25:00 20 C 13.83 g/m*3 20 C 8.1 km/h
1229 27-06-2019 07:30:00 20.1 C 13.91 g/m*3 20.1 C 6.4 km/h
1230 27-06-2019 07:35:00 20.2 C 13.81 g/m*3 20.2 C 6.4 km/h
1231 27-06-2019 07:40:00 20.2 C 13.81 g/m*3 20.2 C 4.8 km/h
1232 27-06-2019 07:45:00 20.3 C 13.89 g/m*3 20.3 C 6.4 km/h
1233 27-06-2019 07:50:00 20.3 C 13.89 g/m*3 20.3 C 12.9 km/h
1234 27-06-2019 07:55:00 20.3 C 13.89 g/m*3 20.3 C 6.4 km/h
1235 27-06-2019 08:00:00 20.4 C 13.8 g/m*3 20.4 C 8.1 km/h
1236 27-06-2019 08:05:00 20.4 C 13.8 g/m*3 20.4 C 6.4 km/h
1237 27-06-2019 08:10:00 20.4 C 13.8 g/m*3 20.4 C 6.4 km/h
1238 27-06-2019 08:15:00 20.6 C 13.96 g/m*3 20.6 C 6.4 km/h
1239 27-06-2019 08:20:00 20.6 C 13.96 g/m*3 20.6 C 4.8 km/h
1240 27-06-2019 08:25:00 20.6 C 13.78 g/m*3 20.6 C 6.4 km/h
1241 27-06-2019 08:30:00 20.6 C 13.78 g/m*3 20.6 C 4.8 km/h
1242 27-06-2019 08:35:00 20.6 C 13.78 g/m*3 20.6 C 4.8 km/h
1243 27-06-2019 08:40:00 20.6 C 13.96 g/m*3 20.6 C 3.2 km/h
1244 27-06-2019 08:45:00 20.7 C 14.04 g/m*3 20.7 C 4.8 km/h
1245 27-06-2019 08:50:00 20.8 C 13.94 g/m*3 20.8 C 4.8 km/h
1246 27-06-2019 08:55:00 20.9 C 13.84 g/m*3 20.9 C 11.3 km/h
1247 27-06-2019 09:00:00 21 C 14.11 g/m*3 21 C 3.2 km/h
1248 27-06-2019 09:05:00 21.2 C 14.08 g/m*3 21.2 C 9.7 km/h
1249 27-06-2019 09:10:00 21.3 C 13.98 g/m*3 21.3 C 3.2 km/h
1250 27-06-2019 09:15:00 21.3 C 13.79 g/m*3 21.3 C 9.7 km/h
Sensor: Nr:Datum:Temp:Abs-Feuchte:Windchill:Wind:
Aussen-T/F 1251 27-06-2019 09:20:00 21.4 C 13.69 g/m*3 21.4 C 8.1 km/h
1252 27-06-2019 09:25:00 21.4 C 13.87 g/m*3 21.4 C 8.1 km/h
1253 27-06-2019 09:30:00 21.4 C 13.87 g/m*3 21.4 C 9.7 km/h
1254 27-06-2019 09:35:00 21.5 C 13.95 g/m*3 21.5 C 9.7 km/h
1255 27-06-2019 09:40:00 21.6 C 14.03 g/m*3 21.6 C 11.3 km/h
1256 27-06-2019 09:45:00 21.7 C 13.93 g/m*3 21.7 C 9.7 km/h
1257 27-06-2019 09:50:00 21.8 C 13.81 g/m*3 21.8 C 9.7 km/h
1258 27-06-2019 09:55:00 21.9 C 13.89 g/m*3 21.9 C 8.1 km/h
1259 27-06-2019 10:00:00 22 C 13.97 g/m*3 22 C 4.8 km/h
1260 27-06-2019 10:05:00 22.1 C 13.86 g/m*3 22.1 C 9.7 km/h
1261 27-06-2019 10:10:00 22.3 C 13.82 g/m*3 22.3 C 8.1 km/h
1262 27-06-2019 10:15:00 22.4 C 13.7 g/m*3 22.4 C 11.3 km/h
1263 27-06-2019 10:20:00 22.7 C 13.94 g/m*3 22.7 C 16.1 km/h
1264 27-06-2019 10:25:00 22.8 C 13.82 g/m*3 22.8 C 9.7 km/h
1265 27-06-2019 10:30:00 23.1 C 13.85 g/m*3 23.1 C 12.9 km/h
1266 27-06-2019 10:35:00 23.2 C 13.93 g/m*3 23.2 C 8.1 km/h
1267 27-06-2019 10:40:00 23.2 C 13.93 g/m*3 23.2 C 12.9 km/h
1268 27-06-2019 10:45:00 23.4 C 13.88 g/m*3 23.4 C 9.7 km/h
1269 27-06-2019 10:50:00 23.4 C 13.67 g/m*3 23.4 C 8.1 km/h
1270 27-06-2019 10:55:00 23.4 C 13.67 g/m*3 23.4 C 9.7 km/h
1271 27-06-2019 11:00:00 23.6 C 13.61 g/m*3 23.6 C 6.4 km/h
1272 27-06-2019 11:05:00 23.6 C 13.61 g/m*3 23.6 C 6.4 km/h
1273 27-06-2019 11:10:00 23.7 C 13.48 g/m*3 23.7 C 8.1 km/h
1274 27-06-2019 11:15:00 23.7 C 13.69 g/m*3 23.7 C 4.8 km/h
1275 27-06-2019 11:20:00 23.8 C 13.55 g/m*3 23.8 C 9.7 km/h
Sensor: Nr:Datum:Temp:Abs-Feuchte:Windchill:Wind:
Aussen-T/F 1276 27-06-2019 11:25:00 24.1 C 13.57 g/m*3 24.1 C 9.7 km/h
1277 27-06-2019 11:30:00 24.2 C 13.64 g/m*3 24.2 C 11.3 km/h
1278 27-06-2019 11:35:00 24.3 C 13.28 g/m*3 24.3 C 11.3 km/h
1279 27-06-2019 11:40:00 24.3 C 13.72 g/m*3 24.3 C 9.7 km/h
1280 27-06-2019 11:45:00 24.3 C 13.28 g/m*3 24.3 C 8.1 km/h
1281 27-06-2019 11:50:00 24.4 C 13.58 g/m*3 24.4 C 14.5 km/h
1282 27-06-2019 11:55:00 24.4 C 13.35 g/m*3 24.4 C 9.7 km/h
1283 27-06-2019 12:00:00 24.5 C 13.43 g/m*3 24.5 C 9.7 km/h
1284 27-06-2019 12:05:00 24.7 C 13.81 g/m*3 24.7 C 16.1 km/h
1285 27-06-2019 12:10:00 24.7 C 13.58 g/m*3 24.7 C 14.5 km/h
1286 27-06-2019 12:15:00 24.7 C 13.35 g/m*3 24.7 C 14.5 km/h
1287 27-06-2019 12:20:00 24.8 C 13.66 g/m*3 24.8 C 8.1 km/h
1288 27-06-2019 12:25:00 24.8 C 13.43 g/m*3 24.8 C 9.7 km/h
1289 27-06-2019 12:30:00 24.8 C 13.43 g/m*3 24.8 C 12.9 km/h
1290 27-06-2019 12:35:00 24.8 C 13.2 g/m*3 24.8 C 14.5 km/h
1291 27-06-2019 12:40:00 24.9 C 13.28 g/m*3 24.9 C 11.3 km/h
1292 27-06-2019 12:45:00 25 C 13.35 g/m*3 25 C 9.7 km/h
1293 27-06-2019 12:50:00 25.2 C 13.27 g/m*3 25.2 C 14.5 km/h
1294 27-06-2019 12:55:00 25.2 C 13.5 g/m*3 25.2 C 9.7 km/h
1295 27-06-2019 13:00:00 25.2 C 13.27 g/m*3 25.2 C 12.9 km/h
1296 27-06-2019 13:05:00 25.5 C 13.02 g/m*3 25.5 C 8.1 km/h
1297 27-06-2019 13:10:00 25.6 C 13.09 g/m*3 25.6 C 11.3 km/h
1298 27-06-2019 13:15:00 25.6 C 12.86 g/m*3 25.6 C 9.7 km/h
1299 27-06-2019 13:20:00 25.8 C 13 g/m*3 25.8 C 12.9 km/h
1300 27-06-2019 13:25:00 25.9 C 12.83 g/m*3 25.9 C 11.3 km/h
Sensor: Nr:Datum:Temp:Abs-Feuchte:Windchill:Wind:
Aussen-T/F 1301 27-06-2019 13:30:00 25.9 C 12.59 g/m*3 25.9 C 11.3 km/h
1302 27-06-2019 13:35:00 26.1 C 12.73 g/m*3 26.1 C 12.9 km/h
1303 27-06-2019 13:40:00 26.1 C 12.98 g/m*3 26.1 C 9.7 km/h
1304 27-06-2019 13:45:00 26.2 C 12.8 g/m*3 26.2 C 9.7 km/h
1305 27-06-2019 13:50:00 26.2 C 12.56 g/m*3 26.2 C 8.1 km/h
1306 27-06-2019 13:55:00 26.4 C 12.7 g/m*3 26.4 C 9.7 km/h
1307 27-06-2019 14:00:00 26.5 C 12.77 g/m*3 26.5 C 12.9 km/h
1308 27-06-2019 14:05:00 26.6 C 12.59 g/m*3 26.6 C 9.7 km/h
1309 27-06-2019 14:10:00 26.5 C 12.27 g/m*3 26.5 C 11.3 km/h
1310 27-06-2019 14:15:00 26.6 C 12.84 g/m*3 26.6 C 11.3 km/h
1311 27-06-2019 14:20:00 26.7 C 12.4 g/m*3 26.7 C 12.9 km/h
1312 27-06-2019 14:25:00 26.8 C 12.22 g/m*3 26.8 C 11.3 km/h
1313 27-06-2019 14:30:00 26.9 C 12.29 g/m*3 26.9 C 9.7 km/h
1314 27-06-2019 14:35:00 27.1 C 12.68 g/m*3 27.1 C 11.3 km/h
1315 27-06-2019 14:40:00 27.3 C 12.56 g/m*3 27.3 C 9.7 km/h
1316 27-06-2019 14:45:00 27.6 C 12.24 g/m*3 27.6 C 9.7 km/h
1317 27-06-2019 14:50:00 27.6 C 12.24 g/m*3 27.6 C 14.5 km/h
1318 27-06-2019 14:55:00 27.6 C 11.97 g/m*3 27.6 C 12.9 km/h
1319 27-06-2019 15:00:00 27.7 C 12.04 g/m*3 27.7 C 14.5 km/h
1320 27-06-2019 15:05:00 27.8 C 11.83 g/m*3 27.8 C 12.9 km/h
1321 27-06-2019 15:10:00 27.9 C 11.9 g/m*3 27.9 C 12.9 km/h
1322 27-06-2019 15:15:00 28.1 C 12.3 g/m*3 28.1 C 14.5 km/h
1323 27-06-2019 15:20:00 28.3 C 11.89 g/m*3 28.3 C 11.3 km/h
1324 27-06-2019 15:25:00 28.6 C 11.8 g/m*3 28.6 C 14.5 km/h
1325 27-06-2019 15:30:00 28.7 C 11.59 g/m*3 28.7 C 12.9 km/h
Sensor: Nr:Datum:Temp:Abs-Feuchte:Windchill:Wind:
Aussen-T/F 1326 27-06-2019 15:35:00 28.9 C 10.86 g/m*3 28.9 C 16.1 km/h
1327 27-06-2019 15:40:00 29 C 10.91 g/m*3 29 C 12.9 km/h
1328 27-06-2019 15:45:00 29.2 C 11.03 g/m*3 29.2 C 9.7 km/h
1329 27-06-2019 15:50:00 29.4 C 11.15 g/m*3 29.4 C 11.3 km/h
1330 27-06-2019 15:55:00 29.6 C 10.98 g/m*3 29.6 C 11.3 km/h
1331 27-06-2019 16:00:00 29.8 C 10.8 g/m*3 29.8 C 8.1 km/h
1332 27-06-2019 16:05:00 29.9 C 10.56 g/m*3 29.9 C 11.3 km/h
1333 27-06-2019 16:10:00 29.8 C 10.8 g/m*3 29.8 C 16.1 km/h
1334 27-06-2019 16:15:00 29.9 C 9.95 g/m*3 29.9 C 12.9 km/h
1335 27-06-2019 16:20:00 30 C 10.61 g/m*3 30 C 14.5 km/h
1336 27-06-2019 16:25:00 30.3 C 10.17 g/m*3 30.3 C 14.5 km/h
1337 27-06-2019 16:30:00 30.4 C 9.92 g/m*3 30.4 C 11.3 km/h
1338 27-06-2019 16:35:00 30.6 C 10.02 g/m*3 30.6 C 16.1 km/h
1339 27-06-2019 16:40:00 30.6 C 9.4 g/m*3 30.6 C 14.5 km/h
1340 27-06-2019 16:45:00 30.5 C 9.03 g/m*3 30.5 C 12.9 km/h
1341 27-06-2019 16:50:00 30.2 C 8.89 g/m*3 30.2 C 16.1 km/h
1342 27-06-2019 16:55:00 30.2 C 8.89 g/m*3 30.2 C 14.5 km/h
1343 27-06-2019 17:00:00 30.3 C 8.94 g/m*3 30.3 C 12.9 km/h
1344 27-06-2019 17:05:00 30.6 C 8.77 g/m*3 30.6 C 16.1 km/h
1345 27-06-2019 17:10:00 30.5 C 8.72 g/m*3 30.5 C 14.5 km/h
1346 27-06-2019 17:15:00 30.4 C 8.68 g/m*3 30.4 C 8.1 km/h
1347 27-06-2019 17:20:00 30.7 C 8.82 g/m*3 30.7 C 14.5 km/h
1348 27-06-2019 17:25:00 30.7 C 8.82 g/m*3 30.7 C 14.5 km/h
1349 27-06-2019 17:30:00 30.6 C 9.08 g/m*3 30.6 C 14.5 km/h
1350 27-06-2019 17:35:00 30.5 C 8.41 g/m*3 30.5 C 14.5 km/h
Sensor: Nr:Datum:Temp:Abs-Feuchte:Windchill:Wind:
Aussen-T/F 1351 27-06-2019 17:40:00 30.4 C 8.68 g/m*3 30.4 C 9.7 km/h
1352 27-06-2019 17:45:00 30.5 C 8.41 g/m*3 30.5 C 16.1 km/h
1353 27-06-2019 17:50:00 30.6 C 8.77 g/m*3 30.6 C 14.5 km/h
1354 27-06-2019 17:55:00 30.7 C 8.82 g/m*3 30.7 C 16.1 km/h
1355 27-06-2019 18:00:00 30.4 C 8.37 g/m*3 30.4 C 9.7 km/h
1356 27-06-2019 18:05:00 30.3 C 8.01 g/m*3 30.3 C 11.3 km/h
1357 27-06-2019 18:10:00 30.5 C 8.41 g/m*3 30.5 C 16.1 km/h
1358 27-06-2019 18:15:00 30.3 C 8.01 g/m*3 30.3 C 14.5 km/h
1359 27-06-2019 18:20:00 30.3 C 8.01 g/m*3 30.3 C 12.9 km/h
1360 27-06-2019 18:25:00 30.2 C 7.97 g/m*3 30.2 C 14.5 km/h
1361 27-06-2019 18:30:00 30.3 C 8.32 g/m*3 30.3 C 11.3 km/h
1362 27-06-2019 18:35:00 30.2 C 8.28 g/m*3 30.2 C 9.7 km/h
1363 27-06-2019 18:40:00 30 C 7.88 g/m*3 30 C 12.9 km/h
1364 27-06-2019 18:45:00 30 C 7.88 g/m*3 30 C 9.7 km/h
1365 27-06-2019 18:50:00 30.1 C 7.93 g/m*3 30.1 C 11.3 km/h
1366 27-06-2019 18:55:00 30.1 C 7.93 g/m*3 30.1 C 11.3 km/h
1367 27-06-2019 19:00:00 30.2 C 7.97 g/m*3 30.2 C 9.7 km/h
1368 27-06-2019 19:05:00 30.3 C 8.32 g/m*3 30.3 C 9.7 km/h
1369 27-06-2019 19:10:00 30.4 C 7.75 g/m*3 30.4 C 12.9 km/h
1370 27-06-2019 19:15:00 30.3 C 7.4 g/m*3 30.3 C 12.9 km/h
1371 27-06-2019 19:20:00 30.1 C 7.32 g/m*3 30.1 C 11.3 km/h
1372 27-06-2019 19:25:00 29.8 C 7.5 g/m*3 29.8 C 14.5 km/h
1373 27-06-2019 19:30:00 29.6 C 7.42 g/m*3 29.6 C 12.9 km/h
1374 27-06-2019 19:35:00 29.2 C 7.26 g/m*3 29.2 C 11.3 km/h
1375 27-06-2019 19:40:00 29 C 7.47 g/m*3 29 C 11.3 km/h
Sensor: Nr:Datum:Temp:Abs-Feuchte:Windchill:Wind:
Aussen-T/F 1376 27-06-2019 19:45:00 28.8 C 7.39 g/m*3 28.8 C 12.9 km/h
1377 27-06-2019 19:50:00 28.7 C 7.91 g/m*3 28.7 C 8.1 km/h
1378 27-06-2019 19:55:00 28.7 C 7.91 g/m*3 28.7 C 8.1 km/h
1379 27-06-2019 20:00:00 28.5 C 7.83 g/m*3 28.5 C 8.1 km/h
1380 27-06-2019 20:05:00 28.3 C 8.02 g/m*3 28.3 C 9.7 km/h
1381 27-06-2019 20:10:00 28.2 C 8.52 g/m*3 28.2 C 11.3 km/h
1382 27-06-2019 20:15:00 28.1 C 8.75 g/m*3 28.1 C 4.8 km/h
1383 27-06-2019 20:20:00 27.9 C 8.65 g/m*3 27.9 C 9.7 km/h
1384 27-06-2019 20:25:00 27.6 C 8.51 g/m*3 27.6 C 9.7 km/h
1385 27-06-2019 20:30:00 27.2 C 9.11 g/m*3 27.2 C 11.3 km/h
1386 27-06-2019 20:35:00 27 C 8.49 g/m*3 27 C 8.1 km/h
1387 27-06-2019 20:40:00 26.8 C 8.65 g/m*3 26.8 C 6.4 km/h
1388 27-06-2019 20:45:00 26.7 C 8.86 g/m*3 26.7 C 6.4 km/h
1389 27-06-2019 20:50:00 26.6 C 8.31 g/m*3 26.6 C 8.1 km/h
1390 27-06-2019 20:55:00 26.3 C 8.91 g/m*3 26.3 C 8.1 km/h
1391 27-06-2019 21:00:00 26.1 C 8.57 g/m*3 26.1 C 6.4 km/h
1392 27-06-2019 21:05:00 25.8 C 8.67 g/m*3 25.8 C 3.2 km/h
1393 27-06-2019 21:10:00 25.6 C 8.81 g/m*3 25.6 C 4.8 km/h
1394 27-06-2019 21:15:00 25.3 C 8.66 g/m*3 25.3 C 3.2 km/h
1395 27-06-2019 21:20:00 25.2 C 8.85 g/m*3 25.2 C 4.8 km/h
1396 27-06-2019 21:25:00 24.9 C 9.61 g/m*3 24.9 C 1.6 km/h
1397 27-06-2019 21:30:00 24.6 C 9.45 g/m*3 24.6 C 6.4 km/h
1398 27-06-2019 21:35:00 24.1 C 9.63 g/m*3 24.1 C 4.8 km/h
1399 27-06-2019 21:40:00 23.7 C 9.63 g/m*3 23.7 C 1.6 km/h
1400 27-06-2019 21:45:00 23.2 C 9.77 g/m*3 23.2 C 1.6 km/h
Sensor: Nr:Datum:Temp:Abs-Feuchte:Windchill:Wind:
Aussen-T/F 1401 27-06-2019 21:50:00 22.8 C 9.55 g/m*3 22.8 C 1.6 km/h
1402 27-06-2019 21:55:00 22.5 C 9.99 g/m*3 22.5 C 1.6 km/h
1403 27-06-2019 22:00:00 22.2 C 10.21 g/m*3 22.2 C 1.6 km/h
1404 27-06-2019 22:05:00 22 C 9.9 g/m*3 22 C 4.8 km/h
1405 27-06-2019 22:10:00 21.9 C 10.23 g/m*3 21.9 C 0 km/h
1406 27-06-2019 22:15:00 21.7 C 10.11 g/m*3 21.7 C 1.6 km/h
1407 27-06-2019 22:20:00 21.4 C 10.12 g/m*3 21.4 C 1.6 km/h
1408 27-06-2019 22:25:00 21.3 C 10.25 g/m*3 21.3 C 3.2 km/h
1409 27-06-2019 22:30:00 21.2 C 10.19 g/m*3 21.2 C 1.6 km/h
1410 27-06-2019 22:35:00 21.1 C 10.5 g/m*3 21.1 C 0 km/h
1411 27-06-2019 22:40:00 20.9 C 10.2 g/m*3 20.9 C 0 km/h
1412 27-06-2019 22:45:00 20.7 C 10.26 g/m*3 20.7 C 1.6 km/h
1413 27-06-2019 22:50:00 20.6 C 10.38 g/m*3 20.6 C 0 km/h
1414 27-06-2019 22:55:00 20.4 C 10.44 g/m*3 20.4 C 1.6 km/h
1415 27-06-2019 23:00:00 20.3 C 10.2 g/m*3 20.3 C 1.6 km/h
1416 27-06-2019 23:05:00 20.4 C 10.26 g/m*3 20.4 C 4.8 km/h
1417 27-06-2019 23:10:00 20.4 C 10.44 g/m*3 20.4 C 1.6 km/h
1418 27-06-2019 23:15:00 20.3 C 10.38 g/m*3 20.3 C 0 km/h
1419 27-06-2019 23:20:00 20.2 C 10.49 g/m*3 20.2 C 1.6 km/h
1420 27-06-2019 23:25:00 20 C 10.54 g/m*3 20 C 1.6 km/h
1421 27-06-2019 23:30:00 19.8 C 10.42 g/m*3 19.8 C 3.2 km/h
1422 27-06-2019 23:35:00 19.8 C 10.59 g/m*3 19.8 C 0 km/h
1423 27-06-2019 23:40:00 19.6 C 10.47 g/m*3 19.6 C 0 km/h
1424 27-06-2019 23:45:00 19.5 C 10.57 g/m*3 19.5 C 1.6 km/h
1425 27-06-2019 23:50:00 19.3 C 10.45 g/m*3 19.3 C 0 km/h
Sensor: Nr:Datum:Temp:Abs-Feuchte:Windchill:Wind:
Aussen-T/F 1426 27-06-2019 23:55:00 19.2 C 10.55 g/m*3 19.2 C 0 km/h
1427 28-06-2019 00:00:00 19.1 C 10.49 g/m*3 19.1 C 0 km/h
1428 28-06-2019 00:05:00 19 C 10.43 g/m*3 19 C 0 km/h
1429 28-06-2019 00:10:00 18.9 C 10.37 g/m*3 18.9 C 0 km/h
1430 28-06-2019 00:15:00 18.8 C 10.63 g/m*3 18.8 C 0 km/h
1431 28-06-2019 00:20:00 18.7 C 10.57 g/m*3 18.7 C 0 km/h
1432 28-06-2019 00:25:00 18.6 C 10.5 g/m*3 18.6 C 0 km/h
1433 28-06-2019 00:30:00 18.5 C 10.44 g/m*3 18.5 C 0 km/h
1434 28-06-2019 00:35:00 18.4 C 10.38 g/m*3 18.4 C 0 km/h
1435 28-06-2019 00:40:00 18.3 C 10.48 g/m*3 18.3 C 0 km/h
1436 28-06-2019 00:45:00 18.2 C 10.41 g/m*3 18.2 C 0 km/h
1437 28-06-2019 00:50:00 18 C 10.44 g/m*3 18 C 0 km/h
1438 28-06-2019 00:55:00 17.9 C 10.54 g/m*3 17.9 C 0 km/h
1439 28-06-2019 01:00:00 17.8 C 10.47 g/m*3 17.8 C 0 km/h
1440 28-06-2019 01:05:00 17.7 C 10.41 g/m*3 17.7 C 0 km/h
1441 28-06-2019 01:10:00 17.6 C 10.5 g/m*3 17.6 C 0 km/h
1442 28-06-2019 01:15:00 17.4 C 10.37 g/m*3 17.4 C 0 km/h
1443 28-06-2019 01:20:00 17.3 C 10.46 g/m*3 17.3 C 0 km/h
1444 28-06-2019 01:25:00 17.2 C 10.54 g/m*3 17.2 C 0 km/h
1445 28-06-2019 01:30:00 17.1 C 10.48 g/m*3 17.1 C 0 km/h
1446 28-06-2019 01:35:00 17 C 10.56 g/m*3 17 C 0 km/h
1447 28-06-2019 01:40:00 16.9 C 10.5 g/m*3 16.9 C 0 km/h
1448 28-06-2019 01:45:00 16.8 C 10.44 g/m*3 16.8 C 0 km/h
1449 28-06-2019 01:50:00 16.7 C 10.52 g/m*3 16.7 C 0 km/h
1450 28-06-2019 01:55:00 16.7 C 10.52 g/m*3 16.7 C 0 km/h
Sensor: Nr:Datum:Temp:Abs-Feuchte:Windchill:Wind:
Aussen-T/F 1451 28-06-2019 02:00:00 16.6 C 10.45 g/m*3 16.6 C 0 km/h
1452 28-06-2019 02:05:00 16.6 C 10.59 g/m*3 16.6 C 0 km/h
1453 28-06-2019 02:10:00 16.5 C 10.53 g/m*3 16.5 C 0 km/h
1454 28-06-2019 02:15:00 16.4 C 10.47 g/m*3 16.4 C 0 km/h
1455 28-06-2019 02:20:00 16.4 C 10.61 g/m*3 16.4 C 0 km/h
1456 28-06-2019 02:25:00 16.3 C 10.68 g/m*3 16.3 C 0 km/h
1457 28-06-2019 02:30:00 16.2 C 10.62 g/m*3 16.2 C 0 km/h
1458 28-06-2019 02:35:00 16.2 C 10.62 g/m*3 16.2 C 0 km/h
1459 28-06-2019 02:40:00 16.1 C 10.69 g/m*3 16.1 C 0 km/h
1460 28-06-2019 02:45:00 16.1 C 10.69 g/m*3 16.1 C 0 km/h
1461 28-06-2019 02:50:00 15.9 C 10.56 g/m*3 15.9 C 0 km/h
1462 28-06-2019 02:55:00 15.9 C 10.56 g/m*3 15.9 C 0 km/h
1463 28-06-2019 03:00:00 15.8 C 10.63 g/m*3 15.8 C 0 km/h
1464 28-06-2019 03:05:00 15.8 C 10.63 g/m*3 15.8 C 0 km/h
1465 28-06-2019 03:10:00 15.7 C 10.57 g/m*3 15.7 C 0 km/h
1466 28-06-2019 03:15:00 15.7 C 10.57 g/m*3 15.7 C 0 km/h
1467 28-06-2019 03:20:00 15.6 C 10.64 g/m*3 15.6 C 0 km/h
1468 28-06-2019 03:25:00 15.6 C 10.64 g/m*3 15.6 C 0 km/h
1469 28-06-2019 03:30:00 15.4 C 10.51 g/m*3 15.4 C 0 km/h
1470 28-06-2019 03:35:00 15.4 C 10.64 g/m*3 15.4 C 0 km/h
1471 28-06-2019 03:40:00 15.3 C 10.58 g/m*3 15.3 C 0 km/h
1472 28-06-2019 03:45:00 15.3 C 10.58 g/m*3 15.3 C 0 km/h
1473 28-06-2019 03:50:00 15.2 C 10.64 g/m*3 15.2 C 0 km/h
1474 28-06-2019 03:55:00 15 C 10.51 g/m*3 15 C 0 km/h
1475 28-06-2019 04:00:00 14.9 C 10.45 g/m*3 14.9 C 0 km/h
Sensor: Nr:Datum:Temp:Abs-Feuchte:Windchill:Wind:
Aussen-T/F 1476 28-06-2019 04:05:00 14.8 C 10.51 g/m*3 14.8 C 0 km/h
1477 28-06-2019 04:10:00 14.7 C 10.45 g/m*3 14.7 C 0 km/h
1478 28-06-2019 04:15:00 14.6 C 10.39 g/m*3 14.6 C 0 km/h
1479 28-06-2019 04:20:00 14.5 C 10.45 g/m*3 14.5 C 0 km/h
1480 28-06-2019 04:25:00 14.4 C 10.38 g/m*3 14.4 C 0 km/h
1481 28-06-2019 04:30:00 14.3 C 10.32 g/m*3 14.3 C 0 km/h
1482 28-06-2019 04:35:00 14.2 C 10.38 g/m*3 14.2 C 0 km/h
1483 28-06-2019 04:40:00 14.1 C 10.32 g/m*3 14.1 C 0 km/h
1484 28-06-2019 04:45:00 14 C 10.37 g/m*3 14 C 0 km/h
1485 28-06-2019 04:50:00 13.9 C 10.31 g/m*3 13.9 C 0 km/h
1486 28-06-2019 04:55:00 13.8 C 10.25 g/m*3 13.8 C 0 km/h
1487 28-06-2019 05:00:00 13.8 C 10.37 g/m*3 13.8 C 0 km/h
1488 28-06-2019 05:05:00 13.7 C 10.18 g/m*3 13.7 C 0 km/h
1489 28-06-2019 05:10:00 13.7 C 10.3 g/m*3 13.7 C 0 km/h
1490 28-06-2019 05:15:00 13.7 C 10.3 g/m*3 13.7 C 0 km/h
1491 28-06-2019 05:20:00 13.6 C 10.24 g/m*3 13.6 C 0 km/h
1492 28-06-2019 05:25:00 13.5 C 10.18 g/m*3 13.5 C 0 km/h
1493 28-06-2019 05:30:00 13.5 C 10.18 g/m*3 13.5 C 0 km/h
1494 28-06-2019 05:35:00 13.4 C 10.23 g/m*3 13.4 C 0 km/h
1495 28-06-2019 05:40:00 13.4 C 10.23 g/m*3 13.4 C 0 km/h
1496 28-06-2019 05:45:00 13.3 C 10.17 g/m*3 13.3 C 0 km/h
1497 28-06-2019 05:50:00 13.3 C 10.17 g/m*3 13.3 C 0 km/h
1498 28-06-2019 05:55:00 13.3 C 10.28 g/m*3 13.3 C 0 km/h
1499 28-06-2019 06:00:00 13.3 C 10.28 g/m*3 13.3 C 0 km/h
1500 28-06-2019 06:05:00 13.3 C 10.28 g/m*3 13.3 C 0 km/h
Sensor: Nr:Datum:Temp:Abs-Feuchte:Windchill:Wind:
Aussen-T/F 1501 28-06-2019 06:10:00 13.3 C 10.28 g/m*3 13.3 C 0 km/h
1502 28-06-2019 06:15:00 13.3 C 10.28 g/m*3 13.3 C 0 km/h
1503 28-06-2019 06:20:00 13.3 C 10.4 g/m*3 13.3 C 0 km/h
1504 28-06-2019 06:25:00 13.3 C 10.4 g/m*3 13.3 C 0 km/h
1505 28-06-2019 06:30:00 13.3 C 10.4 g/m*3 13.3 C 0 km/h
1506 28-06-2019 06:35:00 13.4 C 10.46 g/m*3 13.4 C 0 km/h
1507 28-06-2019 06:40:00 13.4 C 10.46 g/m*3 13.4 C 0 km/h
1508 28-06-2019 06:45:00 13.4 C 10.46 g/m*3 13.4 C 0 km/h
1509 28-06-2019 06:50:00 13.5 C 10.53 g/m*3 13.5 C 0 km/h
1510 28-06-2019 06:55:00 13.5 C 10.64 g/m*3 13.5 C 0 km/h
1511 28-06-2019 07:00:00 13.6 C 10.71 g/m*3 13.6 C 0 km/h
1512 28-06-2019 07:05:00 13.6 C 10.71 g/m*3 13.6 C 0 km/h
1513 28-06-2019 07:10:00 13.7 C 10.78 g/m*3 13.7 C 0 km/h
1514 28-06-2019 07:15:00 13.7 C 10.78 g/m*3 13.7 C 0 km/h
1515 28-06-2019 07:20:00 13.8 C 10.84 g/m*3 13.8 C 0 km/h
1516 28-06-2019 07:25:00 13.8 C 10.72 g/m*3 13.8 C 0 km/h
1517 28-06-2019 07:30:00 13.8 C 10.72 g/m*3 13.8 C 0 km/h
1518 28-06-2019 07:35:00 13.9 C 10.91 g/m*3 13.9 C 0 km/h
1519 28-06-2019 07:40:00 14 C 10.98 g/m*3 14 C 0 km/h
1520 28-06-2019 07:45:00 14.1 C 11.04 g/m*3 14.1 C 0 km/h
1521 28-06-2019 07:50:00 14.2 C 11.11 g/m*3 14.2 C 0 km/h
1522 28-06-2019 07:55:00 14.2 C 11.11 g/m*3 14.2 C 0 km/h
1523 28-06-2019 08:00:00 14.3 C 11.18 g/m*3 14.3 C 0 km/h
1524 28-06-2019 08:05:00 14.4 C 11.13 g/m*3 14.4 C 0 km/h
1525 28-06-2019 08:10:00 14.6 C 11.26 g/m*3 14.6 C 1.6 km/h
Sensor: Nr:Datum:Temp:Abs-Feuchte:Windchill:Wind:
Aussen-T/F 1526 28-06-2019 08:15:00 14.7 C 11.21 g/m*3 14.7 C 1.6 km/h
1527 28-06-2019 08:20:00 14.9 C 11.22 g/m*3 14.9 C 4.8 km/h
1528 28-06-2019 08:25:00 15.2 C 11.16 g/m*3 15.2 C 0 km/h
1529 28-06-2019 08:30:00 15.5 C 11.24 g/m*3 15.5 C 4.8 km/h
1530 28-06-2019 08:35:00 15.9 C 11.1 g/m*3 15.9 C 6.4 km/h
1531 28-06-2019 08:40:00 16.2 C 11.17 g/m*3 16.2 C 6.4 km/h
1532 28-06-2019 08:45:00 16.3 C 11.38 g/m*3 16.3 C 0 km/h
1533 28-06-2019 08:50:00 16.3 C 11.24 g/m*3 16.3 C 0 km/h
1534 28-06-2019 08:55:00 16.4 C 11.31 g/m*3 16.4 C 3.2 km/h
1535 28-06-2019 09:00:00 16.6 C 11.3 g/m*3 16.6 C 6.4 km/h
1536 28-06-2019 09:05:00 16.9 C 11.22 g/m*3 16.9 C 6.4 km/h
1537 28-06-2019 09:10:00 17.2 C 11.28 g/m*3 17.2 C 4.8 km/h
1538 28-06-2019 09:15:00 17.4 C 11.26 g/m*3 17.4 C 0 km/h
1539 28-06-2019 09:20:00 17.6 C 11.25 g/m*3 17.6 C 1.6 km/h
1540 28-06-2019 09:25:00 17.7 C 11.16 g/m*3 17.7 C 1.6 km/h
1541 28-06-2019 09:30:00 17.8 C 11.38 g/m*3 17.8 C 1.6 km/h
1542 28-06-2019 09:35:00 17.9 C 11.3 g/m*3 17.9 C 1.6 km/h
1543 28-06-2019 09:40:00 18.1 C 11.28 g/m*3 18.1 C 4.8 km/h
1544 28-06-2019 09:45:00 18.2 C 11.5 g/m*3 18.2 C 4.8 km/h
1545 28-06-2019 09:50:00 18.4 C 11.32 g/m*3 18.4 C 6.4 km/h
1546 28-06-2019 09:55:00 18.6 C 11.3 g/m*3 18.6 C 4.8 km/h
1547 28-06-2019 10:00:00 18.8 C 11.43 g/m*3 18.8 C 8.1 km/h
1548 28-06-2019 10:05:00 18.8 C 11.27 g/m*3 18.8 C 4.8 km/h
1549 28-06-2019 10:10:00 18.9 C 11.34 g/m*3 18.9 C 4.8 km/h
1550 28-06-2019 10:15:00 19.1 C 11.47 g/m*3 19.1 C 3.2 km/h
Sensor: Nr:Datum:Temp:Abs-Feuchte:Windchill:Wind:
Aussen-T/F 1551 28-06-2019 10:20:00 19.4 C 11.68 g/m*3 19.4 C 6.4 km/h
1552 28-06-2019 10:25:00 19.7 C 11.38 g/m*3 19.7 C 4.8 km/h
1553 28-06-2019 10:30:00 20.1 C 11.82 g/m*3 20.1 C 4.8 km/h
1554 28-06-2019 10:35:00 20.4 C 11.5 g/m*3 20.4 C 4.8 km/h
1555 28-06-2019 10:40:00 20.6 C 11.63 g/m*3 20.6 C 4.8 km/h
1556 28-06-2019 10:45:00 20.6 C 11.63 g/m*3 20.6 C 4.8 km/h
1557 28-06-2019 10:50:00 20.6 C 11.63 g/m*3 20.6 C 4.8 km/h
1558 28-06-2019 10:55:00 20.8 C 11.41 g/m*3 20.8 C 6.4 km/h
1559 28-06-2019 11:00:00 20.9 C 11.47 g/m*3 20.9 C 4.8 km/h
1560 28-06-2019 11:05:00 20.9 C 11.29 g/m*3 20.9 C 4.8 km/h
1561 28-06-2019 11:10:00 21.1 C 11.42 g/m*3 21.1 C 1.6 km/h
1562 28-06-2019 11:15:00 21.2 C 11.12 g/m*3 21.2 C 6.4 km/h
1563 28-06-2019 11:20:00 21.3 C 11.18 g/m*3 21.3 C 6.4 km/h
1564 28-06-2019 11:25:00 21.5 C 11.13 g/m*3 21.5 C 3.2 km/h
1565 28-06-2019 11:30:00 21.7 C 11.25 g/m*3 21.7 C 8.1 km/h
1566 28-06-2019 11:35:00 21.8 C 11.51 g/m*3 21.8 C 6.4 km/h
1567 28-06-2019 11:40:00 21.8 C 11.51 g/m*3 21.8 C 8.1 km/h
1568 28-06-2019 11:45:00 21.8 C 11.51 g/m*3 21.8 C 6.4 km/h
1569 28-06-2019 11:50:00 21.8 C 11.32 g/m*3 21.8 C 9.7 km/h
1570 28-06-2019 11:55:00 21.9 C 11.58 g/m*3 21.9 C 9.7 km/h
1571 28-06-2019 12:00:00 22.2 C 11.58 g/m*3 22.2 C 4.8 km/h
1572 28-06-2019 12:05:00 22.3 C 11.45 g/m*3 22.3 C 8.1 km/h
1573 28-06-2019 12:10:00 22.5 C 11.58 g/m*3 22.5 C 8.1 km/h
1574 28-06-2019 12:15:00 22.6 C 11.65 g/m*3 22.6 C 6.4 km/h
1575 28-06-2019 12:20:00 22.6 C 11.45 g/m*3 22.6 C 6.4 km/h
Sensor: Nr:Datum:Temp:Abs-Feuchte:Windchill:Wind:
Aussen-T/F 1576 28-06-2019 12:25:00 22.7 C 11.31 g/m*3 22.7 C 4.8 km/h
1577 28-06-2019 12:30:00 22.8 C 11.18 g/m*3 22.8 C 14.5 km/h
1578 28-06-2019 12:35:00 23.1 C 11.16 g/m*3 23.1 C 9.7 km/h
1579 28-06-2019 12:40:00 23.2 C 11.43 g/m*3 23.2 C 6.4 km/h
1580 28-06-2019 12:45:00 23.2 C 11.23 g/m*3 23.2 C 9.7 km/h
1581 28-06-2019 12:50:00 23.3 C 11.08 g/m*3 23.3 C 8.1 km/h
1582 28-06-2019 12:55:00 23.6 C 10.85 g/m*3 23.6 C 9.7 km/h
1583 28-06-2019 13:00:00 23.7 C 10.91 g/m*3 23.7 C 6.4 km/h
1584 28-06-2019 13:05:00 23.8 C 10.97 g/m*3 23.8 C 11.3 km/h
1585 28-06-2019 13:10:00 24.1 C 10.72 g/m*3 24.1 C 14.5 km/h
1586 28-06-2019 13:15:00 24.2 C 10.78 g/m*3 24.2 C 6.4 km/h
1587 28-06-2019 13:20:00 24.3 C 10.84 g/m*3 24.3 C 9.7 km/h
1588 28-06-2019 13:25:00 24.6 C 10.8 g/m*3 24.6 C 11.3 km/h
1589 28-06-2019 13:30:00 24.9 C 10.53 g/m*3 24.9 C 11.3 km/h
1590 28-06-2019 13:35:00 25 C 10.36 g/m*3 25 C 8.1 km/h
1591 28-06-2019 13:40:00 25.1 C 10.42 g/m*3 25.1 C 12.9 km/h
1592 28-06-2019 13:45:00 25.2 C 10.71 g/m*3 25.2 C 8.1 km/h
1593 28-06-2019 13:50:00 25.4 C 10.36 g/m*3 25.4 C 8.1 km/h
1594 28-06-2019 13:55:00 25.7 C 10.53 g/m*3 25.7 C 9.7 km/h
1595 28-06-2019 14:00:00 25.8 C 10.35 g/m*3 25.8 C 11.3 km/h
1596 28-06-2019 14:05:00 25.7 C 10.29 g/m*3 25.7 C 4.8 km/h
1597 28-06-2019 14:10:00 25.7 C 10.77 g/m*3 25.7 C 8.1 km/h
1598 28-06-2019 14:15:00 25.9 C 10.65 g/m*3 25.9 C 12.9 km/h
1599 28-06-2019 14:20:00 26.1 C 10.28 g/m*3 26.1 C 9.7 km/h
1600 28-06-2019 14:25:00 26.2 C 10.83 g/m*3 26.2 C 9.7 km/h
Sensor: Nr:Datum:Temp:Abs-Feuchte:Windchill:Wind:
Aussen-T/F 1601 28-06-2019 14:30:00 26.4 C 10.21 g/m*3 26.4 C 8.1 km/h
1602 28-06-2019 14:35:00 26.6 C 10.82 g/m*3 26.6 C 8.1 km/h
1603 28-06-2019 14:40:00 26.7 C 10.63 g/m*3 26.7 C 8.1 km/h
1604 28-06-2019 14:45:00 26.9 C 10.24 g/m*3 26.9 C 8.1 km/h
1605 28-06-2019 14:50:00 26.9 C 10.24 g/m*3 26.9 C 9.7 km/h
1606 28-06-2019 14:55:00 26.9 C 10.49 g/m*3 26.9 C 8.1 km/h
1607 28-06-2019 15:00:00 27.1 C 10.61 g/m*3 27.1 C 6.4 km/h
1608 28-06-2019 15:05:00 27.3 C 11.51 g/m*3 27.3 C 4.8 km/h
1609 28-06-2019 15:10:00 27.7 C 10.97 g/m*3 27.7 C 8.1 km/h
1610 28-06-2019 15:15:00 27.8 C 9.95 g/m*3 27.8 C 12.9 km/h
1611 28-06-2019 15:20:00 27.9 C 10.28 g/m*3 27.9 C 11.3 km/h
1612 28-06-2019 15:25:00 28 C 10.61 g/m*3 28 C 11.3 km/h
1613 28-06-2019 15:30:00 28.2 C 10.72 g/m*3 28.2 C 6.4 km/h
1614 28-06-2019 15:35:00 28.4 C 10.28 g/m*3 28.4 C 8.1 km/h
1615 28-06-2019 15:40:00 28.7 C 10.74 g/m*3 28.7 C 6.4 km/h
1616 28-06-2019 15:45:00 28.9 C 10.57 g/m*3 28.9 C 11.3 km/h
1617 28-06-2019 15:50:00 29.2 C 10.74 g/m*3 29.2 C 4.8 km/h
1618 28-06-2019 15:55:00 29.5 C 10.33 g/m*3 29.5 C 4.8 km/h
1619 28-06-2019 16:00:00 29.7 C 10.44 g/m*3 29.7 C 12.9 km/h
1620 28-06-2019 16:05:00 29.9 C 10.25 g/m*3 29.9 C 6.4 km/h
1621 28-06-2019 16:10:00 30.1 C 10.37 g/m*3 30.1 C 8.1 km/h
1622 28-06-2019 16:15:00 30.1 C 10.06 g/m*3 30.1 C 9.7 km/h
1623 28-06-2019 16:20:00 30.2 C 10.12 g/m*3 30.2 C 6.4 km/h
1624 28-06-2019 16:25:00 30.3 C 10.48 g/m*3 30.3 C 8.1 km/h
1625 28-06-2019 16:30:00 30.4 C 10.54 g/m*3 30.4 C 11.3 km/h
Sensor: Nr:Datum:Temp:Abs-Feuchte:Windchill:Wind:
Aussen-T/F 1626 28-06-2019 16:35:00 30.4 C 10.54 g/m*3 30.4 C 6.4 km/h
1627 28-06-2019 16:40:00 30.4 C 9.92 g/m*3 30.4 C 6.4 km/h
1628 28-06-2019 16:45:00 30.3 C 10.48 g/m*3 30.3 C 11.3 km/h
1629 28-06-2019 16:50:00 30.4 C 10.54 g/m*3 30.4 C 8.1 km/h
1630 28-06-2019 16:55:00 30.8 C 10.13 g/m*3 30.8 C 11.3 km/h
1631 28-06-2019 17:00:00 30.8 C 9.81 g/m*3 30.8 C 9.7 km/h
1632 28-06-2019 17:05:00 30.6 C 10.34 g/m*3 30.6 C 6.4 km/h
1633 28-06-2019 17:10:00 30.8 C 9.81 g/m*3 30.8 C 6.4 km/h
1634 28-06-2019 17:15:00 31.1 C 10.3 g/m*3 31.1 C 4.8 km/h
1635 28-06-2019 17:20:00 31.2 C 9.38 g/m*3 31.2 C 20.9 km/h
1636 28-06-2019 17:25:00 31.1 C 9.65 g/m*3 31.1 C 6.4 km/h
1637 28-06-2019 17:30:00 31.2 C 9.06 g/m*3 31.2 C 9.7 km/h
1638 28-06-2019 17:35:00 31.2 C 9.38 g/m*3 31.2 C 9.7 km/h
1639 28-06-2019 17:40:00 31.1 C 8.69 g/m*3 31.1 C 9.7 km/h
1640 28-06-2019 17:45:00 31.3 C 9.43 g/m*3 31.3 C 4.8 km/h
1641 28-06-2019 17:50:00 31.5 C 9.53 g/m*3 31.5 C 6.4 km/h
1642 28-06-2019 17:55:00 31.7 C 9.63 g/m*3 31.7 C 8.1 km/h
1643 28-06-2019 18:00:00 31.7 C 8.97 g/m*3 31.7 C 11.3 km/h
1644 28-06-2019 18:05:00 31.6 C 9.25 g/m*3 31.6 C 8.1 km/h
1645 28-06-2019 18:10:00 31.6 C 8.92 g/m*3 31.6 C 4.8 km/h
1646 28-06-2019 18:15:00 31.7 C 8.97 g/m*3 31.7 C 8.1 km/h
1647 28-06-2019 18:20:00 31.7 C 8.97 g/m*3 31.7 C 9.7 km/h
1648 28-06-2019 18:25:00 31.7 C 9.3 g/m*3 31.7 C 6.4 km/h
1649 28-06-2019 18:30:00 31.6 C 9.25 g/m*3 31.6 C 8.1 km/h
1650 28-06-2019 18:35:00 31.6 C 9.58 g/m*3 31.6 C 6.4 km/h
Sensor: Nr:Datum:Temp:Abs-Feuchte:Windchill:Wind:
Aussen-T/F 1651 28-06-2019 18:40:00 31.7 C 9.3 g/m*3 31.7 C 11.3 km/h
1652 28-06-2019 18:45:00 31.7 C 9.63 g/m*3 31.7 C 6.4 km/h
1653 28-06-2019 18:50:00 31.7 C 9.63 g/m*3 31.7 C 6.4 km/h
1654 28-06-2019 18:55:00 31.7 C 9.63 g/m*3 31.7 C 4.8 km/h
1655 28-06-2019 19:00:00 31.5 C 9.2 g/m*3 31.5 C 8.1 km/h
1656 28-06-2019 19:05:00 31.3 C 9.43 g/m*3 31.3 C 6.4 km/h
1657 28-06-2019 19:10:00 31.4 C 9.48 g/m*3 31.4 C 6.4 km/h
1658 28-06-2019 19:15:00 31.6 C 9.91 g/m*3 31.6 C 4.8 km/h
1659 28-06-2019 19:20:00 31.6 C 9.91 g/m*3 31.6 C 6.4 km/h
1660 28-06-2019 19:25:00 31.6 C 9.91 g/m*3 31.6 C 4.8 km/h
1661 28-06-2019 19:30:00 31.4 C 9.81 g/m*3 31.4 C 8.1 km/h
1662 28-06-2019 19:35:00 31.2 C 9.7 g/m*3 31.2 C 6.4 km/h
1663 28-06-2019 19:40:00 31 C 9.6 g/m*3 31 C 4.8 km/h
1664 28-06-2019 19:45:00 30.9 C 9.87 g/m*3 30.9 C 4.8 km/h
1665 28-06-2019 19:50:00 30.6 C 10.02 g/m*3 30.6 C 8.1 km/h
1666 28-06-2019 19:55:00 30.3 C 9.86 g/m*3 30.3 C 9.7 km/h
1667 28-06-2019 20:00:00 30.1 C 10.06 g/m*3 30.1 C 11.3 km/h
1668 28-06-2019 20:05:00 29.8 C 9.9 g/m*3 29.8 C 9.7 km/h
1669 28-06-2019 20:10:00 29.7 C 10.14 g/m*3 29.7 C 9.7 km/h
1670 28-06-2019 20:15:00 29.6 C 10.09 g/m*3 29.6 C 8.1 km/h
1671 28-06-2019 20:20:00 29.6 C 10.98 g/m*3 29.6 C 3.2 km/h
1672 28-06-2019 20:25:00 29.6 C 11.87 g/m*3 29.6 C 0 km/h
1673 28-06-2019 20:30:00 29.5 C 10.63 g/m*3 29.5 C 3.2 km/h
1674 28-06-2019 20:35:00 29.4 C 11.15 g/m*3 29.4 C 1.6 km/h
1675 28-06-2019 20:40:00 29.3 C 11.09 g/m*3 29.3 C 1.6 km/h
Sensor: Nr:Datum:Temp:Abs-Feuchte:Windchill:Wind:
Aussen-T/F 1676 28-06-2019 20:45:00 29.3 C 11.97 g/m*3 29.3 C 0 km/h
1677 28-06-2019 20:50:00 29.1 C 10.4 g/m*3 29.1 C 1.6 km/h
1678 28-06-2019 20:55:00 28.9 C 12 g/m*3 28.9 C 1.6 km/h
1679 28-06-2019 21:00:00 28.6 C 12.08 g/m*3 28.6 C 0 km/h
1680 28-06-2019 21:05:00 28.1 C 12.3 g/m*3 28.1 C 0 km/h
1681 28-06-2019 21:10:00 27.6 C 11.71 g/m*3 27.6 C 0 km/h
1682 28-06-2019 21:15:00 26.9 C 11.52 g/m*3 26.9 C 0 km/h
1683 28-06-2019 21:20:00 26.3 C 11.64 g/m*3 26.3 C 0 km/h
1684 28-06-2019 21:25:00 25.7 C 11.73 g/m*3 25.7 C 0 km/h
1685 28-06-2019 21:30:00 25.1 C 11.34 g/m*3 25.1 C 1.6 km/h
1686 28-06-2019 21:35:00 24.6 C 11.25 g/m*3 24.6 C 1.6 km/h
1687 28-06-2019 21:40:00 24.2 C 11.22 g/m*3 24.2 C 1.6 km/h
1688 28-06-2019 21:45:00 23.8 C 10.97 g/m*3 23.8 C 1.6 km/h
1689 28-06-2019 21:50:00 23.4 C 10.93 g/m*3 23.4 C 1.6 km/h
1690 28-06-2019 21:55:00 23.1 C 10.75 g/m*3 23.1 C 1.6 km/h
1691 28-06-2019 22:00:00 22.8 C 10.57 g/m*3 22.8 C 1.6 km/h
1692 28-06-2019 22:05:00 22.6 C 10.25 g/m*3 22.6 C 1.6 km/h
1693 28-06-2019 22:10:00 22.4 C 10.13 g/m*3 22.4 C 0 km/h
1694 28-06-2019 22:15:00 22.2 C 10.21 g/m*3 22.2 C 0 km/h
1695 28-06-2019 22:20:00 21.9 C 10.03 g/m*3 21.9 C 0 km/h
1696 28-06-2019 22:25:00 21.8 C 10.36 g/m*3 21.8 C 1.6 km/h
1697 28-06-2019 22:30:00 21.5 C 10.37 g/m*3 21.5 C 0 km/h
1698 28-06-2019 22:35:00 21.3 C 10.25 g/m*3 21.3 C 0 km/h
1699 28-06-2019 22:40:00 21 C 10.44 g/m*3 21 C 0 km/h
1700 28-06-2019 22:45:00 20.7 C 10.44 g/m*3 20.7 C 0 km/h
Sensor: Nr:Datum:Temp:Abs-Feuchte:Windchill:Wind:
Aussen-T/F 1701 28-06-2019 22:50:00 20.5 C 10.5 g/m*3 20.5 C 0 km/h
1702 28-06-2019 22:55:00 20.3 C 10.55 g/m*3 20.3 C 0 km/h
1703 28-06-2019 23:00:00 20.2 C 10.67 g/m*3 20.2 C 0 km/h
1704 28-06-2019 23:05:00 19.9 C 10.48 g/m*3 19.9 C 0 km/h
1705 28-06-2019 23:10:00 19.7 C 10.53 g/m*3 19.7 C 0 km/h
1706 28-06-2019 23:15:00 19.6 C 10.47 g/m*3 19.6 C 0 km/h
1707 28-06-2019 23:20:00 19.4 C 10.51 g/m*3 19.4 C 0 km/h
1708 28-06-2019 23:25:00 19.3 C 10.62 g/m*3 19.3 C 0 km/h
1709 28-06-2019 23:30:00 19.1 C 10.49 g/m*3 19.1 C 0 km/h
1710 28-06-2019 23:35:00 19 C 10.59 g/m*3 19 C 0 km/h
1711 28-06-2019 23:40:00 18.9 C 10.53 g/m*3 18.9 C 0 km/h
1712 28-06-2019 23:45:00 18.8 C 10.47 g/m*3 18.8 C 0 km/h
1713 28-06-2019 23:50:00 18.7 C 10.57 g/m*3 18.7 C 0 km/h
1714 28-06-2019 23:55:00 18.7 C 10.57 g/m*3 18.7 C 0 km/h
1715 29-06-2019 00:00:00 18.7 C 10.57 g/m*3 18.7 C 1.6 km/h
1716 29-06-2019 00:05:00 18.6 C 10.35 g/m*3 18.6 C 0 km/h
1717 29-06-2019 00:10:00 18.6 C 10.35 g/m*3 18.6 C 1.6 km/h
1718 29-06-2019 00:15:00 18.6 C 10.35 g/m*3 18.6 C 0 km/h
1719 29-06-2019 00:20:00 18.5 C 10.44 g/m*3 18.5 C 0 km/h
1720 29-06-2019 00:25:00 18.4 C 10.38 g/m*3 18.4 C 0 km/h
1721 29-06-2019 00:30:00 18.4 C 10.38 g/m*3 18.4 C 0 km/h
1722 29-06-2019 00:35:00 18.3 C 10.32 g/m*3 18.3 C 0 km/h
1723 29-06-2019 00:40:00 18.3 C 10.32 g/m*3 18.3 C 0 km/h
1724 29-06-2019 00:45:00 18.2 C 10.26 g/m*3 18.2 C 0 km/h
1725 29-06-2019 00:50:00 18.2 C 10.41 g/m*3 18.2 C 1.6 km/h
Sensor: Nr:Datum:Temp:Abs-Feuchte:Windchill:Wind:
Aussen-T/F 1726 29-06-2019 00:55:00 18.1 C 10.35 g/m*3 18.1 C 0 km/h
1727 29-06-2019 01:00:00 18.1 C 10.35 g/m*3 18.1 C 3.2 km/h
1728 29-06-2019 01:05:00 18 C 10.29 g/m*3 18 C 0 km/h
1729 29-06-2019 01:10:00 17.9 C 10.38 g/m*3 17.9 C 0 km/h
1730 29-06-2019 01:15:00 17.9 C 10.38 g/m*3 17.9 C 0 km/h
1731 29-06-2019 01:20:00 17.9 C 10.38 g/m*3 17.9 C 3.2 km/h
1732 29-06-2019 01:25:00 17.8 C 10.47 g/m*3 17.8 C 0 km/h
1733 29-06-2019 01:30:00 17.8 C 10.47 g/m*3 17.8 C 0 km/h
1734 29-06-2019 01:35:00 17.8 C 10.32 g/m*3 17.8 C 0 km/h
1735 29-06-2019 01:40:00 17.8 C 10.32 g/m*3 17.8 C 0 km/h
1736 29-06-2019 01:45:00 17.7 C 10.26 g/m*3 17.7 C 0 km/h
1737 29-06-2019 01:50:00 17.7 C 10.26 g/m*3 17.7 C 0 km/h
1738 29-06-2019 01:55:00 17.6 C 10.35 g/m*3 17.6 C 0 km/h
1739 29-06-2019 02:00:00 17.6 C 10.35 g/m*3 17.6 C 0 km/h
1740 29-06-2019 02:05:00 17.4 C 10.23 g/m*3 17.4 C 0 km/h
1741 29-06-2019 02:10:00 17.3 C 10.16 g/m*3 17.3 C 0 km/h
1742 29-06-2019 02:15:00 17.3 C 10.31 g/m*3 17.3 C 0 km/h
1743 29-06-2019 02:20:00 17.2 C 10.4 g/m*3 17.2 C 0 km/h
1744 29-06-2019 02:25:00 17.1 C 10.34 g/m*3 17.1 C 0 km/h
1745 29-06-2019 02:30:00 17 C 10.27 g/m*3 17 C 0 km/h
1746 29-06-2019 02:35:00 16.9 C 10.21 g/m*3 16.9 C 0 km/h
1747 29-06-2019 02:40:00 16.9 C 10.36 g/m*3 16.9 C 1.6 km/h
1748 29-06-2019 02:45:00 16.8 C 10.29 g/m*3 16.8 C 0 km/h
1749 29-06-2019 02:50:00 16.8 C 10.44 g/m*3 16.8 C 0 km/h
1750 29-06-2019 02:55:00 16.8 C 10.44 g/m*3 16.8 C 0 km/h
Sensor: Nr:Datum:Temp:Abs-Feuchte:Windchill:Wind:
Aussen-T/F 1751 29-06-2019 03:00:00 16.7 C 10.37 g/m*3 16.7 C 0 km/h
1752 29-06-2019 03:05:00 16.7 C 10.37 g/m*3 16.7 C 0 km/h
1753 29-06-2019 03:10:00 16.6 C 10.45 g/m*3 16.6 C 0 km/h
1754 29-06-2019 03:15:00 16.6 C 10.45 g/m*3 16.6 C 0 km/h
1755 29-06-2019 03:20:00 16.5 C 10.39 g/m*3 16.5 C 0 km/h
1756 29-06-2019 03:25:00 16.4 C 10.33 g/m*3 16.4 C 0 km/h
1757 29-06-2019 03:30:00 16.4 C 10.33 g/m*3 16.4 C 0 km/h
1758 29-06-2019 03:35:00 16.3 C 10.41 g/m*3 16.3 C 0 km/h
1759 29-06-2019 03:40:00 16.3 C 10.41 g/m*3 16.3 C 0 km/h
1760 29-06-2019 03:45:00 16.2 C 10.34 g/m*3 16.2 C 0 km/h
1761 29-06-2019 03:50:00 16.1 C 10.28 g/m*3 16.1 C 0 km/h
1762 29-06-2019 03:55:00 15.9 C 10.29 g/m*3 15.9 C 0 km/h
1763 29-06-2019 04:00:00 15.8 C 10.23 g/m*3 15.8 C 0 km/h
1764 29-06-2019 04:05:00 15.7 C 10.3 g/m*3 15.7 C 0 km/h
1765 29-06-2019 04:10:00 15.6 C 10.24 g/m*3 15.6 C 0 km/h
1766 29-06-2019 04:15:00 15.4 C 10.25 g/m*3 15.4 C 0 km/h
1767 29-06-2019 04:20:00 15.3 C 10.19 g/m*3 15.3 C 0 km/h
1768 29-06-2019 04:25:00 15.2 C 10.12 g/m*3 15.2 C 0 km/h
1769 29-06-2019 04:30:00 15.1 C 10.19 g/m*3 15.1 C 0 km/h
1770 29-06-2019 04:35:00 15 C 10.13 g/m*3 15 C 0 km/h
1771 29-06-2019 04:40:00 14.9 C 10.2 g/m*3 14.9 C 0 km/h
1772 29-06-2019 04:45:00 14.8 C 10.13 g/m*3 14.8 C 0 km/h
1773 29-06-2019 04:50:00 14.7 C 10.07 g/m*3 14.7 C 0 km/h
1774 29-06-2019 04:55:00 14.6 C 10.14 g/m*3 14.6 C 0 km/h
1775 29-06-2019 05:00:00 14.5 C 10.07 g/m*3 14.5 C 0 km/h
Sensor: Nr:Datum:Temp:Abs-Feuchte:Windchill:Wind:
Aussen-T/F 1776 29-06-2019 05:05:00 14.4 C 10.01 g/m*3 14.4 C 0 km/h
1777 29-06-2019 05:10:00 14.3 C 10.07 g/m*3 14.3 C 0 km/h
1778 29-06-2019 05:15:00 14.3 C 10.07 g/m*3 14.3 C 0 km/h
1779 29-06-2019 05:20:00 14.2 C 10.01 g/m*3 14.2 C 0 km/h
1780 29-06-2019 05:25:00 14.1 C 10.07 g/m*3 14.1 C 0 km/h
1781 29-06-2019 05:30:00 14 C 10.01 g/m*3 14 C 0 km/h
1782 29-06-2019 05:35:00 13.9 C 9.95 g/m*3 13.9 C 0 km/h
1783 29-06-2019 05:40:00 13.9 C 10.07 g/m*3 13.9 C 0 km/h
1784 29-06-2019 05:45:00 13.9 C 10.07 g/m*3 13.9 C 0 km/h
1785 29-06-2019 05:50:00 13.8 C 10.01 g/m*3 13.8 C 0 km/h
1786 29-06-2019 05:55:00 13.8 C 10.01 g/m*3 13.8 C 0 km/h
1787 29-06-2019 06:00:00 13.8 C 10.01 g/m*3 13.8 C 0 km/h
1788 29-06-2019 06:05:00 13.7 C 9.95 g/m*3 13.7 C 0 km/h
1789 29-06-2019 06:10:00 13.7 C 9.95 g/m*3 13.7 C 0 km/h
1790 29-06-2019 06:15:00 13.7 C 10.07 g/m*3 13.7 C 0 km/h
1791 29-06-2019 06:20:00 13.7 C 10.18 g/m*3 13.7 C 0 km/h
1792 29-06-2019 06:25:00 13.7 C 10.18 g/m*3 13.7 C 0 km/h
1793 29-06-2019 06:30:00 13.7 C 10.18 g/m*3 13.7 C 0 km/h
1794 29-06-2019 06:35:00 13.7 C 10.18 g/m*3 13.7 C 0 km/h
1795 29-06-2019 06:40:00 13.7 C 10.18 g/m*3 13.7 C 0 km/h
1796 29-06-2019 06:45:00 13.7 C 10.18 g/m*3 13.7 C 0 km/h
1797 29-06-2019 06:50:00 13.7 C 10.18 g/m*3 13.7 C 0 km/h
1798 29-06-2019 06:55:00 13.7 C 10.3 g/m*3 13.7 C 0 km/h
1799 29-06-2019 07:00:00 13.8 C 10.37 g/m*3 13.8 C 0 km/h
1800 29-06-2019 07:05:00 13.8 C 10.37 g/m*3 13.8 C 0 km/h
Sensor: Nr:Datum:Temp:Abs-Feuchte:Windchill:Wind:
Aussen-T/F 1801 29-06-2019 07:10:00 13.8 C 10.37 g/m*3 13.8 C 0 km/h
1802 29-06-2019 07:15:00 13.9 C 10.43 g/m*3 13.9 C 0 km/h
1803 29-06-2019 07:20:00 13.9 C 10.55 g/m*3 13.9 C 0 km/h
1804 29-06-2019 07:25:00 14.1 C 10.68 g/m*3 14.1 C 0 km/h
1805 29-06-2019 07:30:00 14.1 C 10.68 g/m*3 14.1 C 0 km/h
1806 29-06-2019 07:35:00 14.2 C 10.75 g/m*3 14.2 C 0 km/h
1807 29-06-2019 07:40:00 14.3 C 10.81 g/m*3 14.3 C 0 km/h
1808 29-06-2019 07:45:00 14.3 C 10.81 g/m*3 14.3 C 0 km/h
1809 29-06-2019 07:50:00 14.3 C 10.81 g/m*3 14.3 C 0 km/h
1810 29-06-2019 07:55:00 14.4 C 10.88 g/m*3 14.4 C 0 km/h
1811 29-06-2019 08:00:00 14.5 C 10.94 g/m*3 14.5 C 0 km/h
1812 29-06-2019 08:05:00 14.6 C 10.89 g/m*3 14.6 C 0 km/h
1813 29-06-2019 08:10:00 14.7 C 11.08 g/m*3 14.7 C 0 km/h
1814 29-06-2019 08:15:00 14.8 C 11.15 g/m*3 14.8 C 0 km/h
1815 29-06-2019 08:20:00 14.9 C 11.22 g/m*3 14.9 C 0 km/h
1816 29-06-2019 08:25:00 15.1 C 11.22 g/m*3 15.1 C 0 km/h
1817 29-06-2019 08:30:00 15.3 C 11.36 g/m*3 15.3 C 0 km/h
1818 29-06-2019 08:35:00 15.5 C 11.5 g/m*3 15.5 C 0 km/h
1819 29-06-2019 08:40:00 15.7 C 11.64 g/m*3 15.7 C 0 km/h
1820 29-06-2019 08:45:00 15.8 C 11.58 g/m*3 15.8 C 0 km/h
1821 29-06-2019 08:50:00 16 C 11.58 g/m*3 16 C 0 km/h
1822 29-06-2019 08:55:00 16.3 C 11.79 g/m*3 16.3 C 0 km/h
1823 29-06-2019 09:00:00 16.5 C 11.8 g/m*3 16.5 C 1.6 km/h
1824 29-06-2019 09:05:00 16.7 C 11.8 g/m*3 16.7 C 1.6 km/h
1825 29-06-2019 09:10:00 17.2 C 11.72 g/m*3 17.2 C 6.4 km/h
Sensor: Nr:Datum:Temp:Abs-Feuchte:Windchill:Wind:
Aussen-T/F 1826 29-06-2019 09:15:00 17.7 C 11.62 g/m*3 17.7 C 6.4 km/h
1827 29-06-2019 09:20:00 18.7 C 11.69 g/m*3 18.7 C 6.4 km/h
1828 29-06-2019 09:25:00 19.3 C 11.94 g/m*3 19.3 C 3.2 km/h
1829 29-06-2019 09:30:00 19.6 C 11.65 g/m*3 19.6 C 4.8 km/h
1830 29-06-2019 09:35:00 20.1 C 11.82 g/m*3 20.1 C 8.1 km/h
1831 29-06-2019 09:40:00 20.7 C 11.7 g/m*3 20.7 C 9.7 km/h
1832 29-06-2019 09:45:00 21 C 11.72 g/m*3 21 C 6.4 km/h
1833 29-06-2019 09:50:00 21.3 C 11.74 g/m*3 21.3 C 9.7 km/h
1834 29-06-2019 09:55:00 21.6 C 11.38 g/m*3 21.6 C 9.7 km/h
1835 29-06-2019 10:00:00 21.9 C 11.58 g/m*3 21.9 C 9.7 km/h
1836 29-06-2019 10:05:00 22.2 C 11.58 g/m*3 22.2 C 8.1 km/h
1837 29-06-2019 10:10:00 22.4 C 11.52 g/m*3 22.4 C 8.1 km/h
1838 29-06-2019 10:15:00 22.8 C 11.79 g/m*3 22.8 C 8.1 km/h
1839 29-06-2019 10:20:00 23.1 C 11.37 g/m*3 23.1 C 6.4 km/h
1840 29-06-2019 10:25:00 23.4 C 11.35 g/m*3 23.4 C 14.5 km/h
1841 29-06-2019 10:30:00 23.7 C 11.55 g/m*3 23.7 C 14.5 km/h
1842 29-06-2019 10:35:00 23.9 C 11.68 g/m*3 23.9 C 6.4 km/h
1843 29-06-2019 10:40:00 24.2 C 11.44 g/m*3 24.2 C 11.3 km/h
1844 29-06-2019 10:45:00 24.6 C 12.38 g/m*3 24.6 C 6.4 km/h
1845 29-06-2019 10:50:00 24.8 C 11.84 g/m*3 24.8 C 6.4 km/h
1846 29-06-2019 10:55:00 24.9 C 11.45 g/m*3 24.9 C 8.1 km/h
1847 29-06-2019 11:00:00 24.9 C 11.45 g/m*3 24.9 C 6.4 km/h
1848 29-06-2019 11:05:00 25.1 C 11.34 g/m*3 25.1 C 9.7 km/h
1849 29-06-2019 11:10:00 25.3 C 11.71 g/m*3 25.3 C 6.4 km/h
1850 29-06-2019 11:15:00 25.4 C 11.3 g/m*3 25.4 C 9.7 km/h
Sensor: Nr:Datum:Temp:Abs-Feuchte:Windchill:Wind:
Aussen-T/F 1851 29-06-2019 11:20:00 25.7 C 11.73 g/m*3 25.7 C 8.1 km/h
1852 29-06-2019 11:25:00 25.8 C 11.56 g/m*3 25.8 C 8.1 km/h
1853 29-06-2019 11:30:00 25.9 C 11.38 g/m*3 25.9 C 9.7 km/h
1854 29-06-2019 11:35:00 26 C 11.44 g/m*3 26 C 11.3 km/h
1855 29-06-2019 11:40:00 26.2 C 11.57 g/m*3 26.2 C 6.4 km/h
1856 29-06-2019 11:45:00 26.3 C 11.64 g/m*3 26.3 C 6.4 km/h
1857 29-06-2019 11:50:00 26.3 C 11.64 g/m*3 26.3 C 8.1 km/h
1858 29-06-2019 11:55:00 26.4 C 11.7 g/m*3 26.4 C 4.8 km/h
1859 29-06-2019 12:00:00 26.5 C 11.77 g/m*3 26.5 C 8.1 km/h
1860 29-06-2019 12:05:00 26.6 C 11.58 g/m*3 26.6 C 9.7 km/h
1861 29-06-2019 12:10:00 26.8 C 11.71 g/m*3 26.8 C 9.7 km/h
1862 29-06-2019 12:15:00 26.9 C 11.77 g/m*3 26.9 C 6.4 km/h
1863 29-06-2019 12:20:00 27.1 C 11.9 g/m*3 27.1 C 9.7 km/h
1864 29-06-2019 12:25:00 27.4 C 11.84 g/m*3 27.4 C 12.9 km/h
1865 29-06-2019 12:30:00 27.6 C 11.71 g/m*3 27.6 C 12.9 km/h
1866 29-06-2019 12:35:00 27.7 C 11.77 g/m*3 27.7 C 12.9 km/h
1867 29-06-2019 12:40:00 27.9 C 11.9 g/m*3 27.9 C 12.9 km/h
1868 29-06-2019 12:45:00 28.1 C 11.48 g/m*3 28.1 C 14.5 km/h
1869 29-06-2019 12:50:00 28.2 C 11.82 g/m*3 28.2 C 11.3 km/h
1870 29-06-2019 12:55:00 28.2 C 11.55 g/m*3 28.2 C 9.7 km/h
1871 29-06-2019 13:00:00 28.3 C 11.33 g/m*3 28.3 C 14.5 km/h
1872 29-06-2019 13:05:00 28.4 C 11.4 g/m*3 28.4 C 11.3 km/h
1873 29-06-2019 13:10:00 28.6 C 11.24 g/m*3 28.6 C 14.5 km/h
1874 29-06-2019 13:15:00 28.7 C 10.46 g/m*3 28.7 C 9.7 km/h
1875 29-06-2019 13:20:00 28.8 C 10.8 g/m*3 28.8 C 11.3 km/h
Sensor: Nr:Datum:Temp:Abs-Feuchte:Windchill:Wind:
Aussen-T/F 1876 29-06-2019 13:25:00 29.2 C 9.87 g/m*3 29.2 C 12.9 km/h
1877 29-06-2019 13:30:00 29.3 C 9.63 g/m*3 29.3 C 14.5 km/h
1878 29-06-2019 13:35:00 29.5 C 9.74 g/m*3 29.5 C 8.1 km/h
1879 29-06-2019 13:40:00 29.6 C 9.79 g/m*3 29.6 C 9.7 km/h
1880 29-06-2019 13:45:00 29.6 C 9.5 g/m*3 29.6 C 6.4 km/h
1881 29-06-2019 13:50:00 29.6 C 9.5 g/m*3 29.6 C 14.5 km/h
1882 29-06-2019 13:55:00 29.8 C 9.3 g/m*3 29.8 C 12.9 km/h
1883 29-06-2019 14:00:00 30.1 C 9.15 g/m*3 30.1 C 11.3 km/h
1884 29-06-2019 14:05:00 30.1 C 9.76 g/m*3 30.1 C 9.7 km/h
1885 29-06-2019 14:10:00 30.1 C 9.45 g/m*3 30.1 C 6.4 km/h
1886 29-06-2019 14:15:00 30.3 C 9.86 g/m*3 30.3 C 6.4 km/h
1887 29-06-2019 14:20:00 30.3 C 9.55 g/m*3 30.3 C 6.4 km/h
1888 29-06-2019 14:25:00 30.4 C 9.3 g/m*3 30.4 C 4.8 km/h
1889 29-06-2019 14:30:00 30.4 C 9.92 g/m*3 30.4 C 11.3 km/h
1890 29-06-2019 14:35:00 30.6 C 10.02 g/m*3 30.6 C 12.9 km/h
1891 29-06-2019 14:40:00 30.8 C 9.5 g/m*3 30.8 C 9.7 km/h
1892 29-06-2019 14:45:00 31.1 C 9.33 g/m*3 31.1 C 19.3 km/h
1893 29-06-2019 14:50:00 31.3 C 9.43 g/m*3 31.3 C 17.7 km/h
1894 29-06-2019 14:55:00 31.5 C 9.2 g/m*3 31.5 C 17.7 km/h
1895 29-06-2019 15:00:00 31.6 C 9.25 g/m*3 31.6 C 16.1 km/h
1896 29-06-2019 15:05:00 31.7 C 8.97 g/m*3 31.7 C 9.7 km/h
1897 29-06-2019 15:10:00 31.7 C 8.97 g/m*3 31.7 C 8.1 km/h
1898 29-06-2019 15:15:00 31.9 C 9.07 g/m*3 31.9 C 6.4 km/h
1899 29-06-2019 15:20:00 32.2 C 9.21 g/m*3 32.2 C 11.3 km/h
1900 29-06-2019 15:25:00 32.3 C 9.26 g/m*3 32.3 C 11.3 km/h
Sensor: Nr:Datum:Temp:Abs-Feuchte:Windchill:Wind:
Aussen-T/F 1901 29-06-2019 15:30:00 32.5 C 9.36 g/m*3 32.5 C 14.5 km/h
1902 29-06-2019 15:35:00 33 C 9.97 g/m*3 33 C 9.7 km/h
1903 29-06-2019 15:40:00 33.4 C 9.45 g/m*3 33.4 C 12.9 km/h
1904 29-06-2019 15:45:00 33.7 C 9.6 g/m*3 33.7 C 6.4 km/h
1905 29-06-2019 15:50:00 33.8 C 8.91 g/m*3 33.8 C 11.3 km/h
1906 29-06-2019 15:55:00 33.8 C 8.91 g/m*3 33.8 C 11.3 km/h
1907 29-06-2019 16:00:00 33.9 C 8.58 g/m*3 33.9 C 6.4 km/h
1908 29-06-2019 16:05:00 34.1 C 9.05 g/m*3 34.1 C 16.1 km/h
1909 29-06-2019 16:10:00 33.8 C 9.28 g/m*3 33.8 C 12.9 km/h
1910 29-06-2019 16:15:00 34 C 8.63 g/m*3 34 C 12.9 km/h
1911 29-06-2019 16:20:00 34.1 C 8.68 g/m*3 34.1 C 11.3 km/h
1912 29-06-2019 16:25:00 34.3 C 9.15 g/m*3 34.3 C 11.3 km/h
1913 29-06-2019 16:30:00 34.4 C 8.81 g/m*3 34.4 C 12.9 km/h
1914 29-06-2019 16:35:00 34.5 C 9.24 g/m*3 34.5 C 11.3 km/h
1915 29-06-2019 16:40:00 34.4 C 8.81 g/m*3 34.4 C 16.1 km/h
1916 29-06-2019 16:45:00 34.4 C 9.2 g/m*3 34.4 C 11.3 km/h
1917 29-06-2019 16:50:00 34.6 C 8.52 g/m*3 34.6 C 12.9 km/h
1918 29-06-2019 16:55:00 34.4 C 9.2 g/m*3 34.4 C 9.7 km/h
1919 29-06-2019 17:00:00 34.7 C 8.95 g/m*3 34.7 C 11.3 km/h
1920 29-06-2019 17:05:00 34.5 C 8.09 g/m*3 34.5 C 14.5 km/h
1921 29-06-2019 17:10:00 34.7 C 8.95 g/m*3 34.7 C 9.7 km/h
1922 29-06-2019 17:15:00 34.9 C 9.05 g/m*3 34.9 C 9.7 km/h
1923 29-06-2019 17:20:00 35.2 C 8.79 g/m*3 35.2 C 6.4 km/h
1924 29-06-2019 17:25:00 35.4 C 9.28 g/m*3 35.4 C 8.1 km/h
1925 29-06-2019 17:30:00 35.7 C 9.43 g/m*3 35.7 C 1.6 km/h
Sensor: Nr:Datum:Temp:Abs-Feuchte:Windchill:Wind:
Aussen-T/F 1926 29-06-2019 17:35:00 35.8 C 9.07 g/m*3 35.8 C 6.4 km/h
1927 29-06-2019 17:40:00 35.8 C 8.65 g/m*3 35.8 C 4.8 km/h
1928 29-06-2019 17:45:00 35.7 C 9.02 g/m*3 35.7 C 8.1 km/h
1929 29-06-2019 17:50:00 35.7 C 8.61 g/m*3 35.7 C 6.4 km/h
1930 29-06-2019 17:55:00 35.8 C 9.48 g/m*3 35.8 C 6.4 km/h
1931 29-06-2019 18:00:00 35.8 C 9.48 g/m*3 35.8 C 4.8 km/h
1932 29-06-2019 18:05:00 36 C 8.74 g/m*3 36 C 6.4 km/h
1933 29-06-2019 18:10:00 36.3 C 9.3 g/m*3 36.3 C 6.4 km/h
1934 29-06-2019 18:15:00 36 C 8.74 g/m*3 36 C 9.7 km/h
1935 29-06-2019 18:20:00 35.6 C 8.97 g/m*3 35.6 C 9.7 km/h
1936 29-06-2019 18:25:00 35.4 C 9.28 g/m*3 35.4 C 11.3 km/h
1937 29-06-2019 18:30:00 35.3 C 8.83 g/m*3 35.3 C 9.7 km/h
1938 29-06-2019 18:35:00 35.2 C 8.79 g/m*3 35.2 C 9.7 km/h
1939 29-06-2019 18:40:00 35.3 C 9.64 g/m*3 35.3 C 8.1 km/h
1940 29-06-2019 18:45:00 35.4 C 8.88 g/m*3 35.4 C 6.4 km/h
1941 29-06-2019 18:50:00 35.6 C 9.79 g/m*3 35.6 C 1.6 km/h
1942 29-06-2019 18:55:00 35.8 C 10.3 g/m*3 35.8 C 4.8 km/h
1943 29-06-2019 19:00:00 36 C 9.16 g/m*3 36 C 6.4 km/h
1944 29-06-2019 19:05:00 36.1 C 9.21 g/m*3 36.1 C 4.8 km/h
1945 29-06-2019 19:10:00 36 C 9.16 g/m*3 36 C 4.8 km/h
1946 29-06-2019 19:15:00 35.9 C 9.11 g/m*3 35.9 C 4.8 km/h
1947 29-06-2019 19:20:00 35.8 C 9.07 g/m*3 35.8 C 6.4 km/h
1948 29-06-2019 19:25:00 35.4 C 9.28 g/m*3 35.4 C 4.8 km/h
1949 29-06-2019 19:30:00 35 C 9.49 g/m*3 35 C 4.8 km/h
1950 29-06-2019 19:35:00 34.8 C 9.39 g/m*3 34.8 C 3.2 km/h
Sensor: Nr:Datum:Temp:Abs-Feuchte:Windchill:Wind:
Aussen-T/F 1951 29-06-2019 19:40:00 34.8 C 9.78 g/m*3 34.8 C 1.6 km/h
1952 29-06-2019 19:45:00 34.7 C 9.73 g/m*3 34.7 C 3.2 km/h
1953 29-06-2019 19:50:00 34.5 C 9.63 g/m*3 34.5 C 4.8 km/h
1954 29-06-2019 19:55:00 34.2 C 9.48 g/m*3 34.2 C 6.4 km/h
1955 29-06-2019 20:00:00 33.8 C 11.14 g/m*3 33.8 C 4.8 km/h
1956 29-06-2019 20:05:00 33.7 C 11.08 g/m*3 33.7 C 1.6 km/h
1957 29-06-2019 20:10:00 33.7 C 11.45 g/m*3 33.7 C 1.6 km/h
1958 29-06-2019 20:15:00 33.6 C 11.76 g/m*3 33.6 C 1.6 km/h
1959 29-06-2019 20:20:00 33.4 C 11.63 g/m*3 33.4 C 0 km/h
1960 29-06-2019 20:25:00 33.1 C 13.96 g/m*3 33.1 C 1.6 km/h
1961 29-06-2019 20:30:00 32.6 C 12.2 g/m*3 32.6 C 0 km/h
1962 29-06-2019 20:35:00 31.9 C 11.75 g/m*3 31.9 C 0 km/h
1963 29-06-2019 20:40:00 31.4 C 11.77 g/m*3 31.4 C 1.6 km/h
1964 29-06-2019 20:45:00 31 C 11.2 g/m*3 31 C 0 km/h
1965 29-06-2019 20:50:00 30.6 C 11.28 g/m*3 30.6 C 0 km/h
1966 29-06-2019 20:55:00 30.3 C 11.71 g/m*3 30.3 C 0 km/h
1967 29-06-2019 21:00:00 29.9 C 11.46 g/m*3 29.9 C 1.6 km/h
1968 29-06-2019 21:05:00 29.5 C 11.22 g/m*3 29.5 C 1.6 km/h
1969 29-06-2019 21:10:00 29.1 C 10.97 g/m*3 29.1 C 0 km/h
1970 29-06-2019 21:15:00 28.7 C 11.02 g/m*3 28.7 C 1.6 km/h
1971 29-06-2019 21:20:00 28.2 C 11 g/m*3 28.2 C 1.6 km/h
1972 29-06-2019 21:25:00 27.7 C 10.7 g/m*3 27.7 C 1.6 km/h
1973 29-06-2019 21:30:00 27.3 C 10.73 g/m*3 27.3 C 1.6 km/h
1974 29-06-2019 21:35:00 26.8 C 10.44 g/m*3 26.8 C 1.6 km/h
1975 29-06-2019 21:40:00 26.4 C 10.21 g/m*3 26.4 C 1.6 km/h
Sensor: Nr:Datum:Temp:Abs-Feuchte:Windchill:Wind:
Aussen-T/F 1976 29-06-2019 21:45:00 26.2 C 10.09 g/m*3 26.2 C 1.6 km/h
1977 29-06-2019 21:50:00 25.9 C 10.17 g/m*3 25.9 C 1.6 km/h
1978 29-06-2019 21:55:00 25.6 C 10 g/m*3 25.6 C 3.2 km/h
1979 29-06-2019 22:00:00 25.3 C 10.07 g/m*3 25.3 C 1.6 km/h
1980 29-06-2019 22:05:00 25.1 C 9.72 g/m*3 25.1 C 1.6 km/h
1981 29-06-2019 22:10:00 24.8 C 9.79 g/m*3 24.8 C 3.2 km/h
1982 29-06-2019 22:15:00 24.7 C 9.96 g/m*3 24.7 C 1.6 km/h
1983 29-06-2019 22:20:00 24.4 C 9.57 g/m*3 24.4 C 1.6 km/h
1984 29-06-2019 22:25:00 24.3 C 9.74 g/m*3 24.3 C 1.6 km/h
1985 29-06-2019 22:30:00 24.1 C 9.63 g/m*3 24.1 C 1.6 km/h
1986 29-06-2019 22:35:00 24 C 10.01 g/m*3 24 C 1.6 km/h
1987 29-06-2019 22:40:00 23.8 C 10.11 g/m*3 23.8 C 0 km/h
1988 29-06-2019 22:45:00 23.7 C 10.27 g/m*3 23.7 C 0 km/h
1989 29-06-2019 22:50:00 23.4 C 10.51 g/m*3 23.4 C 0 km/h
1990 29-06-2019 22:55:00 23.1 C 10.54 g/m*3 23.1 C 0 km/h
1991 29-06-2019 23:00:00 22.7 C 10.51 g/m*3 22.7 C 0 km/h
1992 29-06-2019 23:05:00 22.4 C 10.72 g/m*3 22.4 C 0 km/h
1993 29-06-2019 23:10:00 22.1 C 10.54 g/m*3 22.1 C 0 km/h
1994 29-06-2019 23:15:00 21.8 C 10.55 g/m*3 21.8 C 0 km/h
1995 29-06-2019 23:20:00 21.6 C 10.81 g/m*3 21.6 C 0 km/h
1996 29-06-2019 23:25:00 21.3 C 10.62 g/m*3 21.3 C 0 km/h
1997 29-06-2019 23:30:00 21.1 C 10.87 g/m*3 21.1 C 0 km/h
1998 29-06-2019 23:35:00 20.7 C 10.62 g/m*3 20.7 C 0 km/h
1999 29-06-2019 23:40:00 20.5 C 10.68 g/m*3 20.5 C 0 km/h
2000 29-06-2019 23:45:00 20.3 C 10.73 g/m*3 20.3 C 0 km/h
Sensor: Nr:Datum:Temp:Abs-Feuchte:Windchill:Wind:
Aussen-T/F 2001 29-06-2019 23:50:00 20.2 C 10.49 g/m*3 20.2 C 0 km/h
2002 29-06-2019 23:55:00 20.1 C 10.6 g/m*3 20.1 C 0 km/h

Legende:
   Min
   Max


Maximal/Minimal-Werte vom 23.02.2003 - 30.09.2020

Sensor Min Max Avg
Temp
(Aussen-T/F)
-16.4 °C
20-12-2009  01:30:01
40.4 °C
25-07-2019  16:20:00
11.32 °C

Die Daten stammen von einer Davis Vantage Pro 2 Wetter-Station und werden unter Linux mit der Software wview2wettercgi und aufbereitet. Alle Angaben erfolgen ohne Gewähr für ihre Vollständigkeit oder Richtigkeit.
Kontakt: Rainer Krienke krienke@uni-koblenz.de . Meine Webseiten an der Uni Koblenz oder privat.
Version: $Revision: 0.78 $